<?xml version="1.0" encoding="UTF-8" standalone="no" ?>
<gpx xmlns="http://www.topografix.com/GPX/1/1" xmlns:xsi="http://www.w3.org/2001/XMLSchema-instance" xsi:schemaLocation="http://www.topografix.com/GPX/1/1 http://www.topografix.com/GPX/1/1/gpx.xsd" version="1.1" creator="VisuGPX - https://www.visugpx.com">
  <metadata>
    <name>Col de saverne</name>
    <desc><![CDATA[Départ Saverne
Fontaine Mélanie
Col de Saverne
Retour sur Saverne]]></desc>
  </metadata>
  <trk>
    <name><![CDATA[ADi2010/09/21_17:01]]></name>
    <trkseg>
      <trkpt lat="48.74412" lon="7.35647">
        <ele>201.659302</ele>
        <time>2010-09-21T15:31:46Z</time>
      </trkpt>
      <trkpt lat="48.74388" lon="7.35667">
        <ele>201.292114</ele>
        <time>2010-09-21T15:31:49Z</time>
      </trkpt>
      <trkpt lat="48.74364" lon="7.35685">
        <ele>200.549927</ele>
        <time>2010-09-21T15:31:51Z</time>
      </trkpt>
      <trkpt lat="48.74355" lon="7.3569">
        <ele>199.682739</ele>
        <time>2010-09-21T15:31:53Z</time>
      </trkpt>
      <trkpt lat="48.7435" lon="7.35692">
        <ele>199.206177</ele>
        <time>2010-09-21T15:31:54Z</time>
      </trkpt>
      <trkpt lat="48.74344" lon="7.35694">
        <ele>198.604614</ele>
        <time>2010-09-21T15:31:55Z</time>
      </trkpt>
      <trkpt lat="48.74339" lon="7.35696">
        <ele>198.350708</ele>
        <time>2010-09-21T15:31:56Z</time>
      </trkpt>
      <trkpt lat="48.74333" lon="7.35696">
        <ele>197.772583</ele>
        <time>2010-09-21T15:31:57Z</time>
      </trkpt>
      <trkpt lat="48.74327" lon="7.35697">
        <ele>197.038208</ele>
        <time>2010-09-21T15:31:58Z</time>
      </trkpt>
      <trkpt lat="48.74321" lon="7.35698">
        <ele>196.784302</ele>
        <time>2010-09-21T15:31:59Z</time>
      </trkpt>
      <trkpt lat="48.74314" lon="7.35699">
        <ele>196.073364</ele>
        <time>2010-09-21T15:32:00Z</time>
      </trkpt>
      <trkpt lat="48.74308" lon="7.35699">
        <ele>195.542114</ele>
        <time>2010-09-21T15:32:01Z</time>
      </trkpt>
      <trkpt lat="48.74301" lon="7.357">
        <ele>195.241333</ele>
        <time>2010-09-21T15:32:02Z</time>
      </trkpt>
      <trkpt lat="48.74293" lon="7.35701">
        <ele>194.405396</ele>
        <time>2010-09-21T15:32:03Z</time>
      </trkpt>
      <trkpt lat="48.74286" lon="7.35703">
        <ele>193.733521</ele>
        <time>2010-09-21T15:32:04Z</time>
      </trkpt>
      <trkpt lat="48.74278" lon="7.35705">
        <ele>193.131958</ele>
        <time>2010-09-21T15:32:05Z</time>
      </trkpt>
      <trkpt lat="48.74271" lon="7.35708">
        <ele>192.725708</ele>
        <time>2010-09-21T15:32:06Z</time>
      </trkpt>
      <trkpt lat="48.74264" lon="7.35711">
        <ele>192.745239</ele>
        <time>2010-09-21T15:32:07Z</time>
      </trkpt>
      <trkpt lat="48.74257" lon="7.35715">
        <ele>192.780396</ele>
        <time>2010-09-21T15:32:08Z</time>
      </trkpt>
      <trkpt lat="48.7425" lon="7.3572">
        <ele>193.108521</ele>
        <time>2010-09-21T15:32:09Z</time>
      </trkpt>
      <trkpt lat="48.74242" lon="7.35725">
        <ele>193.147583</ele>
        <time>2010-09-21T15:32:10Z</time>
      </trkpt>
      <trkpt lat="48.74236" lon="7.3573">
        <ele>193.522583</ele>
        <time>2010-09-21T15:32:11Z</time>
      </trkpt>
      <trkpt lat="48.7423" lon="7.35735">
        <ele>194.010864</ele>
        <time>2010-09-21T15:32:12Z</time>
      </trkpt>
      <trkpt lat="48.74224" lon="7.35741">
        <ele>193.960083</ele>
        <time>2010-09-21T15:32:13Z</time>
      </trkpt>
      <trkpt lat="48.74219" lon="7.35748">
        <ele>194.288208</ele>
        <time>2010-09-21T15:32:14Z</time>
      </trkpt>
      <trkpt lat="48.74214" lon="7.35754">
        <ele>194.573364</ele>
        <time>2010-09-21T15:32:15Z</time>
      </trkpt>
      <trkpt lat="48.7421" lon="7.35761">
        <ele>194.518677</ele>
        <time>2010-09-21T15:32:16Z</time>
      </trkpt>
      <trkpt lat="48.74206" lon="7.35769">
        <ele>194.624146</ele>
        <time>2010-09-21T15:32:17Z</time>
      </trkpt>
      <trkpt lat="48.74202" lon="7.35777">
        <ele>194.960083</ele>
        <time>2010-09-21T15:32:18Z</time>
      </trkpt>
      <trkpt lat="48.74198" lon="7.35785">
        <ele>195.542114</ele>
        <time>2010-09-21T15:32:19Z</time>
      </trkpt>
      <trkpt lat="48.74195" lon="7.35793">
        <ele>195.940552</ele>
        <time>2010-09-21T15:32:20Z</time>
      </trkpt>
      <trkpt lat="48.74192" lon="7.35802">
        <ele>196.421021</ele>
        <time>2010-09-21T15:32:21Z</time>
      </trkpt>
      <trkpt lat="48.7419" lon="7.35809">
        <ele>197.229614</ele>
        <time>2010-09-21T15:32:22Z</time>
      </trkpt>
      <trkpt lat="48.74187" lon="7.35817">
        <ele>197.424927</ele>
        <time>2010-09-21T15:32:23Z</time>
      </trkpt>
      <trkpt lat="48.74185" lon="7.35825">
        <ele>197.698364</ele>
        <time>2010-09-21T15:32:24Z</time>
      </trkpt>
      <trkpt lat="48.74182" lon="7.35831">
        <ele>197.518677</ele>
        <time>2010-09-21T15:32:25Z</time>
      </trkpt>
      <trkpt lat="48.74175" lon="7.35835">
        <ele>197.565552</ele>
        <time>2010-09-21T15:32:27Z</time>
      </trkpt>
      <trkpt lat="48.7417" lon="7.35828">
        <ele>198.233521</ele>
        <time>2010-09-21T15:32:29Z</time>
      </trkpt>
      <trkpt lat="48.74168" lon="7.35821">
        <ele>198.549927</ele>
        <time>2010-09-21T15:32:30Z</time>
      </trkpt>
      <trkpt lat="48.74165" lon="7.35812">
        <ele>198.241333</ele>
        <time>2010-09-21T15:32:31Z</time>
      </trkpt>
      <trkpt lat="48.74164" lon="7.35804">
        <ele>198.018677</ele>
        <time>2010-09-21T15:32:32Z</time>
      </trkpt>
      <trkpt lat="48.74162" lon="7.35796">
        <ele>198.631958</ele>
        <time>2010-09-21T15:32:33Z</time>
      </trkpt>
      <trkpt lat="48.7416" lon="7.35787">
        <ele>198.674927</ele>
        <time>2010-09-21T15:32:34Z</time>
      </trkpt>
      <trkpt lat="48.74158" lon="7.35777">
        <ele>198.924927</ele>
        <time>2010-09-21T15:32:35Z</time>
      </trkpt>
      <trkpt lat="48.74157" lon="7.35768">
        <ele>199.260864</ele>
        <time>2010-09-21T15:32:36Z</time>
      </trkpt>
      <trkpt lat="48.74156" lon="7.35759">
        <ele>199.471802</ele>
        <time>2010-09-21T15:32:37Z</time>
      </trkpt>
      <trkpt lat="48.74156" lon="7.3575">
        <ele>199.737427</ele>
        <time>2010-09-21T15:32:38Z</time>
      </trkpt>
      <trkpt lat="48.74157" lon="7.35739">
        <ele>199.616333</ele>
        <time>2010-09-21T15:32:39Z</time>
      </trkpt>
      <trkpt lat="48.74155" lon="7.35728">
        <ele>199.436646</ele>
        <time>2010-09-21T15:32:40Z</time>
      </trkpt>
      <trkpt lat="48.74155" lon="7.35717">
        <ele>199.940552</ele>
        <time>2010-09-21T15:32:41Z</time>
      </trkpt>
      <trkpt lat="48.74155" lon="7.35706">
        <ele>199.784302</ele>
        <time>2010-09-21T15:32:42Z</time>
      </trkpt>
      <trkpt lat="48.74155" lon="7.35694">
        <ele>199.421021</ele>
        <time>2010-09-21T15:32:43Z</time>
      </trkpt>
      <trkpt lat="48.74155" lon="7.35682">
        <ele>199.092896</ele>
        <time>2010-09-21T15:32:44Z</time>
      </trkpt>
      <trkpt lat="48.74156" lon="7.3567">
        <ele>197.815552</ele>
        <time>2010-09-21T15:32:45Z</time>
      </trkpt>
      <trkpt lat="48.74155" lon="7.35659">
        <ele>197.417114</ele>
        <time>2010-09-21T15:32:46Z</time>
      </trkpt>
      <trkpt lat="48.74155" lon="7.35647">
        <ele>197.256958</ele>
        <time>2010-09-21T15:32:47Z</time>
      </trkpt>
      <trkpt lat="48.74154" lon="7.35635">
        <ele>197.042114</ele>
        <time>2010-09-21T15:32:48Z</time>
      </trkpt>
      <trkpt lat="48.74154" lon="7.35623">
        <ele>196.889771</ele>
        <time>2010-09-21T15:32:49Z</time>
      </trkpt>
      <trkpt lat="48.74153" lon="7.3561">
        <ele>196.725708</ele>
        <time>2010-09-21T15:32:50Z</time>
      </trkpt>
      <trkpt lat="48.74152" lon="7.35598">
        <ele>196.487427</ele>
        <time>2010-09-21T15:32:51Z</time>
      </trkpt>
      <trkpt lat="48.74151" lon="7.35586">
        <ele>196.202271</ele>
        <time>2010-09-21T15:32:52Z</time>
      </trkpt>
      <trkpt lat="48.7415" lon="7.35574">
        <ele>196.178833</ele>
        <time>2010-09-21T15:32:53Z</time>
      </trkpt>
      <trkpt lat="48.74149" lon="7.35562">
        <ele>196.124146</ele>
        <time>2010-09-21T15:32:54Z</time>
      </trkpt>
      <trkpt lat="48.74149" lon="7.3555">
        <ele>196.198364</ele>
        <time>2010-09-21T15:32:55Z</time>
      </trkpt>
      <trkpt lat="48.74148" lon="7.35538">
        <ele>195.924927</ele>
        <time>2010-09-21T15:32:56Z</time>
      </trkpt>
      <trkpt lat="48.74147" lon="7.35526">
        <ele>195.917114</ele>
        <time>2010-09-21T15:32:57Z</time>
      </trkpt>
      <trkpt lat="48.74147" lon="7.35514">
        <ele>195.647583</ele>
        <time>2010-09-21T15:32:58Z</time>
      </trkpt>
      <trkpt lat="48.74146" lon="7.35502">
        <ele>195.756958</ele>
        <time>2010-09-21T15:32:59Z</time>
      </trkpt>
      <trkpt lat="48.74146" lon="7.35491">
        <ele>196.018677</ele>
        <time>2010-09-21T15:33:00Z</time>
      </trkpt>
      <trkpt lat="48.74146" lon="7.3548">
        <ele>196.073364</ele>
        <time>2010-09-21T15:33:01Z</time>
      </trkpt>
      <trkpt lat="48.74144" lon="7.35468">
        <ele>195.952271</ele>
        <time>2010-09-21T15:33:02Z</time>
      </trkpt>
      <trkpt lat="48.74144" lon="7.35457">
        <ele>195.971802</ele>
        <time>2010-09-21T15:33:03Z</time>
      </trkpt>
      <trkpt lat="48.74143" lon="7.35446">
        <ele>196.186646</ele>
        <time>2010-09-21T15:33:04Z</time>
      </trkpt>
      <trkpt lat="48.74143" lon="7.35435">
        <ele>195.596802</ele>
        <time>2010-09-21T15:33:05Z</time>
      </trkpt>
      <trkpt lat="48.74143" lon="7.35424">
        <ele>195.553833</ele>
        <time>2010-09-21T15:33:06Z</time>
      </trkpt>
      <trkpt lat="48.74143" lon="7.35413">
        <ele>195.120239</ele>
        <time>2010-09-21T15:33:07Z</time>
      </trkpt>
      <trkpt lat="48.74142" lon="7.35403">
        <ele>194.831177</ele>
        <time>2010-09-21T15:33:08Z</time>
      </trkpt>
      <trkpt lat="48.74142" lon="7.35392">
        <ele>194.694458</ele>
        <time>2010-09-21T15:33:09Z</time>
      </trkpt>
      <trkpt lat="48.74141" lon="7.35381">
        <ele>194.292114</ele>
        <time>2010-09-21T15:33:10Z</time>
      </trkpt>
      <trkpt lat="48.74141" lon="7.35371">
        <ele>194.331177</ele>
        <time>2010-09-21T15:33:11Z</time>
      </trkpt>
      <trkpt lat="48.74141" lon="7.35361">
        <ele>194.608521</ele>
        <time>2010-09-21T15:33:12Z</time>
      </trkpt>
      <trkpt lat="48.7414" lon="7.3535">
        <ele>194.569458</ele>
        <time>2010-09-21T15:33:13Z</time>
      </trkpt>
      <trkpt lat="48.7414" lon="7.3534">
        <ele>194.749146</ele>
        <time>2010-09-21T15:33:14Z</time>
      </trkpt>
      <trkpt lat="48.74139" lon="7.3533">
        <ele>194.690552</ele>
        <time>2010-09-21T15:33:15Z</time>
      </trkpt>
      <trkpt lat="48.74138" lon="7.35319">
        <ele>194.803833</ele>
        <time>2010-09-21T15:33:16Z</time>
      </trkpt>
      <trkpt lat="48.74137" lon="7.35309">
        <ele>194.733521</ele>
        <time>2010-09-21T15:33:17Z</time>
      </trkpt>
      <trkpt lat="48.74138" lon="7.35298">
        <ele>194.745239</ele>
        <time>2010-09-21T15:33:18Z</time>
      </trkpt>
      <trkpt lat="48.74137" lon="7.35287">
        <ele>194.909302</ele>
        <time>2010-09-21T15:33:19Z</time>
      </trkpt>
      <trkpt lat="48.74136" lon="7.35276">
        <ele>195.018677</ele>
        <time>2010-09-21T15:33:20Z</time>
      </trkpt>
      <trkpt lat="48.74136" lon="7.35264">
        <ele>194.924927</ele>
        <time>2010-09-21T15:33:21Z</time>
      </trkpt>
      <trkpt lat="48.74136" lon="7.35253">
        <ele>194.936646</ele>
        <time>2010-09-21T15:33:22Z</time>
      </trkpt>
      <trkpt lat="48.74136" lon="7.35242">
        <ele>194.682739</ele>
        <time>2010-09-21T15:33:23Z</time>
      </trkpt>
      <trkpt lat="48.74135" lon="7.3523">
        <ele>194.659302</ele>
        <time>2010-09-21T15:33:24Z</time>
      </trkpt>
      <trkpt lat="48.74134" lon="7.3522">
        <ele>194.921021</ele>
        <time>2010-09-21T15:33:25Z</time>
      </trkpt>
      <trkpt lat="48.74134" lon="7.35209">
        <ele>195.049927</ele>
        <time>2010-09-21T15:33:26Z</time>
      </trkpt>
      <trkpt lat="48.74134" lon="7.35199">
        <ele>194.792114</ele>
        <time>2010-09-21T15:33:27Z</time>
      </trkpt>
      <trkpt lat="48.74133" lon="7.3519">
        <ele>194.827271</ele>
        <time>2010-09-21T15:33:28Z</time>
      </trkpt>
      <trkpt lat="48.74132" lon="7.35181">
        <ele>194.917114</ele>
        <time>2010-09-21T15:33:29Z</time>
      </trkpt>
      <trkpt lat="48.74133" lon="7.35174">
        <ele>194.725708</ele>
        <time>2010-09-21T15:33:30Z</time>
      </trkpt>
      <trkpt lat="48.74135" lon="7.35167">
        <ele>194.698364</ele>
        <time>2010-09-21T15:33:31Z</time>
      </trkpt>
      <trkpt lat="48.74138" lon="7.35161">
        <ele>194.639771</ele>
        <time>2010-09-21T15:33:32Z</time>
      </trkpt>
      <trkpt lat="48.74143" lon="7.35152">
        <ele>194.264771</ele>
        <time>2010-09-21T15:33:34Z</time>
      </trkpt>
      <trkpt lat="48.74149" lon="7.35145">
        <ele>193.921021</ele>
        <time>2010-09-21T15:33:36Z</time>
      </trkpt>
      <trkpt lat="48.74154" lon="7.35138">
        <ele>193.143677</ele>
        <time>2010-09-21T15:33:38Z</time>
      </trkpt>
      <trkpt lat="48.74161" lon="7.35137">
        <ele>193.034302</ele>
        <time>2010-09-21T15:33:40Z</time>
      </trkpt>
      <trkpt lat="48.74168" lon="7.35141">
        <ele>193.174927</ele>
        <time>2010-09-21T15:33:42Z</time>
      </trkpt>
      <trkpt lat="48.74175" lon="7.35144">
        <ele>193.233521</ele>
        <time>2010-09-21T15:33:44Z</time>
      </trkpt>
      <trkpt lat="48.74181" lon="7.35147">
        <ele>192.991333</ele>
        <time>2010-09-21T15:33:46Z</time>
      </trkpt>
      <trkpt lat="48.7419" lon="7.35147">
        <ele>193.436646</ele>
        <time>2010-09-21T15:33:48Z</time>
      </trkpt>
      <trkpt lat="48.74196" lon="7.35146">
        <ele>193.561646</ele>
        <time>2010-09-21T15:33:49Z</time>
      </trkpt>
      <trkpt lat="48.74203" lon="7.35144">
        <ele>194.963989</ele>
        <time>2010-09-21T15:33:51Z</time>
      </trkpt>
      <trkpt lat="48.7421" lon="7.35144">
        <ele>196.182739</ele>
        <time>2010-09-21T15:33:53Z</time>
      </trkpt>
      <trkpt lat="48.74214" lon="7.35137">
        <ele>196.768677</ele>
        <time>2010-09-21T15:33:55Z</time>
      </trkpt>
      <trkpt lat="48.74215" lon="7.35128">
        <ele>197.792114</ele>
        <time>2010-09-21T15:33:57Z</time>
      </trkpt>
      <trkpt lat="48.74212" lon="7.35119">
        <ele>198.967896</ele>
        <time>2010-09-21T15:33:59Z</time>
      </trkpt>
      <trkpt lat="48.74208" lon="7.35108">
        <ele>200.506958</ele>
        <time>2010-09-21T15:34:01Z</time>
      </trkpt>
      <trkpt lat="48.74204" lon="7.35098">
        <ele>202.276489</ele>
        <time>2010-09-21T15:34:03Z</time>
      </trkpt>
      <trkpt lat="48.74202" lon="7.35089">
        <ele>203.975708</ele>
        <time>2010-09-21T15:34:05Z</time>
      </trkpt>
      <trkpt lat="48.74199" lon="7.35082">
        <ele>204.151489</ele>
        <time>2010-09-21T15:34:06Z</time>
      </trkpt>
      <trkpt lat="48.74196" lon="7.35075">
        <ele>204.565552</ele>
        <time>2010-09-21T15:34:07Z</time>
      </trkpt>
      <trkpt lat="48.74192" lon="7.35064">
        <ele>205.085083</ele>
        <time>2010-09-21T15:34:09Z</time>
      </trkpt>
      <trkpt lat="48.74187" lon="7.35054">
        <ele>205.491333</ele>
        <time>2010-09-21T15:34:11Z</time>
      </trkpt>
      <trkpt lat="48.74182" lon="7.35048">
        <ele>205.842896</ele>
        <time>2010-09-21T15:34:12Z</time>
      </trkpt>
      <trkpt lat="48.74181" lon="7.3504">
        <ele>205.354614</ele>
        <time>2010-09-21T15:34:13Z</time>
      </trkpt>
      <trkpt lat="48.74173" lon="7.35036">
        <ele>205.827271</ele>
        <time>2010-09-21T15:34:14Z</time>
      </trkpt>
      <trkpt lat="48.7417" lon="7.35029">
        <ele>205.393677</ele>
        <time>2010-09-21T15:34:15Z</time>
      </trkpt>
      <trkpt lat="48.74169" lon="7.3502">
        <ele>204.850708</ele>
        <time>2010-09-21T15:34:16Z</time>
      </trkpt>
      <trkpt lat="48.74167" lon="7.35014">
        <ele>204.479614</ele>
        <time>2010-09-21T15:34:17Z</time>
      </trkpt>
      <trkpt lat="48.74161" lon="7.35007">
        <ele>203.417114</ele>
        <time>2010-09-21T15:34:18Z</time>
      </trkpt>
      <trkpt lat="48.74157" lon="7.35">
        <ele>203.374146</ele>
        <time>2010-09-21T15:34:19Z</time>
      </trkpt>
      <trkpt lat="48.74154" lon="7.34994">
        <ele>203.389771</ele>
        <time>2010-09-21T15:34:20Z</time>
      </trkpt>
      <trkpt lat="48.74151" lon="7.34988">
        <ele>203.561646</ele>
        <time>2010-09-21T15:34:21Z</time>
      </trkpt>
      <trkpt lat="48.74147" lon="7.34982">
        <ele>203.335083</ele>
        <time>2010-09-21T15:34:22Z</time>
      </trkpt>
      <trkpt lat="48.74144" lon="7.34976">
        <ele>203.331177</ele>
        <time>2010-09-21T15:34:23Z</time>
      </trkpt>
      <trkpt lat="48.74141" lon="7.3497">
        <ele>203.385864</ele>
        <time>2010-09-21T15:34:24Z</time>
      </trkpt>
      <trkpt lat="48.74138" lon="7.34963">
        <ele>203.651489</ele>
        <time>2010-09-21T15:34:25Z</time>
      </trkpt>
      <trkpt lat="48.74134" lon="7.34957">
        <ele>204.022583</ele>
        <time>2010-09-21T15:34:26Z</time>
      </trkpt>
      <trkpt lat="48.74131" lon="7.34951">
        <ele>203.456177</ele>
        <time>2010-09-21T15:34:27Z</time>
      </trkpt>
      <trkpt lat="48.74127" lon="7.34945">
        <ele>203.444458</ele>
        <time>2010-09-21T15:34:28Z</time>
      </trkpt>
      <trkpt lat="48.74119" lon="7.34936">
        <ele>203.335083</ele>
        <time>2010-09-21T15:34:30Z</time>
      </trkpt>
      <trkpt lat="48.74115" lon="7.3493">
        <ele>203.546021</ele>
        <time>2010-09-21T15:34:31Z</time>
      </trkpt>
      <trkpt lat="48.74111" lon="7.34924">
        <ele>203.846802</ele>
        <time>2010-09-21T15:34:32Z</time>
      </trkpt>
      <trkpt lat="48.74107" lon="7.34919">
        <ele>203.878052</ele>
        <time>2010-09-21T15:34:33Z</time>
      </trkpt>
      <trkpt lat="48.74103" lon="7.34915">
        <ele>203.838989</ele>
        <time>2010-09-21T15:34:34Z</time>
      </trkpt>
      <trkpt lat="48.74099" lon="7.3491">
        <ele>204.006958</ele>
        <time>2010-09-21T15:34:35Z</time>
      </trkpt>
      <trkpt lat="48.74094" lon="7.34904">
        <ele>204.342896</ele>
        <time>2010-09-21T15:34:36Z</time>
      </trkpt>
      <trkpt lat="48.7409" lon="7.34897">
        <ele>204.456177</ele>
        <time>2010-09-21T15:34:37Z</time>
      </trkpt>
      <trkpt lat="48.74087" lon="7.3489">
        <ele>204.651489</ele>
        <time>2010-09-21T15:34:38Z</time>
      </trkpt>
      <trkpt lat="48.74083" lon="7.34882">
        <ele>204.854614</ele>
        <time>2010-09-21T15:34:39Z</time>
      </trkpt>
      <trkpt lat="48.7408" lon="7.34875">
        <ele>205.350708</ele>
        <time>2010-09-21T15:34:40Z</time>
      </trkpt>
      <trkpt lat="48.74075" lon="7.34867">
        <ele>205.276489</ele>
        <time>2010-09-21T15:34:41Z</time>
      </trkpt>
      <trkpt lat="48.74071" lon="7.34858">
        <ele>205.409302</ele>
        <time>2010-09-21T15:34:42Z</time>
      </trkpt>
      <trkpt lat="48.74065" lon="7.34848">
        <ele>205.171021</ele>
        <time>2010-09-21T15:34:43Z</time>
      </trkpt>
      <trkpt lat="48.74066" lon="7.34839">
        <ele>204.553833</ele>
        <time>2010-09-21T15:34:44Z</time>
      </trkpt>
      <trkpt lat="48.74069" lon="7.34831">
        <ele>204.557739</ele>
        <time>2010-09-21T15:34:45Z</time>
      </trkpt>
      <trkpt lat="48.74072" lon="7.34824">
        <ele>204.421021</ele>
        <time>2010-09-21T15:34:46Z</time>
      </trkpt>
      <trkpt lat="48.74076" lon="7.34819">
        <ele>204.003052</ele>
        <time>2010-09-21T15:34:47Z</time>
      </trkpt>
      <trkpt lat="48.74082" lon="7.3481">
        <ele>202.764771</ele>
        <time>2010-09-21T15:34:49Z</time>
      </trkpt>
      <trkpt lat="48.74085" lon="7.34804">
        <ele>201.995239</ele>
        <time>2010-09-21T15:34:51Z</time>
      </trkpt>
      <trkpt lat="48.74089" lon="7.34793">
        <ele>201.241333</ele>
        <time>2010-09-21T15:34:53Z</time>
      </trkpt>
      <trkpt lat="48.74084" lon="7.3479">
        <ele>200.776489</ele>
        <time>2010-09-21T15:34:55Z</time>
      </trkpt>
      <trkpt lat="48.74078" lon="7.34783">
        <ele>200.393677</ele>
        <time>2010-09-21T15:34:57Z</time>
      </trkpt>
      <trkpt lat="48.74072" lon="7.34778">
        <ele>200.088989</ele>
        <time>2010-09-21T15:34:58Z</time>
      </trkpt>
      <trkpt lat="48.74065" lon="7.34773">
        <ele>199.737427</ele>
        <time>2010-09-21T15:34:59Z</time>
      </trkpt>
      <trkpt lat="48.74059" lon="7.34767">
        <ele>199.436646</ele>
        <time>2010-09-21T15:35:00Z</time>
      </trkpt>
      <trkpt lat="48.74052" lon="7.34762">
        <ele>199.174927</ele>
        <time>2010-09-21T15:35:01Z</time>
      </trkpt>
      <trkpt lat="48.74046" lon="7.34757">
        <ele>198.878052</ele>
        <time>2010-09-21T15:35:02Z</time>
      </trkpt>
      <trkpt lat="48.7404" lon="7.34753">
        <ele>198.549927</ele>
        <time>2010-09-21T15:35:03Z</time>
      </trkpt>
      <trkpt lat="48.7403" lon="7.34746">
        <ele>198.358521</ele>
        <time>2010-09-21T15:35:04Z</time>
      </trkpt>
      <trkpt lat="48.74024" lon="7.34741">
        <ele>198.202271</ele>
        <time>2010-09-21T15:35:05Z</time>
      </trkpt>
      <trkpt lat="48.74019" lon="7.34737">
        <ele>198.081177</ele>
        <time>2010-09-21T15:35:06Z</time>
      </trkpt>
      <trkpt lat="48.74015" lon="7.34731">
        <ele>197.936646</ele>
        <time>2010-09-21T15:35:07Z</time>
      </trkpt>
      <trkpt lat="48.74009" lon="7.34722">
        <ele>197.682739</ele>
        <time>2010-09-21T15:35:09Z</time>
      </trkpt>
      <trkpt lat="48.74005" lon="7.34717">
        <ele>197.542114</ele>
        <time>2010-09-21T15:35:10Z</time>
      </trkpt>
      <trkpt lat="48.74002" lon="7.34708">
        <ele>197.405396</ele>
        <time>2010-09-21T15:35:11Z</time>
      </trkpt>
      <trkpt lat="48.73999" lon="7.34702">
        <ele>197.288208</ele>
        <time>2010-09-21T15:35:12Z</time>
      </trkpt>
      <trkpt lat="48.73992" lon="7.34695">
        <ele>197.432739</ele>
        <time>2010-09-21T15:35:13Z</time>
      </trkpt>
      <trkpt lat="48.73983" lon="7.34688">
        <ele>197.862427</ele>
        <time>2010-09-21T15:35:14Z</time>
      </trkpt>
      <trkpt lat="48.73978" lon="7.34684">
        <ele>198.171021</ele>
        <time>2010-09-21T15:35:15Z</time>
      </trkpt>
      <trkpt lat="48.73971" lon="7.34684">
        <ele>198.577271</ele>
        <time>2010-09-21T15:35:16Z</time>
      </trkpt>
      <trkpt lat="48.73965" lon="7.34682">
        <ele>198.913208</ele>
        <time>2010-09-21T15:35:17Z</time>
      </trkpt>
      <trkpt lat="48.73959" lon="7.34681">
        <ele>199.233521</ele>
        <time>2010-09-21T15:35:18Z</time>
      </trkpt>
      <trkpt lat="48.73952" lon="7.34682">
        <ele>199.436646</ele>
        <time>2010-09-21T15:35:20Z</time>
      </trkpt>
      <trkpt lat="48.73946" lon="7.34678">
        <ele>199.655396</ele>
        <time>2010-09-21T15:35:22Z</time>
      </trkpt>
      <trkpt lat="48.7394" lon="7.34676">
        <ele>200.495239</ele>
        <time>2010-09-21T15:35:25Z</time>
      </trkpt>
      <trkpt lat="48.73938" lon="7.34667">
        <ele>201.428833</ele>
        <time>2010-09-21T15:35:28Z</time>
      </trkpt>
      <trkpt lat="48.73934" lon="7.34664">
        <ele>201.971802</ele>
        <time>2010-09-21T15:35:29Z</time>
      </trkpt>
      <trkpt lat="48.7393" lon="7.3466">
        <ele>202.229614</ele>
        <time>2010-09-21T15:35:30Z</time>
      </trkpt>
      <trkpt lat="48.73924" lon="7.34653">
        <ele>202.010864</ele>
        <time>2010-09-21T15:35:31Z</time>
      </trkpt>
      <trkpt lat="48.7392" lon="7.34645">
        <ele>201.924927</ele>
        <time>2010-09-21T15:35:32Z</time>
      </trkpt>
      <trkpt lat="48.73916" lon="7.34641">
        <ele>202.366333</ele>
        <time>2010-09-21T15:35:33Z</time>
      </trkpt>
      <trkpt lat="48.73911" lon="7.34633">
        <ele>202.807739</ele>
        <time>2010-09-21T15:35:35Z</time>
      </trkpt>
      <trkpt lat="48.73908" lon="7.34625">
        <ele>202.874146</ele>
        <time>2010-09-21T15:35:37Z</time>
      </trkpt>
      <trkpt lat="48.73901" lon="7.34623">
        <ele>203.370239</ele>
        <time>2010-09-21T15:35:39Z</time>
      </trkpt>
      <trkpt lat="48.73898" lon="7.34617">
        <ele>203.581177</ele>
        <time>2010-09-21T15:35:41Z</time>
      </trkpt>
      <trkpt lat="48.73894" lon="7.34607">
        <ele>203.596802</ele>
        <time>2010-09-21T15:35:43Z</time>
      </trkpt>
      <trkpt lat="48.73893" lon="7.34596">
        <ele>205.120239</ele>
        <time>2010-09-21T15:35:45Z</time>
      </trkpt>
      <trkpt lat="48.73894" lon="7.34587">
        <ele>205.639771</ele>
        <time>2010-09-21T15:35:47Z</time>
      </trkpt>
      <trkpt lat="48.73895" lon="7.34577">
        <ele>204.760864</ele>
        <time>2010-09-21T15:35:49Z</time>
      </trkpt>
      <trkpt lat="48.73897" lon="7.34566">
        <ele>205.092896</ele>
        <time>2010-09-21T15:35:51Z</time>
      </trkpt>
      <trkpt lat="48.73899" lon="7.34556">
        <ele>205.721802</ele>
        <time>2010-09-21T15:35:53Z</time>
      </trkpt>
      <trkpt lat="48.739" lon="7.34548">
        <ele>206.288208</ele>
        <time>2010-09-21T15:35:55Z</time>
      </trkpt>
      <trkpt lat="48.739" lon="7.34539">
        <ele>206.585083</ele>
        <time>2010-09-21T15:35:57Z</time>
      </trkpt>
      <trkpt lat="48.73899" lon="7.34531">
        <ele>206.674927</ele>
        <time>2010-09-21T15:35:59Z</time>
      </trkpt>
      <trkpt lat="48.73901" lon="7.34525">
        <ele>206.651489</ele>
        <time>2010-09-21T15:36:01Z</time>
      </trkpt>
      <trkpt lat="48.73902" lon="7.34515">
        <ele>207.737427</ele>
        <time>2010-09-21T15:36:04Z</time>
      </trkpt>
      <trkpt lat="48.73904" lon="7.34507">
        <ele>207.874146</ele>
        <time>2010-09-21T15:36:06Z</time>
      </trkpt>
      <trkpt lat="48.73905" lon="7.34499">
        <ele>206.885864</ele>
        <time>2010-09-21T15:36:08Z</time>
      </trkpt>
      <trkpt lat="48.73908" lon="7.3449">
        <ele>206.667114</ele>
        <time>2010-09-21T15:36:10Z</time>
      </trkpt>
      <trkpt lat="48.73911" lon="7.34481">
        <ele>206.733521</ele>
        <time>2010-09-21T15:36:12Z</time>
      </trkpt>
      <trkpt lat="48.73914" lon="7.34472">
        <ele>206.631958</ele>
        <time>2010-09-21T15:36:14Z</time>
      </trkpt>
      <trkpt lat="48.73918" lon="7.34462">
        <ele>206.452271</ele>
        <time>2010-09-21T15:36:16Z</time>
      </trkpt>
      <trkpt lat="48.73921" lon="7.34456">
        <ele>206.350708</ele>
        <time>2010-09-21T15:36:17Z</time>
      </trkpt>
      <trkpt lat="48.73927" lon="7.34445">
        <ele>206.389771</ele>
        <time>2010-09-21T15:36:19Z</time>
      </trkpt>
      <trkpt lat="48.73931" lon="7.34437">
        <ele>206.424927</ele>
        <time>2010-09-21T15:36:21Z</time>
      </trkpt>
      <trkpt lat="48.73934" lon="7.34428">
        <ele>207.042114</ele>
        <time>2010-09-21T15:36:23Z</time>
      </trkpt>
      <trkpt lat="48.73937" lon="7.34417">
        <ele>207.284302</ele>
        <time>2010-09-21T15:36:25Z</time>
      </trkpt>
      <trkpt lat="48.73938" lon="7.34408">
        <ele>207.546021</ele>
        <time>2010-09-21T15:36:27Z</time>
      </trkpt>
      <trkpt lat="48.73939" lon="7.34398">
        <ele>207.432739</ele>
        <time>2010-09-21T15:36:29Z</time>
      </trkpt>
      <trkpt lat="48.73941" lon="7.3439">
        <ele>207.147583</ele>
        <time>2010-09-21T15:36:31Z</time>
      </trkpt>
      <trkpt lat="48.73942" lon="7.34381">
        <ele>206.948364</ele>
        <time>2010-09-21T15:36:33Z</time>
      </trkpt>
      <trkpt lat="48.73941" lon="7.34371">
        <ele>207.100708</ele>
        <time>2010-09-21T15:36:35Z</time>
      </trkpt>
      <trkpt lat="48.73941" lon="7.34361">
        <ele>207.151489</ele>
        <time>2010-09-21T15:36:37Z</time>
      </trkpt>
      <trkpt lat="48.73941" lon="7.34353">
        <ele>206.682739</ele>
        <time>2010-09-21T15:36:39Z</time>
      </trkpt>
      <trkpt lat="48.73941" lon="7.34343">
        <ele>208.432739</ele>
        <time>2010-09-21T15:36:40Z</time>
      </trkpt>
      <trkpt lat="48.73935" lon="7.34333">
        <ele>210.225708</ele>
        <time>2010-09-21T15:36:42Z</time>
      </trkpt>
      <trkpt lat="48.73934" lon="7.34327">
        <ele>212.182739</ele>
        <time>2010-09-21T15:36:43Z</time>
      </trkpt>
      <trkpt lat="48.73934" lon="7.34318">
        <ele>211.944458</ele>
        <time>2010-09-21T15:36:45Z</time>
      </trkpt>
      <trkpt lat="48.73935" lon="7.34307">
        <ele>211.424927</ele>
        <time>2010-09-21T15:36:47Z</time>
      </trkpt>
      <trkpt lat="48.73936" lon="7.34292">
        <ele>209.897583</ele>
        <time>2010-09-21T15:36:49Z</time>
      </trkpt>
      <trkpt lat="48.73931" lon="7.34283">
        <ele>210.987427</ele>
        <time>2010-09-21T15:36:51Z</time>
      </trkpt>
      <trkpt lat="48.73926" lon="7.34277">
        <ele>212.049927</ele>
        <time>2010-09-21T15:36:53Z</time>
      </trkpt>
      <trkpt lat="48.73925" lon="7.34267">
        <ele>212.913208</ele>
        <time>2010-09-21T15:36:56Z</time>
      </trkpt>
      <trkpt lat="48.73923" lon="7.34256">
        <ele>213.624146</ele>
        <time>2010-09-21T15:36:58Z</time>
      </trkpt>
      <trkpt lat="48.73923" lon="7.34246">
        <ele>215.362427</ele>
        <time>2010-09-21T15:37:00Z</time>
      </trkpt>
      <trkpt lat="48.73921" lon="7.34239">
        <ele>218.006958</ele>
        <time>2010-09-21T15:37:01Z</time>
      </trkpt>
      <trkpt lat="48.73921" lon="7.34227">
        <ele>222.358521</ele>
        <time>2010-09-21T15:37:03Z</time>
      </trkpt>
      <trkpt lat="48.73922" lon="7.34215">
        <ele>222.991333</ele>
        <time>2010-09-21T15:37:05Z</time>
      </trkpt>
      <trkpt lat="48.73923" lon="7.34206">
        <ele>223.210083</ele>
        <time>2010-09-21T15:37:07Z</time>
      </trkpt>
      <trkpt lat="48.73918" lon="7.34201">
        <ele>221.987427</ele>
        <time>2010-09-21T15:37:08Z</time>
      </trkpt>
      <trkpt lat="48.73915" lon="7.34191">
        <ele>222.745239</ele>
        <time>2010-09-21T15:37:10Z</time>
      </trkpt>
      <trkpt lat="48.73911" lon="7.34181">
        <ele>222.514771</ele>
        <time>2010-09-21T15:37:12Z</time>
      </trkpt>
      <trkpt lat="48.7391" lon="7.34171">
        <ele>223.268677</ele>
        <time>2010-09-21T15:37:14Z</time>
      </trkpt>
      <trkpt lat="48.73908" lon="7.34165">
        <ele>224.245239</ele>
        <time>2010-09-21T15:37:15Z</time>
      </trkpt>
      <trkpt lat="48.73904" lon="7.3416">
        <ele>224.616333</ele>
        <time>2010-09-21T15:37:16Z</time>
      </trkpt>
      <trkpt lat="48.73904" lon="7.34152">
        <ele>225.413208</ele>
        <time>2010-09-21T15:37:18Z</time>
      </trkpt>
      <trkpt lat="48.73905" lon="7.34141">
        <ele>224.147583</ele>
        <time>2010-09-21T15:37:20Z</time>
      </trkpt>
      <trkpt lat="48.73902" lon="7.34131">
        <ele>224.983521</ele>
        <time>2010-09-21T15:37:22Z</time>
      </trkpt>
      <trkpt lat="48.739" lon="7.34121">
        <ele>229.249146</ele>
        <time>2010-09-21T15:37:24Z</time>
      </trkpt>
      <trkpt lat="48.739" lon="7.34111">
        <ele>230.674927</ele>
        <time>2010-09-21T15:37:26Z</time>
      </trkpt>
      <trkpt lat="48.739" lon="7.34101">
        <ele>231.706177</ele>
        <time>2010-09-21T15:37:28Z</time>
      </trkpt>
      <trkpt lat="48.73897" lon="7.34095">
        <ele>232.780396</ele>
        <time>2010-09-21T15:37:29Z</time>
      </trkpt>
      <trkpt lat="48.73896" lon="7.34084">
        <ele>234.440552</ele>
        <time>2010-09-21T15:37:31Z</time>
      </trkpt>
      <trkpt lat="48.73898" lon="7.34075">
        <ele>234.194458</ele>
        <time>2010-09-21T15:37:33Z</time>
      </trkpt>
      <trkpt lat="48.73899" lon="7.34065">
        <ele>235.831177</ele>
        <time>2010-09-21T15:37:35Z</time>
      </trkpt>
      <trkpt lat="48.73898" lon="7.34057">
        <ele>235.796021</ele>
        <time>2010-09-21T15:37:36Z</time>
      </trkpt>
      <trkpt lat="48.73898" lon="7.34043">
        <ele>236.659302</ele>
        <time>2010-09-21T15:37:38Z</time>
      </trkpt>
      <trkpt lat="48.73902" lon="7.3403">
        <ele>238.030396</ele>
        <time>2010-09-21T15:37:40Z</time>
      </trkpt>
      <trkpt lat="48.73904" lon="7.34018">
        <ele>239.905396</ele>
        <time>2010-09-21T15:37:42Z</time>
      </trkpt>
      <trkpt lat="48.73905" lon="7.34009">
        <ele>241.264771</ele>
        <time>2010-09-21T15:37:44Z</time>
      </trkpt>
      <trkpt lat="48.73906" lon="7.34001">
        <ele>242.374146</ele>
        <time>2010-09-21T15:37:45Z</time>
      </trkpt>
      <trkpt lat="48.73908" lon="7.33994">
        <ele>242.881958</ele>
        <time>2010-09-21T15:37:46Z</time>
      </trkpt>
      <trkpt lat="48.73908" lon="7.33984">
        <ele>244.233521</ele>
        <time>2010-09-21T15:37:48Z</time>
      </trkpt>
      <trkpt lat="48.73911" lon="7.33969">
        <ele>243.889771</ele>
        <time>2010-09-21T15:37:50Z</time>
      </trkpt>
      <trkpt lat="48.73912" lon="7.33962">
        <ele>244.381958</ele>
        <time>2010-09-21T15:37:51Z</time>
      </trkpt>
      <trkpt lat="48.73912" lon="7.33952">
        <ele>245.628052</ele>
        <time>2010-09-21T15:37:53Z</time>
      </trkpt>
      <trkpt lat="48.73913" lon="7.33941">
        <ele>246.542114</ele>
        <time>2010-09-21T15:37:55Z</time>
      </trkpt>
      <trkpt lat="48.73915" lon="7.33932">
        <ele>246.686646</ele>
        <time>2010-09-21T15:37:57Z</time>
      </trkpt>
      <trkpt lat="48.73918" lon="7.33922">
        <ele>246.780396</ele>
        <time>2010-09-21T15:37:59Z</time>
      </trkpt>
      <trkpt lat="48.7392" lon="7.33913">
        <ele>247.397583</ele>
        <time>2010-09-21T15:38:01Z</time>
      </trkpt>
      <trkpt lat="48.73922" lon="7.33903">
        <ele>246.788208</ele>
        <time>2010-09-21T15:38:03Z</time>
      </trkpt>
      <trkpt lat="48.7392" lon="7.33894">
        <ele>247.241333</ele>
        <time>2010-09-21T15:38:05Z</time>
      </trkpt>
      <trkpt lat="48.73922" lon="7.33887">
        <ele>247.838989</ele>
        <time>2010-09-21T15:38:07Z</time>
      </trkpt>
      <trkpt lat="48.73924" lon="7.33879">
        <ele>248.128052</ele>
        <time>2010-09-21T15:38:09Z</time>
      </trkpt>
      <trkpt lat="48.73924" lon="7.33872">
        <ele>247.518677</ele>
        <time>2010-09-21T15:38:10Z</time>
      </trkpt>
      <trkpt lat="48.73927" lon="7.33861">
        <ele>247.569458</ele>
        <time>2010-09-21T15:38:12Z</time>
      </trkpt>
      <trkpt lat="48.73931" lon="7.33851">
        <ele>247.866333</ele>
        <time>2010-09-21T15:38:14Z</time>
      </trkpt>
      <trkpt lat="48.73933" lon="7.3384">
        <ele>248.409302</ele>
        <time>2010-09-21T15:38:16Z</time>
      </trkpt>
      <trkpt lat="48.73933" lon="7.33833">
        <ele>248.549927</ele>
        <time>2010-09-21T15:38:17Z</time>
      </trkpt>
      <trkpt lat="48.73935" lon="7.33822">
        <ele>248.835083</ele>
        <time>2010-09-21T15:38:19Z</time>
      </trkpt>
      <trkpt lat="48.73934" lon="7.33812">
        <ele>249.268677</ele>
        <time>2010-09-21T15:38:21Z</time>
      </trkpt>
      <trkpt lat="48.73935" lon="7.338">
        <ele>249.686646</ele>
        <time>2010-09-21T15:38:23Z</time>
      </trkpt>
      <trkpt lat="48.73937" lon="7.3379">
        <ele>249.510864</ele>
        <time>2010-09-21T15:38:24Z</time>
      </trkpt>
      <trkpt lat="48.73939" lon="7.3378">
        <ele>249.456177</ele>
        <time>2010-09-21T15:38:25Z</time>
      </trkpt>
      <trkpt lat="48.73938" lon="7.33773">
        <ele>249.506958</ele>
        <time>2010-09-21T15:38:26Z</time>
      </trkpt>
      <trkpt lat="48.7394" lon="7.33762">
        <ele>249.499146</ele>
        <time>2010-09-21T15:38:28Z</time>
      </trkpt>
      <trkpt lat="48.7394" lon="7.33746">
        <ele>249.198364</ele>
        <time>2010-09-21T15:38:30Z</time>
      </trkpt>
      <trkpt lat="48.7394" lon="7.33737">
        <ele>249.120239</ele>
        <time>2010-09-21T15:38:31Z</time>
      </trkpt>
      <trkpt lat="48.73938" lon="7.33728">
        <ele>248.737427</ele>
        <time>2010-09-21T15:38:32Z</time>
      </trkpt>
      <trkpt lat="48.73934" lon="7.33721">
        <ele>248.065552</ele>
        <time>2010-09-21T15:38:33Z</time>
      </trkpt>
      <trkpt lat="48.73932" lon="7.33714">
        <ele>247.631958</ele>
        <time>2010-09-21T15:38:34Z</time>
      </trkpt>
      <trkpt lat="48.73936" lon="7.33704">
        <ele>247.448364</ele>
        <time>2010-09-21T15:38:36Z</time>
      </trkpt>
      <trkpt lat="48.7394" lon="7.33695">
        <ele>247.100708</ele>
        <time>2010-09-21T15:38:38Z</time>
      </trkpt>
      <trkpt lat="48.73943" lon="7.33686">
        <ele>246.760864</ele>
        <time>2010-09-21T15:38:40Z</time>
      </trkpt>
      <trkpt lat="48.73944" lon="7.33678">
        <ele>246.549927</ele>
        <time>2010-09-21T15:38:42Z</time>
      </trkpt>
      <trkpt lat="48.73944" lon="7.33671">
        <ele>246.323364</ele>
        <time>2010-09-21T15:38:43Z</time>
      </trkpt>
      <trkpt lat="48.73945" lon="7.3366">
        <ele>246.147583</ele>
        <time>2010-09-21T15:38:45Z</time>
      </trkpt>
      <trkpt lat="48.73948" lon="7.33647">
        <ele>245.671021</ele>
        <time>2010-09-21T15:38:47Z</time>
      </trkpt>
      <trkpt lat="48.73949" lon="7.33637">
        <ele>245.405396</ele>
        <time>2010-09-21T15:38:49Z</time>
      </trkpt>
      <trkpt lat="48.73951" lon="7.33625">
        <ele>244.823364</ele>
        <time>2010-09-21T15:38:51Z</time>
      </trkpt>
      <trkpt lat="48.73955" lon="7.33613">
        <ele>244.428833</ele>
        <time>2010-09-21T15:38:53Z</time>
      </trkpt>
      <trkpt lat="48.73958" lon="7.33601">
        <ele>244.260864</ele>
        <time>2010-09-21T15:38:55Z</time>
      </trkpt>
      <trkpt lat="48.73959" lon="7.33594">
        <ele>244.202271</ele>
        <time>2010-09-21T15:38:56Z</time>
      </trkpt>
      <trkpt lat="48.73961" lon="7.33587">
        <ele>243.831177</ele>
        <time>2010-09-21T15:38:57Z</time>
      </trkpt>
      <trkpt lat="48.73961" lon="7.33575">
        <ele>243.534302</ele>
        <time>2010-09-21T15:38:59Z</time>
      </trkpt>
      <trkpt lat="48.73962" lon="7.33568">
        <ele>243.198364</ele>
        <time>2010-09-21T15:39:00Z</time>
      </trkpt>
      <trkpt lat="48.73962" lon="7.33559">
        <ele>242.733521</ele>
        <time>2010-09-21T15:39:01Z</time>
      </trkpt>
      <trkpt lat="48.73965" lon="7.33549">
        <ele>242.721802</ele>
        <time>2010-09-21T15:39:02Z</time>
      </trkpt>
      <trkpt lat="48.73965" lon="7.33537">
        <ele>241.881958</ele>
        <time>2010-09-21T15:39:04Z</time>
      </trkpt>
      <trkpt lat="48.73967" lon="7.33525">
        <ele>241.604614</ele>
        <time>2010-09-21T15:39:06Z</time>
      </trkpt>
      <trkpt lat="48.73969" lon="7.33518">
        <ele>241.245239</ele>
        <time>2010-09-21T15:39:07Z</time>
      </trkpt>
      <trkpt lat="48.7397" lon="7.33507">
        <ele>240.389771</ele>
        <time>2010-09-21T15:39:09Z</time>
      </trkpt>
      <trkpt lat="48.73972" lon="7.33496">
        <ele>240.491333</ele>
        <time>2010-09-21T15:39:11Z</time>
      </trkpt>
      <trkpt lat="48.73972" lon="7.33485">
        <ele>238.694458</ele>
        <time>2010-09-21T15:39:13Z</time>
      </trkpt>
      <trkpt lat="48.73974" lon="7.33475">
        <ele>236.913208</ele>
        <time>2010-09-21T15:39:15Z</time>
      </trkpt>
      <trkpt lat="48.73976" lon="7.33467">
        <ele>236.190552</ele>
        <time>2010-09-21T15:39:16Z</time>
      </trkpt>
      <trkpt lat="48.73978" lon="7.33457">
        <ele>235.085083</ele>
        <time>2010-09-21T15:39:18Z</time>
      </trkpt>
      <trkpt lat="48.7398" lon="7.33445">
        <ele>233.667114</ele>
        <time>2010-09-21T15:39:20Z</time>
      </trkpt>
      <trkpt lat="48.73981" lon="7.33434">
        <ele>232.573364</ele>
        <time>2010-09-21T15:39:22Z</time>
      </trkpt>
      <trkpt lat="48.73982" lon="7.33427">
        <ele>231.733521</ele>
        <time>2010-09-21T15:39:24Z</time>
      </trkpt>
      <trkpt lat="48.73985" lon="7.3342">
        <ele>230.780396</ele>
        <time>2010-09-21T15:39:26Z</time>
      </trkpt>
      <trkpt lat="48.73985" lon="7.33413">
        <ele>230.659302</ele>
        <time>2010-09-21T15:39:27Z</time>
      </trkpt>
      <trkpt lat="48.73987" lon="7.33402">
        <ele>230.131958</ele>
        <time>2010-09-21T15:39:29Z</time>
      </trkpt>
      <trkpt lat="48.73989" lon="7.3339">
        <ele>228.764771</ele>
        <time>2010-09-21T15:39:31Z</time>
      </trkpt>
      <trkpt lat="48.73989" lon="7.33384">
        <ele>227.733521</ele>
        <time>2010-09-21T15:39:32Z</time>
      </trkpt>
      <trkpt lat="48.73989" lon="7.33372">
        <ele>226.588989</ele>
        <time>2010-09-21T15:39:34Z</time>
      </trkpt>
      <trkpt lat="48.73991" lon="7.33366">
        <ele>225.307739</ele>
        <time>2010-09-21T15:39:35Z</time>
      </trkpt>
      <trkpt lat="48.73994" lon="7.33356">
        <ele>223.866333</ele>
        <time>2010-09-21T15:39:37Z</time>
      </trkpt>
      <trkpt lat="48.73994" lon="7.33343">
        <ele>224.389771</ele>
        <time>2010-09-21T15:39:39Z</time>
      </trkpt>
      <trkpt lat="48.73998" lon="7.33333">
        <ele>222.819458</ele>
        <time>2010-09-21T15:39:41Z</time>
      </trkpt>
      <trkpt lat="48.73998" lon="7.33323">
        <ele>222.901489</ele>
        <time>2010-09-21T15:39:43Z</time>
      </trkpt>
      <trkpt lat="48.73999" lon="7.33312">
        <ele>222.003052</ele>
        <time>2010-09-21T15:39:45Z</time>
      </trkpt>
      <trkpt lat="48.74003" lon="7.33303">
        <ele>221.682739</ele>
        <time>2010-09-21T15:39:47Z</time>
      </trkpt>
      <trkpt lat="48.74004" lon="7.33291">
        <ele>221.745239</ele>
        <time>2010-09-21T15:39:49Z</time>
      </trkpt>
      <trkpt lat="48.74004" lon="7.33278">
        <ele>222.210083</ele>
        <time>2010-09-21T15:39:51Z</time>
      </trkpt>
      <trkpt lat="48.74006" lon="7.33267">
        <ele>221.475708</ele>
        <time>2010-09-21T15:39:52Z</time>
      </trkpt>
      <trkpt lat="48.7401" lon="7.33259">
        <ele>221.163208</ele>
        <time>2010-09-21T15:39:54Z</time>
      </trkpt>
      <trkpt lat="48.74013" lon="7.3325">
        <ele>220.452271</ele>
        <time>2010-09-21T15:39:56Z</time>
      </trkpt>
      <trkpt lat="48.74019" lon="7.33242">
        <ele>220.827271</ele>
        <time>2010-09-21T15:39:58Z</time>
      </trkpt>
      <trkpt lat="48.74021" lon="7.33234">
        <ele>220.495239</ele>
        <time>2010-09-21T15:40:00Z</time>
      </trkpt>
      <trkpt lat="48.74024" lon="7.33224">
        <ele>221.147583</ele>
        <time>2010-09-21T15:40:02Z</time>
      </trkpt>
      <trkpt lat="48.74027" lon="7.33216">
        <ele>220.374146</ele>
        <time>2010-09-21T15:40:04Z</time>
      </trkpt>
      <trkpt lat="48.74031" lon="7.33208">
        <ele>220.178833</ele>
        <time>2010-09-21T15:40:06Z</time>
      </trkpt>
      <trkpt lat="48.74033" lon="7.33198">
        <ele>219.378052</ele>
        <time>2010-09-21T15:40:08Z</time>
      </trkpt>
      <trkpt lat="48.74037" lon="7.3319">
        <ele>219.753052</ele>
        <time>2010-09-21T15:40:10Z</time>
      </trkpt>
      <trkpt lat="48.74039" lon="7.33183">
        <ele>219.663208</ele>
        <time>2010-09-21T15:40:12Z</time>
      </trkpt>
      <trkpt lat="48.74041" lon="7.33175">
        <ele>219.229614</ele>
        <time>2010-09-21T15:40:14Z</time>
      </trkpt>
      <trkpt lat="48.74044" lon="7.33168">
        <ele>219.315552</ele>
        <time>2010-09-21T15:40:16Z</time>
      </trkpt>
      <trkpt lat="48.74046" lon="7.3316">
        <ele>219.253052</ele>
        <time>2010-09-21T15:40:18Z</time>
      </trkpt>
      <trkpt lat="48.74048" lon="7.33153">
        <ele>219.260864</ele>
        <time>2010-09-21T15:40:20Z</time>
      </trkpt>
      <trkpt lat="48.74049" lon="7.33144">
        <ele>219.409302</ele>
        <time>2010-09-21T15:40:22Z</time>
      </trkpt>
      <trkpt lat="48.7405" lon="7.33136">
        <ele>220.229614</ele>
        <time>2010-09-21T15:40:23Z</time>
      </trkpt>
      <trkpt lat="48.74052" lon="7.33129">
        <ele>220.221802</ele>
        <time>2010-09-21T15:40:25Z</time>
      </trkpt>
      <trkpt lat="48.74055" lon="7.33121">
        <ele>219.725708</ele>
        <time>2010-09-21T15:40:27Z</time>
      </trkpt>
      <trkpt lat="48.74058" lon="7.33115">
        <ele>219.479614</ele>
        <time>2010-09-21T15:40:29Z</time>
      </trkpt>
      <trkpt lat="48.74059" lon="7.33108">
        <ele>219.725708</ele>
        <time>2010-09-21T15:40:31Z</time>
      </trkpt>
      <trkpt lat="48.7406" lon="7.331">
        <ele>219.053833</ele>
        <time>2010-09-21T15:40:33Z</time>
      </trkpt>
      <trkpt lat="48.74061" lon="7.33093">
        <ele>218.624146</ele>
        <time>2010-09-21T15:40:35Z</time>
      </trkpt>
      <trkpt lat="48.74062" lon="7.33084">
        <ele>218.534302</ele>
        <time>2010-09-21T15:40:37Z</time>
      </trkpt>
      <trkpt lat="48.74066" lon="7.33078">
        <ele>218.120239</ele>
        <time>2010-09-21T15:40:39Z</time>
      </trkpt>
      <trkpt lat="48.74068" lon="7.33067">
        <ele>218.354614</ele>
        <time>2010-09-21T15:40:41Z</time>
      </trkpt>
      <trkpt lat="48.74069" lon="7.33054">
        <ele>218.046021</ele>
        <time>2010-09-21T15:40:43Z</time>
      </trkpt>
      <trkpt lat="48.7407" lon="7.33047">
        <ele>217.542114</ele>
        <time>2010-09-21T15:40:45Z</time>
      </trkpt>
      <trkpt lat="48.7407" lon="7.33038">
        <ele>217.506958</ele>
        <time>2010-09-21T15:40:47Z</time>
      </trkpt>
      <trkpt lat="48.7407" lon="7.33026">
        <ele>217.421021</ele>
        <time>2010-09-21T15:40:49Z</time>
      </trkpt>
      <trkpt lat="48.74071" lon="7.33017">
        <ele>217.577271</ele>
        <time>2010-09-21T15:40:51Z</time>
      </trkpt>
      <trkpt lat="48.74073" lon="7.33008">
        <ele>217.194458</ele>
        <time>2010-09-21T15:40:53Z</time>
      </trkpt>
      <trkpt lat="48.74075" lon="7.32998">
        <ele>217.049927</ele>
        <time>2010-09-21T15:40:55Z</time>
      </trkpt>
      <trkpt lat="48.74078" lon="7.3299">
        <ele>216.534302</ele>
        <time>2010-09-21T15:40:57Z</time>
      </trkpt>
      <trkpt lat="48.7408" lon="7.32981">
        <ele>215.780396</ele>
        <time>2010-09-21T15:40:59Z</time>
      </trkpt>
      <trkpt lat="48.74083" lon="7.32972">
        <ele>215.346802</ele>
        <time>2010-09-21T15:41:01Z</time>
      </trkpt>
      <trkpt lat="48.74088" lon="7.32961">
        <ele>215.057739</ele>
        <time>2010-09-21T15:41:03Z</time>
      </trkpt>
      <trkpt lat="48.74091" lon="7.3295">
        <ele>214.467896</ele>
        <time>2010-09-21T15:41:05Z</time>
      </trkpt>
      <trkpt lat="48.74091" lon="7.32938">
        <ele>213.909302</ele>
        <time>2010-09-21T15:41:07Z</time>
      </trkpt>
      <trkpt lat="48.74094" lon="7.32931">
        <ele>213.483521</ele>
        <time>2010-09-21T15:41:09Z</time>
      </trkpt>
      <trkpt lat="48.74102" lon="7.32925">
        <ele>213.499146</ele>
        <time>2010-09-21T15:41:11Z</time>
      </trkpt>
      <trkpt lat="48.74106" lon="7.32916">
        <ele>212.784302</ele>
        <time>2010-09-21T15:41:13Z</time>
      </trkpt>
      <trkpt lat="48.74109" lon="7.32905">
        <ele>212.397583</ele>
        <time>2010-09-21T15:41:15Z</time>
      </trkpt>
      <trkpt lat="48.74109" lon="7.32892">
        <ele>212.155396</ele>
        <time>2010-09-21T15:41:17Z</time>
      </trkpt>
      <trkpt lat="48.74111" lon="7.32882">
        <ele>211.784302</ele>
        <time>2010-09-21T15:41:19Z</time>
      </trkpt>
      <trkpt lat="48.74114" lon="7.32876">
        <ele>211.491333</ele>
        <time>2010-09-21T15:41:21Z</time>
      </trkpt>
      <trkpt lat="48.74115" lon="7.32868">
        <ele>211.147583</ele>
        <time>2010-09-21T15:41:22Z</time>
      </trkpt>
      <trkpt lat="48.74115" lon="7.32861">
        <ele>211.374146</ele>
        <time>2010-09-21T15:41:23Z</time>
      </trkpt>
      <trkpt lat="48.74117" lon="7.3285">
        <ele>211.448364</ele>
        <time>2010-09-21T15:41:25Z</time>
      </trkpt>
      <trkpt lat="48.74119" lon="7.32839">
        <ele>211.143677</ele>
        <time>2010-09-21T15:41:27Z</time>
      </trkpt>
      <trkpt lat="48.74122" lon="7.32829">
        <ele>210.674927</ele>
        <time>2010-09-21T15:41:29Z</time>
      </trkpt>
      <trkpt lat="48.74125" lon="7.32817">
        <ele>210.393677</ele>
        <time>2010-09-21T15:41:32Z</time>
      </trkpt>
      <trkpt lat="48.74129" lon="7.32809">
        <ele>210.108521</ele>
        <time>2010-09-21T15:41:34Z</time>
      </trkpt>
      <trkpt lat="48.74132" lon="7.32797">
        <ele>209.557739</ele>
        <time>2010-09-21T15:41:36Z</time>
      </trkpt>
      <trkpt lat="48.74133" lon="7.32785">
        <ele>209.210083</ele>
        <time>2010-09-21T15:41:38Z</time>
      </trkpt>
      <trkpt lat="48.74136" lon="7.32775">
        <ele>208.827271</ele>
        <time>2010-09-21T15:41:40Z</time>
      </trkpt>
      <trkpt lat="48.74137" lon="7.32766">
        <ele>208.335083</ele>
        <time>2010-09-21T15:41:42Z</time>
      </trkpt>
      <trkpt lat="48.74142" lon="7.32764">
        <ele>207.917114</ele>
        <time>2010-09-21T15:41:43Z</time>
      </trkpt>
      <trkpt lat="48.74144" lon="7.32755">
        <ele>207.655396</ele>
        <time>2010-09-21T15:41:45Z</time>
      </trkpt>
      <trkpt lat="48.74146" lon="7.32749">
        <ele>206.358521</ele>
        <time>2010-09-21T15:41:47Z</time>
      </trkpt>
      <trkpt lat="48.74145" lon="7.32742">
        <ele>206.585083</ele>
        <time>2010-09-21T15:41:49Z</time>
      </trkpt>
      <trkpt lat="48.74142" lon="7.32731">
        <ele>209.776489</ele>
        <time>2010-09-21T15:41:50Z</time>
      </trkpt>
      <trkpt lat="48.74144" lon="7.32723">
        <ele>210.186646</ele>
        <time>2010-09-21T15:41:55Z</time>
      </trkpt>
      <trkpt lat="48.74146" lon="7.32715">
        <ele>210.319458</ele>
        <time>2010-09-21T15:41:59Z</time>
      </trkpt>
      <trkpt lat="48.74149" lon="7.32709">
        <ele>209.721802</ele>
        <time>2010-09-21T15:42:02Z</time>
      </trkpt>
      <trkpt lat="48.74149" lon="7.327">
        <ele>209.335083</ele>
        <time>2010-09-21T15:42:04Z</time>
      </trkpt>
      <trkpt lat="48.74151" lon="7.32691">
        <ele>209.936646</ele>
        <time>2010-09-21T15:42:06Z</time>
      </trkpt>
      <trkpt lat="48.74154" lon="7.32686">
        <ele>210.338989</ele>
        <time>2010-09-21T15:42:08Z</time>
      </trkpt>
      <trkpt lat="48.74155" lon="7.32679">
        <ele>210.303833</ele>
        <time>2010-09-21T15:42:10Z</time>
      </trkpt>
      <trkpt lat="48.74156" lon="7.32672">
        <ele>209.667114</ele>
        <time>2010-09-21T15:42:12Z</time>
      </trkpt>
      <trkpt lat="48.74159" lon="7.32665">
        <ele>210.307739</ele>
        <time>2010-09-21T15:42:14Z</time>
      </trkpt>
      <trkpt lat="48.7416" lon="7.32657">
        <ele>209.928833</ele>
        <time>2010-09-21T15:42:16Z</time>
      </trkpt>
      <trkpt lat="48.7416" lon="7.32649">
        <ele>208.995239</ele>
        <time>2010-09-21T15:42:18Z</time>
      </trkpt>
      <trkpt lat="48.7416" lon="7.32639">
        <ele>208.928833</ele>
        <time>2010-09-21T15:42:20Z</time>
      </trkpt>
      <trkpt lat="48.74159" lon="7.32632">
        <ele>209.006958</ele>
        <time>2010-09-21T15:42:21Z</time>
      </trkpt>
      <trkpt lat="48.74158" lon="7.32621">
        <ele>208.038208</ele>
        <time>2010-09-21T15:42:23Z</time>
      </trkpt>
      <trkpt lat="48.74159" lon="7.32613">
        <ele>207.710083</ele>
        <time>2010-09-21T15:42:25Z</time>
      </trkpt>
      <trkpt lat="48.74162" lon="7.32607">
        <ele>207.405396</ele>
        <time>2010-09-21T15:42:27Z</time>
      </trkpt>
      <trkpt lat="48.74168" lon="7.32603">
        <ele>208.491333</ele>
        <time>2010-09-21T15:42:29Z</time>
      </trkpt>
      <trkpt lat="48.74171" lon="7.32597">
        <ele>207.924927</ele>
        <time>2010-09-21T15:42:31Z</time>
      </trkpt>
      <trkpt lat="48.74175" lon="7.32587">
        <ele>207.745239</ele>
        <time>2010-09-21T15:42:33Z</time>
      </trkpt>
      <trkpt lat="48.74177" lon="7.32576">
        <ele>207.487427</ele>
        <time>2010-09-21T15:42:35Z</time>
      </trkpt>
      <trkpt lat="48.7418" lon="7.32564">
        <ele>208.104614</ele>
        <time>2010-09-21T15:42:37Z</time>
      </trkpt>
      <trkpt lat="48.74184" lon="7.32555">
        <ele>210.292114</ele>
        <time>2010-09-21T15:42:39Z</time>
      </trkpt>
      <trkpt lat="48.74185" lon="7.32544">
        <ele>210.897583</ele>
        <time>2010-09-21T15:42:41Z</time>
      </trkpt>
      <trkpt lat="48.74187" lon="7.32532">
        <ele>211.760864</ele>
        <time>2010-09-21T15:42:43Z</time>
      </trkpt>
      <trkpt lat="48.74189" lon="7.32523">
        <ele>213.264771</ele>
        <time>2010-09-21T15:42:45Z</time>
      </trkpt>
      <trkpt lat="48.74191" lon="7.32516">
        <ele>214.967896</ele>
        <time>2010-09-21T15:42:46Z</time>
      </trkpt>
      <trkpt lat="48.74193" lon="7.32506">
        <ele>216.987427</ele>
        <time>2010-09-21T15:42:48Z</time>
      </trkpt>
      <trkpt lat="48.74197" lon="7.32499">
        <ele>218.772583</ele>
        <time>2010-09-21T15:42:50Z</time>
      </trkpt>
      <trkpt lat="48.74202" lon="7.32494">
        <ele>220.264771</ele>
        <time>2010-09-21T15:42:53Z</time>
      </trkpt>
      <trkpt lat="48.74206" lon="7.32487">
        <ele>219.608521</ele>
        <time>2010-09-21T15:42:55Z</time>
      </trkpt>
      <trkpt lat="48.74211" lon="7.32484">
        <ele>221.452271</ele>
        <time>2010-09-21T15:42:57Z</time>
      </trkpt>
      <trkpt lat="48.74216" lon="7.32481">
        <ele>220.897583</ele>
        <time>2010-09-21T15:42:59Z</time>
      </trkpt>
      <trkpt lat="48.74226" lon="7.3248">
        <ele>220.721802</ele>
        <time>2010-09-21T15:43:01Z</time>
      </trkpt>
      <trkpt lat="48.7423" lon="7.32478">
        <ele>222.729614</ele>
        <time>2010-09-21T15:43:03Z</time>
      </trkpt>
      <trkpt lat="48.74236" lon="7.32477">
        <ele>223.893677</ele>
        <time>2010-09-21T15:43:05Z</time>
      </trkpt>
      <trkpt lat="48.74241" lon="7.32471">
        <ele>224.858521</ele>
        <time>2010-09-21T15:43:07Z</time>
      </trkpt>
      <trkpt lat="48.74247" lon="7.32463">
        <ele>225.831177</ele>
        <time>2010-09-21T15:43:09Z</time>
      </trkpt>
      <trkpt lat="48.74252" lon="7.32459">
        <ele>228.889771</ele>
        <time>2010-09-21T15:43:12Z</time>
      </trkpt>
      <trkpt lat="48.74256" lon="7.3245">
        <ele>230.678833</ele>
        <time>2010-09-21T15:43:15Z</time>
      </trkpt>
      <trkpt lat="48.74262" lon="7.32442">
        <ele>232.100708</ele>
        <time>2010-09-21T15:43:17Z</time>
      </trkpt>
      <trkpt lat="48.74265" lon="7.32435">
        <ele>232.335083</ele>
        <time>2010-09-21T15:43:19Z</time>
      </trkpt>
      <trkpt lat="48.74271" lon="7.32427">
        <ele>233.573364</ele>
        <time>2010-09-21T15:43:21Z</time>
      </trkpt>
      <trkpt lat="48.74275" lon="7.32421">
        <ele>233.917114</ele>
        <time>2010-09-21T15:43:23Z</time>
      </trkpt>
      <trkpt lat="48.7428" lon="7.32417">
        <ele>233.717896</ele>
        <time>2010-09-21T15:43:25Z</time>
      </trkpt>
      <trkpt lat="48.74285" lon="7.32411">
        <ele>234.174927</ele>
        <time>2010-09-21T15:43:27Z</time>
      </trkpt>
      <trkpt lat="48.74289" lon="7.32409">
        <ele>233.819458</ele>
        <time>2010-09-21T15:43:28Z</time>
      </trkpt>
      <trkpt lat="48.74295" lon="7.324">
        <ele>234.639771</ele>
        <time>2010-09-21T15:43:30Z</time>
      </trkpt>
      <trkpt lat="48.74301" lon="7.32394">
        <ele>235.444458</ele>
        <time>2010-09-21T15:43:32Z</time>
      </trkpt>
      <trkpt lat="48.74306" lon="7.32385">
        <ele>236.030396</ele>
        <time>2010-09-21T15:43:34Z</time>
      </trkpt>
      <trkpt lat="48.7431" lon="7.32379">
        <ele>235.874146</ele>
        <time>2010-09-21T15:43:36Z</time>
      </trkpt>
      <trkpt lat="48.74313" lon="7.32374">
        <ele>235.924927</ele>
        <time>2010-09-21T15:43:37Z</time>
      </trkpt>
      <trkpt lat="48.74319" lon="7.32367">
        <ele>236.253052</ele>
        <time>2010-09-21T15:43:39Z</time>
      </trkpt>
      <trkpt lat="48.74326" lon="7.32361">
        <ele>236.616333</ele>
        <time>2010-09-21T15:43:42Z</time>
      </trkpt>
      <trkpt lat="48.74331" lon="7.32351">
        <ele>238.764771</ele>
        <time>2010-09-21T15:43:44Z</time>
      </trkpt>
      <trkpt lat="48.74333" lon="7.32344">
        <ele>240.288208</ele>
        <time>2010-09-21T15:43:45Z</time>
      </trkpt>
      <trkpt lat="48.74339" lon="7.32336">
        <ele>242.092896</ele>
        <time>2010-09-21T15:43:47Z</time>
      </trkpt>
      <trkpt lat="48.74342" lon="7.32329">
        <ele>243.233521</ele>
        <time>2010-09-21T15:43:49Z</time>
      </trkpt>
      <trkpt lat="48.74345" lon="7.32321">
        <ele>244.581177</ele>
        <time>2010-09-21T15:43:51Z</time>
      </trkpt>
      <trkpt lat="48.7435" lon="7.3231">
        <ele>246.819458</ele>
        <time>2010-09-21T15:43:53Z</time>
      </trkpt>
      <trkpt lat="48.74354" lon="7.32307">
        <ele>247.815552</ele>
        <time>2010-09-21T15:43:54Z</time>
      </trkpt>
      <trkpt lat="48.74363" lon="7.32298">
        <ele>250.436646</ele>
        <time>2010-09-21T15:43:56Z</time>
      </trkpt>
      <trkpt lat="48.74366" lon="7.32293">
        <ele>251.694458</ele>
        <time>2010-09-21T15:43:59Z</time>
      </trkpt>
      <trkpt lat="48.74368" lon="7.32284">
        <ele>253.792114</ele>
        <time>2010-09-21T15:44:02Z</time>
      </trkpt>
      <trkpt lat="48.7437" lon="7.32278">
        <ele>254.956177</ele>
        <time>2010-09-21T15:44:04Z</time>
      </trkpt>
      <trkpt lat="48.74373" lon="7.3227">
        <ele>255.495239</ele>
        <time>2010-09-21T15:44:08Z</time>
      </trkpt>
      <trkpt lat="48.74376" lon="7.3226">
        <ele>258.802979</ele>
        <time>2010-09-21T15:44:10Z</time>
      </trkpt>
      <trkpt lat="48.74382" lon="7.32254">
        <ele>259.802979</ele>
        <time>2010-09-21T15:44:15Z</time>
      </trkpt>
      <trkpt lat="48.74384" lon="7.32251">
        <ele>264.396729</ele>
        <time>2010-09-21T15:44:28Z</time>
      </trkpt>
      <trkpt lat="48.74383" lon="7.32244">
        <ele>269.217041</ele>
        <time>2010-09-21T15:44:38Z</time>
      </trkpt>
      <trkpt lat="48.74384" lon="7.32232">
        <ele>272.763916</ele>
        <time>2010-09-21T15:44:40Z</time>
      </trkpt>
      <trkpt lat="48.74387" lon="7.32223">
        <ele>273.513916</ele>
        <time>2010-09-21T15:44:41Z</time>
      </trkpt>
      <trkpt lat="48.74387" lon="7.3222">
        <ele>279.607666</ele>
        <time>2010-09-21T15:45:00Z</time>
      </trkpt>
      <trkpt lat="48.74396" lon="7.32224">
        <ele>280.631104</ele>
        <time>2010-09-21T15:45:14Z</time>
      </trkpt>
      <trkpt lat="48.74401" lon="7.32224">
        <ele>280.756104</ele>
        <time>2010-09-21T15:45:15Z</time>
      </trkpt>
      <trkpt lat="48.74406" lon="7.32227">
        <ele>280.951416</ele>
        <time>2010-09-21T15:45:17Z</time>
      </trkpt>
      <trkpt lat="48.74406" lon="7.32234">
        <ele>281.865479</ele>
        <time>2010-09-21T15:45:51Z</time>
      </trkpt>
      <trkpt lat="48.74399" lon="7.32235">
        <ele>280.912354</ele>
        <time>2010-09-21T15:45:59Z</time>
      </trkpt>
      <trkpt lat="48.74393" lon="7.32236">
        <ele>281.021729</ele>
        <time>2010-09-21T15:46:20Z</time>
      </trkpt>
      <trkpt lat="48.74394" lon="7.32244">
        <ele>282.146729</ele>
        <time>2010-09-21T15:46:28Z</time>
      </trkpt>
      <trkpt lat="48.7439" lon="7.32238">
        <ele>282.967041</ele>
        <time>2010-09-21T15:47:43Z</time>
      </trkpt>
      <trkpt lat="48.74393" lon="7.32232">
        <ele>283.123291</ele>
        <time>2010-09-21T15:47:50Z</time>
      </trkpt>
      <trkpt lat="48.74398" lon="7.32226">
        <ele>283.381104</ele>
        <time>2010-09-21T15:47:54Z</time>
      </trkpt>
      <trkpt lat="48.74402" lon="7.32221">
        <ele>283.373291</ele>
        <time>2010-09-21T15:47:57Z</time>
      </trkpt>
      <trkpt lat="48.74403" lon="7.32213">
        <ele>283.006104</ele>
        <time>2010-09-21T15:47:58Z</time>
      </trkpt>
      <trkpt lat="48.74406" lon="7.32207">
        <ele>283.084229</ele>
        <time>2010-09-21T15:48:00Z</time>
      </trkpt>
      <trkpt lat="48.74409" lon="7.32202">
        <ele>282.756104</ele>
        <time>2010-09-21T15:48:02Z</time>
      </trkpt>
      <trkpt lat="48.74413" lon="7.32197">
        <ele>282.506104</ele>
        <time>2010-09-21T15:48:04Z</time>
      </trkpt>
      <trkpt lat="48.74416" lon="7.32191">
        <ele>282.217041</ele>
        <time>2010-09-21T15:48:06Z</time>
      </trkpt>
      <trkpt lat="48.74423" lon="7.32191">
        <ele>282.209229</ele>
        <time>2010-09-21T15:48:08Z</time>
      </trkpt>
      <trkpt lat="48.74425" lon="7.32182">
        <ele>281.404541</ele>
        <time>2010-09-21T15:48:09Z</time>
      </trkpt>
      <trkpt lat="48.74431" lon="7.3218">
        <ele>280.904541</ele>
        <time>2010-09-21T15:48:12Z</time>
      </trkpt>
      <trkpt lat="48.74438" lon="7.32183">
        <ele>280.724854</ele>
        <time>2010-09-21T15:48:13Z</time>
      </trkpt>
      <trkpt lat="48.74442" lon="7.32178">
        <ele>280.037354</ele>
        <time>2010-09-21T15:48:15Z</time>
      </trkpt>
      <trkpt lat="48.74446" lon="7.32174">
        <ele>279.107666</ele>
        <time>2010-09-21T15:48:19Z</time>
      </trkpt>
      <trkpt lat="48.74451" lon="7.32174">
        <ele>278.826416</ele>
        <time>2010-09-21T15:48:22Z</time>
      </trkpt>
      <trkpt lat="48.74456" lon="7.32172">
        <ele>278.342041</ele>
        <time>2010-09-21T15:48:25Z</time>
      </trkpt>
      <trkpt lat="48.74461" lon="7.32172">
        <ele>277.959229</ele>
        <time>2010-09-21T15:48:28Z</time>
      </trkpt>
      <trkpt lat="48.74467" lon="7.32173">
        <ele>278.209229</ele>
        <time>2010-09-21T15:48:30Z</time>
      </trkpt>
      <trkpt lat="48.74468" lon="7.32167">
        <ele>278.248291</ele>
        <time>2010-09-21T15:48:38Z</time>
      </trkpt>
      <trkpt lat="48.74465" lon="7.3216">
        <ele>278.217041</ele>
        <time>2010-09-21T15:48:55Z</time>
      </trkpt>
      <trkpt lat="48.74463" lon="7.32154">
        <ele>278.381104</ele>
        <time>2010-09-21T15:48:59Z</time>
      </trkpt>
      <trkpt lat="48.74466" lon="7.32149">
        <ele>278.826416</ele>
        <time>2010-09-21T15:49:10Z</time>
      </trkpt>
      <trkpt lat="48.74472" lon="7.32149">
        <ele>279.201416</ele>
        <time>2010-09-21T15:49:13Z</time>
      </trkpt>
      <trkpt lat="48.74477" lon="7.32152">
        <ele>279.654541</ele>
        <time>2010-09-21T15:49:28Z</time>
      </trkpt>
      <trkpt lat="48.74484" lon="7.32152">
        <ele>279.107666</ele>
        <time>2010-09-21T15:49:32Z</time>
      </trkpt>
      <trkpt lat="48.74489" lon="7.32153">
        <ele>278.248291</ele>
        <time>2010-09-21T15:49:35Z</time>
      </trkpt>
      <trkpt lat="48.74494" lon="7.32156">
        <ele>277.881104</ele>
        <time>2010-09-21T15:49:38Z</time>
      </trkpt>
      <trkpt lat="48.74499" lon="7.3216">
        <ele>277.849854</ele>
        <time>2010-09-21T15:49:40Z</time>
      </trkpt>
      <trkpt lat="48.74505" lon="7.32158">
        <ele>278.373291</ele>
        <time>2010-09-21T15:49:44Z</time>
      </trkpt>
      <trkpt lat="48.74511" lon="7.32156">
        <ele>278.818604</ele>
        <time>2010-09-21T15:49:46Z</time>
      </trkpt>
      <trkpt lat="48.74515" lon="7.32157">
        <ele>279.709229</ele>
        <time>2010-09-21T15:49:48Z</time>
      </trkpt>
      <trkpt lat="48.74524" lon="7.32162">
        <ele>279.334229</ele>
        <time>2010-09-21T15:49:50Z</time>
      </trkpt>
      <trkpt lat="48.7453" lon="7.32163">
        <ele>278.295166</ele>
        <time>2010-09-21T15:49:53Z</time>
      </trkpt>
      <trkpt lat="48.74534" lon="7.32164">
        <ele>277.396729</ele>
        <time>2010-09-21T15:49:55Z</time>
      </trkpt>
      <trkpt lat="48.7454" lon="7.32163">
        <ele>276.037354</ele>
        <time>2010-09-21T15:49:57Z</time>
      </trkpt>
      <trkpt lat="48.74544" lon="7.32164">
        <ele>275.349854</ele>
        <time>2010-09-21T15:49:59Z</time>
      </trkpt>
      <trkpt lat="48.7455" lon="7.32163">
        <ele>274.849854</ele>
        <time>2010-09-21T15:50:01Z</time>
      </trkpt>
      <trkpt lat="48.74554" lon="7.32164">
        <ele>276.552979</ele>
        <time>2010-09-21T15:50:03Z</time>
      </trkpt>
      <trkpt lat="48.74565" lon="7.32164">
        <ele>275.927979</ele>
        <time>2010-09-21T15:50:06Z</time>
      </trkpt>
      <trkpt lat="48.74572" lon="7.32163">
        <ele>277.045166</ele>
        <time>2010-09-21T15:50:08Z</time>
      </trkpt>
      <trkpt lat="48.74577" lon="7.32161">
        <ele>278.342041</ele>
        <time>2010-09-21T15:50:10Z</time>
      </trkpt>
      <trkpt lat="48.74581" lon="7.32157">
        <ele>277.904541</ele>
        <time>2010-09-21T15:50:12Z</time>
      </trkpt>
      <trkpt lat="48.74586" lon="7.32153">
        <ele>277.701416</ele>
        <time>2010-09-21T15:50:15Z</time>
      </trkpt>
      <trkpt lat="48.74591" lon="7.3215">
        <ele>278.029541</ele>
        <time>2010-09-21T15:50:17Z</time>
      </trkpt>
      <trkpt lat="48.74596" lon="7.32148">
        <ele>278.006104</ele>
        <time>2010-09-21T15:50:19Z</time>
      </trkpt>
      <trkpt lat="48.74602" lon="7.32148">
        <ele>278.427979</ele>
        <time>2010-09-21T15:50:22Z</time>
      </trkpt>
      <trkpt lat="48.74608" lon="7.32145">
        <ele>278.310791</ele>
        <time>2010-09-21T15:50:24Z</time>
      </trkpt>
      <trkpt lat="48.74614" lon="7.32143">
        <ele>278.459229</ele>
        <time>2010-09-21T15:50:27Z</time>
      </trkpt>
      <trkpt lat="48.74619" lon="7.32142">
        <ele>278.427979</ele>
        <time>2010-09-21T15:50:29Z</time>
      </trkpt>
      <trkpt lat="48.74624" lon="7.3214">
        <ele>278.474854</ele>
        <time>2010-09-21T15:50:31Z</time>
      </trkpt>
      <trkpt lat="48.74629" lon="7.3214">
        <ele>278.318604</ele>
        <time>2010-09-21T15:50:33Z</time>
      </trkpt>
      <trkpt lat="48.74637" lon="7.32138">
        <ele>278.084229</ele>
        <time>2010-09-21T15:50:36Z</time>
      </trkpt>
      <trkpt lat="48.74641" lon="7.32136">
        <ele>277.842041</ele>
        <time>2010-09-21T15:50:38Z</time>
      </trkpt>
      <trkpt lat="48.74647" lon="7.32135">
        <ele>277.490479</ele>
        <time>2010-09-21T15:50:40Z</time>
      </trkpt>
      <trkpt lat="48.74653" lon="7.32133">
        <ele>277.224854</ele>
        <time>2010-09-21T15:50:42Z</time>
      </trkpt>
      <trkpt lat="48.74659" lon="7.32131">
        <ele>276.701416</ele>
        <time>2010-09-21T15:50:45Z</time>
      </trkpt>
      <trkpt lat="48.74664" lon="7.32129">
        <ele>276.732666</ele>
        <time>2010-09-21T15:50:47Z</time>
      </trkpt>
      <trkpt lat="48.7467" lon="7.32127">
        <ele>276.748291</ele>
        <time>2010-09-21T15:50:49Z</time>
      </trkpt>
      <trkpt lat="48.74677" lon="7.32127">
        <ele>276.740479</ele>
        <time>2010-09-21T15:50:51Z</time>
      </trkpt>
      <trkpt lat="48.74683" lon="7.32127">
        <ele>276.865479</ele>
        <time>2010-09-21T15:50:53Z</time>
      </trkpt>
      <trkpt lat="48.74688" lon="7.32126">
        <ele>277.138916</ele>
        <time>2010-09-21T15:50:55Z</time>
      </trkpt>
      <trkpt lat="48.74694" lon="7.32125">
        <ele>277.490479</ele>
        <time>2010-09-21T15:50:58Z</time>
      </trkpt>
      <trkpt lat="48.74699" lon="7.32128">
        <ele>278.888916</ele>
        <time>2010-09-21T15:51:02Z</time>
      </trkpt>
      <trkpt lat="48.74705" lon="7.32127">
        <ele>279.709229</ele>
        <time>2010-09-21T15:51:04Z</time>
      </trkpt>
      <trkpt lat="48.7471" lon="7.32127">
        <ele>280.427979</ele>
        <time>2010-09-21T15:51:06Z</time>
      </trkpt>
      <trkpt lat="48.74716" lon="7.32127">
        <ele>281.826416</ele>
        <time>2010-09-21T15:51:08Z</time>
      </trkpt>
      <trkpt lat="48.74721" lon="7.32126">
        <ele>284.099854</ele>
        <time>2010-09-21T15:51:11Z</time>
      </trkpt>
      <trkpt lat="48.74725" lon="7.32123">
        <ele>286.584229</ele>
        <time>2010-09-21T15:51:14Z</time>
      </trkpt>
      <trkpt lat="48.74731" lon="7.32121">
        <ele>289.131104</ele>
        <time>2010-09-21T15:51:16Z</time>
      </trkpt>
      <trkpt lat="48.74738" lon="7.32119">
        <ele>291.240479</ele>
        <time>2010-09-21T15:51:18Z</time>
      </trkpt>
      <trkpt lat="48.74744" lon="7.32119">
        <ele>293.310791</ele>
        <time>2010-09-21T15:51:20Z</time>
      </trkpt>
      <trkpt lat="48.7475" lon="7.32119">
        <ele>295.467041</ele>
        <time>2010-09-21T15:51:23Z</time>
      </trkpt>
      <trkpt lat="48.74756" lon="7.32117">
        <ele>298.162354</ele>
        <time>2010-09-21T15:51:25Z</time>
      </trkpt>
      <trkpt lat="48.7476" lon="7.32113">
        <ele>300.420166</ele>
        <time>2010-09-21T15:51:28Z</time>
      </trkpt>
      <trkpt lat="48.74765" lon="7.32111">
        <ele>302.607666</ele>
        <time>2010-09-21T15:51:30Z</time>
      </trkpt>
      <trkpt lat="48.74772" lon="7.32109">
        <ele>303.826416</ele>
        <time>2010-09-21T15:51:32Z</time>
      </trkpt>
      <trkpt lat="48.7478" lon="7.32107">
        <ele>305.365479</ele>
        <time>2010-09-21T15:51:34Z</time>
      </trkpt>
      <trkpt lat="48.74787" lon="7.32107">
        <ele>306.631104</ele>
        <time>2010-09-21T15:51:36Z</time>
      </trkpt>
      <trkpt lat="48.74793" lon="7.32106">
        <ele>307.998291</ele>
        <time>2010-09-21T15:51:38Z</time>
      </trkpt>
      <trkpt lat="48.74797" lon="7.32102">
        <ele>310.365479</ele>
        <time>2010-09-21T15:51:40Z</time>
      </trkpt>
      <trkpt lat="48.74803" lon="7.32099">
        <ele>312.162354</ele>
        <time>2010-09-21T15:51:42Z</time>
      </trkpt>
      <trkpt lat="48.74809" lon="7.32097">
        <ele>312.646729</ele>
        <time>2010-09-21T15:51:44Z</time>
      </trkpt>
      <trkpt lat="48.74813" lon="7.32095">
        <ele>315.154541</ele>
        <time>2010-09-21T15:51:46Z</time>
      </trkpt>
      <trkpt lat="48.74818" lon="7.32093">
        <ele>315.842041</ele>
        <time>2010-09-21T15:51:48Z</time>
      </trkpt>
      <trkpt lat="48.74824" lon="7.32089">
        <ele>317.599854</ele>
        <time>2010-09-21T15:51:51Z</time>
      </trkpt>
      <trkpt lat="48.7483" lon="7.32089">
        <ele>319.302979</ele>
        <time>2010-09-21T15:51:53Z</time>
      </trkpt>
      <trkpt lat="48.74834" lon="7.32087">
        <ele>321.302979</ele>
        <time>2010-09-21T15:51:55Z</time>
      </trkpt>
      <trkpt lat="48.7484" lon="7.32082">
        <ele>323.287354</ele>
        <time>2010-09-21T15:51:58Z</time>
      </trkpt>
      <trkpt lat="48.74846" lon="7.32084">
        <ele>324.396729</ele>
        <time>2010-09-21T15:51:59Z</time>
      </trkpt>
      <trkpt lat="48.7485" lon="7.32084">
        <ele>326.154541</ele>
        <time>2010-09-21T15:52:00Z</time>
      </trkpt>
      <trkpt lat="48.74855" lon="7.32082">
        <ele>329.045166</ele>
        <time>2010-09-21T15:52:02Z</time>
      </trkpt>
      <trkpt lat="48.74859" lon="7.3208">
        <ele>332.560791</ele>
        <time>2010-09-21T15:52:04Z</time>
      </trkpt>
      <trkpt lat="48.74863" lon="7.3208">
        <ele>334.060791</ele>
        <time>2010-09-21T15:52:06Z</time>
      </trkpt>
      <trkpt lat="48.74869" lon="7.32078">
        <ele>334.412354</ele>
        <time>2010-09-21T15:52:08Z</time>
      </trkpt>
      <trkpt lat="48.74874" lon="7.32073">
        <ele>336.123291</ele>
        <time>2010-09-21T15:52:11Z</time>
      </trkpt>
      <trkpt lat="48.7488" lon="7.32071">
        <ele>337.842041</ele>
        <time>2010-09-21T15:52:14Z</time>
      </trkpt>
      <trkpt lat="48.74887" lon="7.32067">
        <ele>339.974854</ele>
        <time>2010-09-21T15:52:17Z</time>
      </trkpt>
      <trkpt lat="48.74892" lon="7.32064">
        <ele>342.396729</ele>
        <time>2010-09-21T15:52:20Z</time>
      </trkpt>
      <trkpt lat="48.74897" lon="7.3206">
        <ele>345.084229</ele>
        <time>2010-09-21T15:52:22Z</time>
      </trkpt>
      <trkpt lat="48.74901" lon="7.32057">
        <ele>347.427979</ele>
        <time>2010-09-21T15:52:24Z</time>
      </trkpt>
      <trkpt lat="48.74905" lon="7.32055">
        <ele>349.435791</ele>
        <time>2010-09-21T15:52:26Z</time>
      </trkpt>
      <trkpt lat="48.74909" lon="7.32051">
        <ele>350.865479</ele>
        <time>2010-09-21T15:52:28Z</time>
      </trkpt>
      <trkpt lat="48.74913" lon="7.32048">
        <ele>353.381104</ele>
        <time>2010-09-21T15:52:31Z</time>
      </trkpt>
      <trkpt lat="48.74918" lon="7.32045">
        <ele>356.631104</ele>
        <time>2010-09-21T15:52:34Z</time>
      </trkpt>
      <trkpt lat="48.74923" lon="7.32044">
        <ele>358.888916</ele>
        <time>2010-09-21T15:52:36Z</time>
      </trkpt>
      <trkpt lat="48.74925" lon="7.32038">
        <ele>361.068604</ele>
        <time>2010-09-21T15:52:41Z</time>
      </trkpt>
      <trkpt lat="48.74931" lon="7.32038">
        <ele>363.146729</ele>
        <time>2010-09-21T15:52:45Z</time>
      </trkpt>
      <trkpt lat="48.74937" lon="7.32037">
        <ele>364.990479</ele>
        <time>2010-09-21T15:52:48Z</time>
      </trkpt>
      <trkpt lat="48.74941" lon="7.32036">
        <ele>365.709229</ele>
        <time>2010-09-21T15:52:50Z</time>
      </trkpt>
      <trkpt lat="48.74945" lon="7.32034">
        <ele>366.631104</ele>
        <time>2010-09-21T15:52:52Z</time>
      </trkpt>
      <trkpt lat="48.74951" lon="7.32037">
        <ele>367.451416</ele>
        <time>2010-09-21T15:52:54Z</time>
      </trkpt>
      <trkpt lat="48.74959" lon="7.32039">
        <ele>368.467041</ele>
        <time>2010-09-21T15:52:56Z</time>
      </trkpt>
      <trkpt lat="48.74964" lon="7.32034">
        <ele>369.162354</ele>
        <time>2010-09-21T15:52:58Z</time>
      </trkpt>
      <trkpt lat="48.74969" lon="7.32034">
        <ele>370.435791</ele>
        <time>2010-09-21T15:53:01Z</time>
      </trkpt>
      <trkpt lat="48.74971" lon="7.32031">
        <ele>373.381104</ele>
        <time>2010-09-21T15:53:03Z</time>
      </trkpt>
      <trkpt lat="48.7498" lon="7.32032">
        <ele>372.396729</ele>
        <time>2010-09-21T15:53:06Z</time>
      </trkpt>
      <trkpt lat="48.74984" lon="7.32029">
        <ele>371.006104</ele>
        <time>2010-09-21T15:53:08Z</time>
      </trkpt>
      <trkpt lat="48.74989" lon="7.3203">
        <ele>371.607666</ele>
        <time>2010-09-21T15:53:10Z</time>
      </trkpt>
      <trkpt lat="48.74993" lon="7.32031">
        <ele>371.724854</ele>
        <time>2010-09-21T15:53:12Z</time>
      </trkpt>
      <trkpt lat="48.74999" lon="7.3203">
        <ele>372.162354</ele>
        <time>2010-09-21T15:53:16Z</time>
      </trkpt>
      <trkpt lat="48.75004" lon="7.32029">
        <ele>372.420166</ele>
        <time>2010-09-21T15:53:20Z</time>
      </trkpt>
      <trkpt lat="48.75008" lon="7.32024">
        <ele>372.748291</ele>
        <time>2010-09-21T15:53:23Z</time>
      </trkpt>
      <trkpt lat="48.75012" lon="7.32019">
        <ele>373.662354</ele>
        <time>2010-09-21T15:53:27Z</time>
      </trkpt>
      <trkpt lat="48.75016" lon="7.32014">
        <ele>374.092041</ele>
        <time>2010-09-21T15:53:29Z</time>
      </trkpt>
      <trkpt lat="48.75021" lon="7.32011">
        <ele>374.357666</ele>
        <time>2010-09-21T15:53:31Z</time>
      </trkpt>
      <trkpt lat="48.75025" lon="7.32008">
        <ele>374.740479</ele>
        <time>2010-09-21T15:53:34Z</time>
      </trkpt>
      <trkpt lat="48.7503" lon="7.32004">
        <ele>375.060791</ele>
        <time>2010-09-21T15:53:37Z</time>
      </trkpt>
      <trkpt lat="48.75034" lon="7.32001">
        <ele>375.420166</ele>
        <time>2010-09-21T15:53:41Z</time>
      </trkpt>
      <trkpt lat="48.75039" lon="7.31994">
        <ele>375.873291</ele>
        <time>2010-09-21T15:53:47Z</time>
      </trkpt>
      <trkpt lat="48.75043" lon="7.31992">
        <ele>376.115479</ele>
        <time>2010-09-21T15:53:53Z</time>
      </trkpt>
      <trkpt lat="48.75047" lon="7.31989">
        <ele>376.123291</ele>
        <time>2010-09-21T15:53:57Z</time>
      </trkpt>
      <trkpt lat="48.75055" lon="7.31987">
        <ele>375.951416</ele>
        <time>2010-09-21T15:54:01Z</time>
      </trkpt>
      <trkpt lat="48.7506" lon="7.31986">
        <ele>375.881104</ele>
        <time>2010-09-21T15:54:04Z</time>
      </trkpt>
      <trkpt lat="48.75068" lon="7.31983">
        <ele>375.795166</ele>
        <time>2010-09-21T15:54:08Z</time>
      </trkpt>
      <trkpt lat="48.75074" lon="7.31983">
        <ele>375.685791</ele>
        <time>2010-09-21T15:54:11Z</time>
      </trkpt>
      <trkpt lat="48.75081" lon="7.31978">
        <ele>375.279541</ele>
        <time>2010-09-21T15:54:15Z</time>
      </trkpt>
      <trkpt lat="48.75086" lon="7.31973">
        <ele>373.834229</ele>
        <time>2010-09-21T15:54:20Z</time>
      </trkpt>
      <trkpt lat="48.75091" lon="7.31966">
        <ele>372.076416</ele>
        <time>2010-09-21T15:54:25Z</time>
      </trkpt>
      <trkpt lat="48.75096" lon="7.31961">
        <ele>371.006104</ele>
        <time>2010-09-21T15:54:28Z</time>
      </trkpt>
      <trkpt lat="48.751" lon="7.31956">
        <ele>369.615479</ele>
        <time>2010-09-21T15:54:32Z</time>
      </trkpt>
      <trkpt lat="48.75104" lon="7.31953">
        <ele>368.646729</ele>
        <time>2010-09-21T15:54:35Z</time>
      </trkpt>
      <trkpt lat="48.751" lon="7.31931">
        <ele>367.357666</ele>
        <time>2010-09-21T15:54:38Z</time>
      </trkpt>
      <trkpt lat="48.75106" lon="7.3193">
        <ele>366.506104</ele>
        <time>2010-09-21T15:54:41Z</time>
      </trkpt>
      <trkpt lat="48.75112" lon="7.31931">
        <ele>365.326416</ele>
        <time>2010-09-21T15:54:45Z</time>
      </trkpt>
      <trkpt lat="48.75118" lon="7.31928">
        <ele>364.224854</ele>
        <time>2010-09-21T15:54:48Z</time>
      </trkpt>
      <trkpt lat="48.75122" lon="7.31924">
        <ele>361.513916</ele>
        <time>2010-09-21T15:54:52Z</time>
      </trkpt>
      <trkpt lat="48.75128" lon="7.31925">
        <ele>360.177979</ele>
        <time>2010-09-21T15:54:55Z</time>
      </trkpt>
      <trkpt lat="48.75133" lon="7.31927">
        <ele>358.506104</ele>
        <time>2010-09-21T15:54:58Z</time>
      </trkpt>
      <trkpt lat="48.75138" lon="7.31931">
        <ele>357.388916</ele>
        <time>2010-09-21T15:55:01Z</time>
      </trkpt>
      <trkpt lat="48.75143" lon="7.31933">
        <ele>356.232666</ele>
        <time>2010-09-21T15:55:04Z</time>
      </trkpt>
      <trkpt lat="48.7515" lon="7.31937">
        <ele>355.060791</ele>
        <time>2010-09-21T15:55:07Z</time>
      </trkpt>
      <trkpt lat="48.75155" lon="7.31938">
        <ele>353.990479</ele>
        <time>2010-09-21T15:55:10Z</time>
      </trkpt>
      <trkpt lat="48.7516" lon="7.31939">
        <ele>352.131104</ele>
        <time>2010-09-21T15:55:14Z</time>
      </trkpt>
      <trkpt lat="48.75168" lon="7.31946">
        <ele>350.576416</ele>
        <time>2010-09-21T15:55:17Z</time>
      </trkpt>
      <trkpt lat="48.75172" lon="7.31946">
        <ele>349.427979</ele>
        <time>2010-09-21T15:55:19Z</time>
      </trkpt>
      <trkpt lat="48.75179" lon="7.31945">
        <ele>347.420166</ele>
        <time>2010-09-21T15:55:21Z</time>
      </trkpt>
      <trkpt lat="48.75183" lon="7.3195">
        <ele>346.435791</ele>
        <time>2010-09-21T15:55:23Z</time>
      </trkpt>
      <trkpt lat="48.75189" lon="7.31955">
        <ele>345.232666</ele>
        <time>2010-09-21T15:55:26Z</time>
      </trkpt>
      <trkpt lat="48.75194" lon="7.31959">
        <ele>344.349854</ele>
        <time>2010-09-21T15:55:28Z</time>
      </trkpt>
      <trkpt lat="48.75198" lon="7.31962">
        <ele>343.693604</ele>
        <time>2010-09-21T15:55:30Z</time>
      </trkpt>
      <trkpt lat="48.75203" lon="7.31964">
        <ele>342.912354</ele>
        <time>2010-09-21T15:55:33Z</time>
      </trkpt>
      <trkpt lat="48.75209" lon="7.31964">
        <ele>341.131104</ele>
        <time>2010-09-21T15:55:36Z</time>
      </trkpt>
      <trkpt lat="48.75212" lon="7.31969">
        <ele>340.474854</ele>
        <time>2010-09-21T15:55:38Z</time>
      </trkpt>
      <trkpt lat="48.75217" lon="7.31974">
        <ele>339.373291</ele>
        <time>2010-09-21T15:55:41Z</time>
      </trkpt>
      <trkpt lat="48.75222" lon="7.3198">
        <ele>338.795166</ele>
        <time>2010-09-21T15:55:43Z</time>
      </trkpt>
      <trkpt lat="48.75227" lon="7.31981">
        <ele>337.990479</ele>
        <time>2010-09-21T15:55:45Z</time>
      </trkpt>
      <trkpt lat="48.75232" lon="7.31987">
        <ele>337.045166</ele>
        <time>2010-09-21T15:55:48Z</time>
      </trkpt>
      <trkpt lat="48.75236" lon="7.31991">
        <ele>336.482666</ele>
        <time>2010-09-21T15:55:50Z</time>
      </trkpt>
      <trkpt lat="48.75241" lon="7.31994">
        <ele>335.990479</ele>
        <time>2010-09-21T15:55:52Z</time>
      </trkpt>
      <trkpt lat="48.75246" lon="7.31995">
        <ele>334.631104</ele>
        <time>2010-09-21T15:55:55Z</time>
      </trkpt>
      <trkpt lat="48.75251" lon="7.31998">
        <ele>334.107666</ele>
        <time>2010-09-21T15:55:57Z</time>
      </trkpt>
      <trkpt lat="48.75256" lon="7.32002">
        <ele>333.295166</ele>
        <time>2010-09-21T15:56:01Z</time>
      </trkpt>
      <trkpt lat="48.75261" lon="7.31999">
        <ele>332.974854</ele>
        <time>2010-09-21T15:56:03Z</time>
      </trkpt>
      <trkpt lat="48.75269" lon="7.32002">
        <ele>333.013916</ele>
        <time>2010-09-21T15:56:05Z</time>
      </trkpt>
      <trkpt lat="48.75275" lon="7.32002">
        <ele>333.021729</ele>
        <time>2010-09-21T15:56:07Z</time>
      </trkpt>
      <trkpt lat="48.7528" lon="7.32003">
        <ele>332.677979</ele>
        <time>2010-09-21T15:56:09Z</time>
      </trkpt>
      <trkpt lat="48.75287" lon="7.32002">
        <ele>331.498291</ele>
        <time>2010-09-21T15:56:12Z</time>
      </trkpt>
      <trkpt lat="48.75293" lon="7.32003">
        <ele>331.842041</ele>
        <time>2010-09-21T15:56:14Z</time>
      </trkpt>
      <trkpt lat="48.75299" lon="7.32004">
        <ele>332.748291</ele>
        <time>2010-09-21T15:56:17Z</time>
      </trkpt>
      <trkpt lat="48.75305" lon="7.32005">
        <ele>333.162354</ele>
        <time>2010-09-21T15:56:19Z</time>
      </trkpt>
      <trkpt lat="48.7531" lon="7.32002">
        <ele>333.013916</ele>
        <time>2010-09-21T15:56:20Z</time>
      </trkpt>
      <trkpt lat="48.75316" lon="7.32002">
        <ele>333.881104</ele>
        <time>2010-09-21T15:56:22Z</time>
      </trkpt>
      <trkpt lat="48.75319" lon="7.32005">
        <ele>335.513916</ele>
        <time>2010-09-21T15:56:23Z</time>
      </trkpt>
      <trkpt lat="48.75325" lon="7.32005">
        <ele>336.670166</ele>
        <time>2010-09-21T15:56:26Z</time>
      </trkpt>
      <trkpt lat="48.7533" lon="7.32006">
        <ele>337.537354</ele>
        <time>2010-09-21T15:56:28Z</time>
      </trkpt>
      <trkpt lat="48.75335" lon="7.32003">
        <ele>337.998291</ele>
        <time>2010-09-21T15:56:31Z</time>
      </trkpt>
      <trkpt lat="48.7534" lon="7.32001">
        <ele>338.849854</ele>
        <time>2010-09-21T15:56:33Z</time>
      </trkpt>
      <trkpt lat="48.75345" lon="7.32002">
        <ele>340.927979</ele>
        <time>2010-09-21T15:56:35Z</time>
      </trkpt>
      <trkpt lat="48.7535" lon="7.31999">
        <ele>342.826416</ele>
        <time>2010-09-21T15:56:37Z</time>
      </trkpt>
      <trkpt lat="48.75356" lon="7.31999">
        <ele>344.592041</ele>
        <time>2010-09-21T15:56:40Z</time>
      </trkpt>
      <trkpt lat="48.75362" lon="7.32">
        <ele>345.177979</ele>
        <time>2010-09-21T15:56:42Z</time>
      </trkpt>
      <trkpt lat="48.7537" lon="7.31998">
        <ele>346.717041</ele>
        <time>2010-09-21T15:56:44Z</time>
      </trkpt>
      <trkpt lat="48.75376" lon="7.32">
        <ele>347.756104</ele>
        <time>2010-09-21T15:56:46Z</time>
      </trkpt>
      <trkpt lat="48.75381" lon="7.32002">
        <ele>349.521729</ele>
        <time>2010-09-21T15:56:48Z</time>
      </trkpt>
      <trkpt lat="48.75386" lon="7.32003">
        <ele>352.646729</ele>
        <time>2010-09-21T15:56:50Z</time>
      </trkpt>
      <trkpt lat="48.75391" lon="7.32002">
        <ele>355.256104</ele>
        <time>2010-09-21T15:56:53Z</time>
      </trkpt>
      <trkpt lat="48.75398" lon="7.32003">
        <ele>357.513916</ele>
        <time>2010-09-21T15:56:55Z</time>
      </trkpt>
      <trkpt lat="48.75403" lon="7.32003">
        <ele>358.154541</ele>
        <time>2010-09-21T15:56:57Z</time>
      </trkpt>
      <trkpt lat="48.75407" lon="7.32004">
        <ele>355.529541</ele>
        <time>2010-09-21T15:56:59Z</time>
      </trkpt>
      <trkpt lat="48.75414" lon="7.32004">
        <ele>356.334229</ele>
        <time>2010-09-21T15:57:02Z</time>
      </trkpt>
      <trkpt lat="48.75422" lon="7.32005">
        <ele>357.756104</ele>
        <time>2010-09-21T15:57:05Z</time>
      </trkpt>
      <trkpt lat="48.75428" lon="7.32007">
        <ele>359.349854</ele>
        <time>2010-09-21T15:57:07Z</time>
      </trkpt>
      <trkpt lat="48.75433" lon="7.32013">
        <ele>357.857666</ele>
        <time>2010-09-21T15:57:10Z</time>
      </trkpt>
      <trkpt lat="48.75438" lon="7.32015">
        <ele>354.451416</ele>
        <time>2010-09-21T15:57:12Z</time>
      </trkpt>
      <trkpt lat="48.75443" lon="7.32012">
        <ele>354.248291</ele>
        <time>2010-09-21T15:57:14Z</time>
      </trkpt>
      <trkpt lat="48.75448" lon="7.32014">
        <ele>354.084229</ele>
        <time>2010-09-21T15:57:16Z</time>
      </trkpt>
      <trkpt lat="48.75453" lon="7.32015">
        <ele>354.412354</ele>
        <time>2010-09-21T15:57:18Z</time>
      </trkpt>
      <trkpt lat="48.75457" lon="7.32017">
        <ele>354.162354</ele>
        <time>2010-09-21T15:57:20Z</time>
      </trkpt>
      <trkpt lat="48.75462" lon="7.3202">
        <ele>353.920166</ele>
        <time>2010-09-21T15:57:23Z</time>
      </trkpt>
      <trkpt lat="48.75467" lon="7.32021">
        <ele>351.224854</ele>
        <time>2010-09-21T15:57:25Z</time>
      </trkpt>
      <trkpt lat="48.75473" lon="7.32026">
        <ele>350.748291</ele>
        <time>2010-09-21T15:57:29Z</time>
      </trkpt>
      <trkpt lat="48.75477" lon="7.32026">
        <ele>347.732666</ele>
        <time>2010-09-21T15:57:31Z</time>
      </trkpt>
      <trkpt lat="48.75482" lon="7.32029">
        <ele>348.459229</ele>
        <time>2010-09-21T15:57:37Z</time>
      </trkpt>
      <trkpt lat="48.75489" lon="7.3203">
        <ele>347.967041</ele>
        <time>2010-09-21T15:57:40Z</time>
      </trkpt>
      <trkpt lat="48.75493" lon="7.32034">
        <ele>347.771729</ele>
        <time>2010-09-21T15:57:43Z</time>
      </trkpt>
      <trkpt lat="48.75499" lon="7.32038">
        <ele>347.349854</ele>
        <time>2010-09-21T15:57:49Z</time>
      </trkpt>
      <trkpt lat="48.75503" lon="7.32042">
        <ele>347.209229</ele>
        <time>2010-09-21T15:57:50Z</time>
      </trkpt>
      <trkpt lat="48.75508" lon="7.32046">
        <ele>345.959229</ele>
        <time>2010-09-21T15:57:51Z</time>
      </trkpt>
      <trkpt lat="48.7551" lon="7.32052">
        <ele>346.263916</ele>
        <time>2010-09-21T15:57:53Z</time>
      </trkpt>
      <trkpt lat="48.75515" lon="7.32055">
        <ele>345.584229</ele>
        <time>2010-09-21T15:57:57Z</time>
      </trkpt>
      <trkpt lat="48.7552" lon="7.32056">
        <ele>346.849854</ele>
        <time>2010-09-21T15:57:59Z</time>
      </trkpt>
      <trkpt lat="48.75524" lon="7.32061">
        <ele>346.631104</ele>
        <time>2010-09-21T15:58:03Z</time>
      </trkpt>
      <trkpt lat="48.75529" lon="7.32062">
        <ele>346.740479</ele>
        <time>2010-09-21T15:58:06Z</time>
      </trkpt>
      <trkpt lat="48.75536" lon="7.32067">
        <ele>348.677979</ele>
        <time>2010-09-21T15:58:11Z</time>
      </trkpt>
      <trkpt lat="48.75541" lon="7.32072">
        <ele>348.670166</ele>
        <time>2010-09-21T15:58:18Z</time>
      </trkpt>
      <trkpt lat="48.75542" lon="7.32079">
        <ele>349.506104</ele>
        <time>2010-09-21T15:58:25Z</time>
      </trkpt>
      <trkpt lat="48.75544" lon="7.32087">
        <ele>348.935791</ele>
        <time>2010-09-21T15:58:31Z</time>
      </trkpt>
      <trkpt lat="48.75548" lon="7.32089">
        <ele>348.896729</ele>
        <time>2010-09-21T15:58:34Z</time>
      </trkpt>
      <trkpt lat="48.75552" lon="7.32096">
        <ele>348.935791</ele>
        <time>2010-09-21T15:58:41Z</time>
      </trkpt>
      <trkpt lat="48.75558" lon="7.32096">
        <ele>350.162354</ele>
        <time>2010-09-21T15:58:43Z</time>
      </trkpt>
      <trkpt lat="48.75562" lon="7.32099">
        <ele>350.279541</ele>
        <time>2010-09-21T15:58:48Z</time>
      </trkpt>
      <trkpt lat="48.75568" lon="7.32099">
        <ele>351.521729</ele>
        <time>2010-09-21T15:58:51Z</time>
      </trkpt>
      <trkpt lat="48.75572" lon="7.32102">
        <ele>352.552979</ele>
        <time>2010-09-21T15:58:55Z</time>
      </trkpt>
      <trkpt lat="48.75578" lon="7.32106">
        <ele>351.474854</ele>
        <time>2010-09-21T15:59:02Z</time>
      </trkpt>
      <trkpt lat="48.75584" lon="7.3211">
        <ele>350.326416</ele>
        <time>2010-09-21T15:59:06Z</time>
      </trkpt>
      <trkpt lat="48.75588" lon="7.32114">
        <ele>350.310791</ele>
        <time>2010-09-21T15:59:09Z</time>
      </trkpt>
      <trkpt lat="48.75593" lon="7.32114">
        <ele>348.537354</ele>
        <time>2010-09-21T15:59:12Z</time>
      </trkpt>
      <trkpt lat="48.75597" lon="7.32118">
        <ele>348.240479</ele>
        <time>2010-09-21T15:59:15Z</time>
      </trkpt>
      <trkpt lat="48.75601" lon="7.32124">
        <ele>347.521729</ele>
        <time>2010-09-21T15:59:16Z</time>
      </trkpt>
      <trkpt lat="48.75604" lon="7.3213">
        <ele>347.857666</ele>
        <time>2010-09-21T15:59:19Z</time>
      </trkpt>
      <trkpt lat="48.75608" lon="7.32134">
        <ele>347.396729</ele>
        <time>2010-09-21T15:59:22Z</time>
      </trkpt>
      <trkpt lat="48.75612" lon="7.32135">
        <ele>346.951416</ele>
        <time>2010-09-21T15:59:25Z</time>
      </trkpt>
      <trkpt lat="48.75617" lon="7.32141">
        <ele>348.717041</ele>
        <time>2010-09-21T15:59:31Z</time>
      </trkpt>
      <trkpt lat="48.75621" lon="7.32141">
        <ele>349.099854</ele>
        <time>2010-09-21T15:59:35Z</time>
      </trkpt>
      <trkpt lat="48.75626" lon="7.32142">
        <ele>350.177979</ele>
        <time>2010-09-21T15:59:39Z</time>
      </trkpt>
      <trkpt lat="48.75632" lon="7.32142">
        <ele>350.654541</ele>
        <time>2010-09-21T15:59:43Z</time>
      </trkpt>
      <trkpt lat="48.75637" lon="7.32143">
        <ele>353.037354</ele>
        <time>2010-09-21T15:59:47Z</time>
      </trkpt>
      <trkpt lat="48.75642" lon="7.32143">
        <ele>352.974854</ele>
        <time>2010-09-21T15:59:52Z</time>
      </trkpt>
      <trkpt lat="48.75647" lon="7.32141">
        <ele>351.240479</ele>
        <time>2010-09-21T15:59:56Z</time>
      </trkpt>
      <trkpt lat="48.75652" lon="7.32142">
        <ele>353.295166</ele>
        <time>2010-09-21T15:59:59Z</time>
      </trkpt>
      <trkpt lat="48.75656" lon="7.32142">
        <ele>356.349854</ele>
        <time>2010-09-21T16:00:04Z</time>
      </trkpt>
      <trkpt lat="48.75661" lon="7.3214">
        <ele>356.623291</ele>
        <time>2010-09-21T16:00:09Z</time>
      </trkpt>
      <trkpt lat="48.75665" lon="7.32139">
        <ele>357.177979</ele>
        <time>2010-09-21T16:00:13Z</time>
      </trkpt>
      <trkpt lat="48.75672" lon="7.32139">
        <ele>357.888916</ele>
        <time>2010-09-21T16:00:17Z</time>
      </trkpt>
      <trkpt lat="48.75678" lon="7.32142">
        <ele>358.654541</ele>
        <time>2010-09-21T16:00:21Z</time>
      </trkpt>
      <trkpt lat="48.75683" lon="7.32141">
        <ele>359.388916</ele>
        <time>2010-09-21T16:00:26Z</time>
      </trkpt>
      <trkpt lat="48.75687" lon="7.32136">
        <ele>359.373291</ele>
        <time>2010-09-21T16:00:31Z</time>
      </trkpt>
      <trkpt lat="48.75694" lon="7.32136">
        <ele>360.021729</ele>
        <time>2010-09-21T16:00:35Z</time>
      </trkpt>
      <trkpt lat="48.757" lon="7.32136">
        <ele>360.568604</ele>
        <time>2010-09-21T16:00:38Z</time>
      </trkpt>
      <trkpt lat="48.75706" lon="7.32136">
        <ele>361.881104</ele>
        <time>2010-09-21T16:00:41Z</time>
      </trkpt>
      <trkpt lat="48.75711" lon="7.32137">
        <ele>365.084229</ele>
        <time>2010-09-21T16:00:46Z</time>
      </trkpt>
      <trkpt lat="48.75716" lon="7.32134">
        <ele>367.209229</ele>
        <time>2010-09-21T16:00:51Z</time>
      </trkpt>
      <trkpt lat="48.75721" lon="7.32132">
        <ele>367.818604</ele>
        <time>2010-09-21T16:00:59Z</time>
      </trkpt>
      <trkpt lat="48.75727" lon="7.32133">
        <ele>368.787354</ele>
        <time>2010-09-21T16:01:02Z</time>
      </trkpt>
      <trkpt lat="48.75732" lon="7.32134">
        <ele>370.271729</ele>
        <time>2010-09-21T16:01:06Z</time>
      </trkpt>
      <trkpt lat="48.75736" lon="7.3213">
        <ele>373.599854</ele>
        <time>2010-09-21T16:01:11Z</time>
      </trkpt>
      <trkpt lat="48.75743" lon="7.32129">
        <ele>374.857666</ele>
        <time>2010-09-21T16:01:18Z</time>
      </trkpt>
      <trkpt lat="48.75748" lon="7.32131">
        <ele>375.279541</ele>
        <time>2010-09-21T16:01:24Z</time>
      </trkpt>
      <trkpt lat="48.75753" lon="7.32129">
        <ele>376.615479</ele>
        <time>2010-09-21T16:01:29Z</time>
      </trkpt>
      <trkpt lat="48.75758" lon="7.32129">
        <ele>374.717041</ele>
        <time>2010-09-21T16:01:36Z</time>
      </trkpt>
      <trkpt lat="48.75763" lon="7.32129">
        <ele>376.115479</ele>
        <time>2010-09-21T16:01:39Z</time>
      </trkpt>
      <trkpt lat="48.75768" lon="7.3213">
        <ele>375.974854</ele>
        <time>2010-09-21T16:01:41Z</time>
      </trkpt>
      <trkpt lat="48.75772" lon="7.32133">
        <ele>376.521729</ele>
        <time>2010-09-21T16:01:45Z</time>
      </trkpt>
      <trkpt lat="48.75777" lon="7.32137">
        <ele>377.474854</ele>
        <time>2010-09-21T16:01:50Z</time>
      </trkpt>
      <trkpt lat="48.75781" lon="7.32141">
        <ele>378.451416</ele>
        <time>2010-09-21T16:01:54Z</time>
      </trkpt>
      <trkpt lat="48.75787" lon="7.3214">
        <ele>379.560791</ele>
        <time>2010-09-21T16:01:56Z</time>
      </trkpt>
      <trkpt lat="48.75792" lon="7.32144">
        <ele>377.818604</ele>
        <time>2010-09-21T16:02:00Z</time>
      </trkpt>
      <trkpt lat="48.75789" lon="7.3215">
        <ele>379.201416</ele>
        <time>2010-09-21T16:02:12Z</time>
      </trkpt>
      <trkpt lat="48.75785" lon="7.32154">
        <ele>379.451416</ele>
        <time>2010-09-21T16:02:17Z</time>
      </trkpt>
      <trkpt lat="48.75781" lon="7.32159">
        <ele>378.927979</ele>
        <time>2010-09-21T16:02:20Z</time>
      </trkpt>
      <trkpt lat="48.75776" lon="7.32162">
        <ele>378.357666</ele>
        <time>2010-09-21T16:02:22Z</time>
      </trkpt>
      <trkpt lat="48.75771" lon="7.32165">
        <ele>378.162354</ele>
        <time>2010-09-21T16:02:25Z</time>
      </trkpt>
      <trkpt lat="48.75768" lon="7.3217">
        <ele>379.654541</ele>
        <time>2010-09-21T16:02:29Z</time>
      </trkpt>
      <trkpt lat="48.75763" lon="7.32175">
        <ele>379.756104</ele>
        <time>2010-09-21T16:02:32Z</time>
      </trkpt>
      <trkpt lat="48.75761" lon="7.32182">
        <ele>379.771729</ele>
        <time>2010-09-21T16:02:35Z</time>
      </trkpt>
      <trkpt lat="48.75758" lon="7.32191">
        <ele>380.263916</ele>
        <time>2010-09-21T16:02:38Z</time>
      </trkpt>
      <trkpt lat="48.75755" lon="7.32195">
        <ele>381.670166</ele>
        <time>2010-09-21T16:02:41Z</time>
      </trkpt>
      <trkpt lat="48.75752" lon="7.32202">
        <ele>381.881104</ele>
        <time>2010-09-21T16:02:43Z</time>
      </trkpt>
      <trkpt lat="48.75748" lon="7.3221">
        <ele>382.607666</ele>
        <time>2010-09-21T16:02:46Z</time>
      </trkpt>
      <trkpt lat="48.75745" lon="7.32215">
        <ele>382.912354</ele>
        <time>2010-09-21T16:02:49Z</time>
      </trkpt>
      <trkpt lat="48.75739" lon="7.32218">
        <ele>383.388916</ele>
        <time>2010-09-21T16:02:52Z</time>
      </trkpt>
      <trkpt lat="48.75736" lon="7.32222">
        <ele>383.459229</ele>
        <time>2010-09-21T16:02:54Z</time>
      </trkpt>
      <trkpt lat="48.75731" lon="7.32224">
        <ele>384.131104</ele>
        <time>2010-09-21T16:02:57Z</time>
      </trkpt>
      <trkpt lat="48.75725" lon="7.32232">
        <ele>384.099854</ele>
        <time>2010-09-21T16:03:00Z</time>
      </trkpt>
      <trkpt lat="48.75723" lon="7.32239">
        <ele>383.631104</ele>
        <time>2010-09-21T16:03:01Z</time>
      </trkpt>
      <trkpt lat="48.75719" lon="7.32246">
        <ele>383.107666</ele>
        <time>2010-09-21T16:03:03Z</time>
      </trkpt>
      <trkpt lat="48.75715" lon="7.3225">
        <ele>383.646729</ele>
        <time>2010-09-21T16:03:06Z</time>
      </trkpt>
      <trkpt lat="48.7571" lon="7.32255">
        <ele>384.232666</ele>
        <time>2010-09-21T16:03:11Z</time>
      </trkpt>
      <trkpt lat="48.75707" lon="7.3226">
        <ele>383.396729</ele>
        <time>2010-09-21T16:03:28Z</time>
      </trkpt>
      <trkpt lat="48.75702" lon="7.3226">
        <ele>383.224854</ele>
        <time>2010-09-21T16:03:45Z</time>
      </trkpt>
      <trkpt lat="48.757" lon="7.32267">
        <ele>383.420166</ele>
        <time>2010-09-21T16:07:46Z</time>
      </trkpt>
      <trkpt lat="48.75702" lon="7.32274">
        <ele>383.482666</ele>
        <time>2010-09-21T16:07:48Z</time>
      </trkpt>
      <trkpt lat="48.75704" lon="7.3228">
        <ele>382.826416</ele>
        <time>2010-09-21T16:07:50Z</time>
      </trkpt>
      <trkpt lat="48.75706" lon="7.32285">
        <ele>381.342041</ele>
        <time>2010-09-21T16:07:54Z</time>
      </trkpt>
      <trkpt lat="48.75702" lon="7.32283">
        <ele>380.295166</ele>
        <time>2010-09-21T16:08:56Z</time>
      </trkpt>
      <trkpt lat="48.75707" lon="7.32283">
        <ele>382.177979</ele>
        <time>2010-09-21T16:11:56Z</time>
      </trkpt>
      <trkpt lat="48.75711" lon="7.32283">
        <ele>382.271729</ele>
        <time>2010-09-21T16:12:00Z</time>
      </trkpt>
      <trkpt lat="48.75716" lon="7.32283">
        <ele>382.576416</ele>
        <time>2010-09-21T16:12:04Z</time>
      </trkpt>
      <trkpt lat="48.75721" lon="7.32285">
        <ele>382.842041</ele>
        <time>2010-09-21T16:12:08Z</time>
      </trkpt>
      <trkpt lat="48.75727" lon="7.32283">
        <ele>383.068604</ele>
        <time>2010-09-21T16:12:12Z</time>
      </trkpt>
      <trkpt lat="48.75733" lon="7.32281">
        <ele>382.943604</ele>
        <time>2010-09-21T16:12:14Z</time>
      </trkpt>
      <trkpt lat="48.7574" lon="7.32281">
        <ele>382.842041</ele>
        <time>2010-09-21T16:12:17Z</time>
      </trkpt>
      <trkpt lat="48.75745" lon="7.3228">
        <ele>382.982666</ele>
        <time>2010-09-21T16:12:19Z</time>
      </trkpt>
      <trkpt lat="48.75752" lon="7.32282">
        <ele>382.927979</ele>
        <time>2010-09-21T16:12:22Z</time>
      </trkpt>
      <trkpt lat="48.75757" lon="7.32282">
        <ele>382.873291</ele>
        <time>2010-09-21T16:12:24Z</time>
      </trkpt>
      <trkpt lat="48.75765" lon="7.32281">
        <ele>382.365479</ele>
        <time>2010-09-21T16:12:26Z</time>
      </trkpt>
      <trkpt lat="48.75771" lon="7.32284">
        <ele>382.498291</ele>
        <time>2010-09-21T16:12:28Z</time>
      </trkpt>
      <trkpt lat="48.75777" lon="7.32286">
        <ele>383.982666</ele>
        <time>2010-09-21T16:12:30Z</time>
      </trkpt>
      <trkpt lat="48.75781" lon="7.3229">
        <ele>384.279541</ele>
        <time>2010-09-21T16:12:32Z</time>
      </trkpt>
      <trkpt lat="48.75788" lon="7.32295">
        <ele>384.920166</ele>
        <time>2010-09-21T16:12:35Z</time>
      </trkpt>
      <trkpt lat="48.75793" lon="7.32302">
        <ele>385.529541</ele>
        <time>2010-09-21T16:12:37Z</time>
      </trkpt>
      <trkpt lat="48.75798" lon="7.32308">
        <ele>385.974854</ele>
        <time>2010-09-21T16:12:39Z</time>
      </trkpt>
      <trkpt lat="48.75802" lon="7.32316">
        <ele>386.318604</ele>
        <time>2010-09-21T16:12:42Z</time>
      </trkpt>
      <trkpt lat="48.75806" lon="7.32317">
        <ele>388.201416</ele>
        <time>2010-09-21T16:12:43Z</time>
      </trkpt>
      <trkpt lat="48.75812" lon="7.32316">
        <ele>389.045166</ele>
        <time>2010-09-21T16:12:45Z</time>
      </trkpt>
      <trkpt lat="48.75821" lon="7.32314">
        <ele>388.084229</ele>
        <time>2010-09-21T16:12:47Z</time>
      </trkpt>
      <trkpt lat="48.75831" lon="7.32312">
        <ele>387.201416</ele>
        <time>2010-09-21T16:12:49Z</time>
      </trkpt>
      <trkpt lat="48.75838" lon="7.3231">
        <ele>387.896729</ele>
        <time>2010-09-21T16:12:51Z</time>
      </trkpt>
      <trkpt lat="48.75842" lon="7.32306">
        <ele>388.162354</ele>
        <time>2010-09-21T16:12:53Z</time>
      </trkpt>
      <trkpt lat="48.75847" lon="7.323">
        <ele>389.568604</ele>
        <time>2010-09-21T16:12:55Z</time>
      </trkpt>
      <trkpt lat="48.75851" lon="7.32294">
        <ele>390.357666</ele>
        <time>2010-09-21T16:12:57Z</time>
      </trkpt>
      <trkpt lat="48.75856" lon="7.3229">
        <ele>392.873291</ele>
        <time>2010-09-21T16:13:00Z</time>
      </trkpt>
      <trkpt lat="48.75861" lon="7.32283">
        <ele>395.646729</ele>
        <time>2010-09-21T16:13:02Z</time>
      </trkpt>
      <trkpt lat="48.75868" lon="7.32277">
        <ele>401.467041</ele>
        <time>2010-09-21T16:13:04Z</time>
      </trkpt>
      <trkpt lat="48.75873" lon="7.32273">
        <ele>402.052979</ele>
        <time>2010-09-21T16:13:06Z</time>
      </trkpt>
      <trkpt lat="48.75879" lon="7.32268">
        <ele>407.310791</ele>
        <time>2010-09-21T16:13:08Z</time>
      </trkpt>
      <trkpt lat="48.75884" lon="7.32265">
        <ele>411.052979</ele>
        <time>2010-09-21T16:13:10Z</time>
      </trkpt>
      <trkpt lat="48.75888" lon="7.32262">
        <ele>414.334229</ele>
        <time>2010-09-21T16:13:12Z</time>
      </trkpt>
      <trkpt lat="48.75894" lon="7.32259">
        <ele>417.904541</ele>
        <time>2010-09-21T16:13:14Z</time>
      </trkpt>
      <trkpt lat="48.75895" lon="7.3225">
        <ele>419.193604</ele>
        <time>2010-09-21T16:13:15Z</time>
      </trkpt>
      <trkpt lat="48.75896" lon="7.32242">
        <ele>420.209229</ele>
        <time>2010-09-21T16:13:16Z</time>
      </trkpt>
      <trkpt lat="48.75901" lon="7.3224">
        <ele>421.990479</ele>
        <time>2010-09-21T16:13:18Z</time>
      </trkpt>
      <trkpt lat="48.75905" lon="7.32237">
        <ele>423.787354</ele>
        <time>2010-09-21T16:13:20Z</time>
      </trkpt>
      <trkpt lat="48.75911" lon="7.32236">
        <ele>425.881104</ele>
        <time>2010-09-21T16:13:22Z</time>
      </trkpt>
      <trkpt lat="48.75917" lon="7.32235">
        <ele>428.982666</ele>
        <time>2010-09-21T16:13:25Z</time>
      </trkpt>
      <trkpt lat="48.75921" lon="7.32236">
        <ele>430.888916</ele>
        <time>2010-09-21T16:13:27Z</time>
      </trkpt>
      <trkpt lat="48.75925" lon="7.32238">
        <ele>433.084229</ele>
        <time>2010-09-21T16:13:29Z</time>
      </trkpt>
      <trkpt lat="48.75932" lon="7.32237">
        <ele>433.873291</ele>
        <time>2010-09-21T16:13:31Z</time>
      </trkpt>
      <trkpt lat="48.75937" lon="7.32239">
        <ele>435.224854</ele>
        <time>2010-09-21T16:13:33Z</time>
      </trkpt>
      <trkpt lat="48.75944" lon="7.32238">
        <ele>436.287354</ele>
        <time>2010-09-21T16:13:35Z</time>
      </trkpt>
      <trkpt lat="48.75949" lon="7.32237">
        <ele>438.037354</ele>
        <time>2010-09-21T16:13:36Z</time>
      </trkpt>
      <trkpt lat="48.75954" lon="7.32237">
        <ele>440.232666</ele>
        <time>2010-09-21T16:13:37Z</time>
      </trkpt>
      <trkpt lat="48.75959" lon="7.3224">
        <ele>442.467041</ele>
        <time>2010-09-21T16:13:39Z</time>
      </trkpt>
      <trkpt lat="48.75963" lon="7.3224">
        <ele>442.451416</ele>
        <time>2010-09-21T16:13:41Z</time>
      </trkpt>
      <trkpt lat="48.75969" lon="7.32242">
        <ele>441.459229</ele>
        <time>2010-09-21T16:13:43Z</time>
      </trkpt>
      <trkpt lat="48.75976" lon="7.32247">
        <ele>441.349854</ele>
        <time>2010-09-21T16:13:46Z</time>
      </trkpt>
      <trkpt lat="48.75982" lon="7.32248">
        <ele>442.365479</ele>
        <time>2010-09-21T16:13:48Z</time>
      </trkpt>
      <trkpt lat="48.75986" lon="7.32251">
        <ele>443.459229</ele>
        <time>2010-09-21T16:13:50Z</time>
      </trkpt>
      <trkpt lat="48.7599" lon="7.32253">
        <ele>443.677979</ele>
        <time>2010-09-21T16:13:52Z</time>
      </trkpt>
      <trkpt lat="48.75999" lon="7.32258">
        <ele>443.412354</ele>
        <time>2010-09-21T16:13:54Z</time>
      </trkpt>
      <trkpt lat="48.76003" lon="7.32261">
        <ele>442.787354</ele>
        <time>2010-09-21T16:13:56Z</time>
      </trkpt>
      <trkpt lat="48.76007" lon="7.32262">
        <ele>439.677979</ele>
        <time>2010-09-21T16:13:59Z</time>
      </trkpt>
      <trkpt lat="48.76004" lon="7.32263">
        <ele>435.154541</ele>
        <time>2010-09-21T16:14:19Z</time>
      </trkpt>
      <trkpt lat="48.76006" lon="7.32265">
        <ele>429.224854</ele>
        <time>2010-09-21T16:14:21Z</time>
      </trkpt>
      <trkpt lat="48.76005" lon="7.32266">
        <ele>423.834229</ele>
        <time>2010-09-21T16:14:24Z</time>
      </trkpt>
      <trkpt lat="48.76003" lon="7.32273">
        <ele>421.404541</ele>
        <time>2010-09-21T16:14:27Z</time>
      </trkpt>
      <trkpt lat="48.76001" lon="7.32282">
        <ele>422.568604</ele>
        <time>2010-09-21T16:14:30Z</time>
      </trkpt>
      <trkpt lat="48.75999" lon="7.3229">
        <ele>423.037354</ele>
        <time>2010-09-21T16:14:33Z</time>
      </trkpt>
      <trkpt lat="48.75996" lon="7.32296">
        <ele>422.795166</ele>
        <time>2010-09-21T16:14:35Z</time>
      </trkpt>
      <trkpt lat="48.75995" lon="7.32304">
        <ele>422.959229</ele>
        <time>2010-09-21T16:14:37Z</time>
      </trkpt>
      <trkpt lat="48.75993" lon="7.32312">
        <ele>423.209229</ele>
        <time>2010-09-21T16:14:39Z</time>
      </trkpt>
      <trkpt lat="48.75991" lon="7.32322">
        <ele>422.162354</ele>
        <time>2010-09-21T16:14:41Z</time>
      </trkpt>
      <trkpt lat="48.7599" lon="7.3233">
        <ele>423.154541</ele>
        <time>2010-09-21T16:14:43Z</time>
      </trkpt>
      <trkpt lat="48.7599" lon="7.32339">
        <ele>423.802979</ele>
        <time>2010-09-21T16:14:47Z</time>
      </trkpt>
      <trkpt lat="48.75988" lon="7.32347">
        <ele>424.537354</ele>
        <time>2010-09-21T16:14:50Z</time>
      </trkpt>
      <trkpt lat="48.75985" lon="7.32354">
        <ele>424.818604</ele>
        <time>2010-09-21T16:14:52Z</time>
      </trkpt>
      <trkpt lat="48.75981" lon="7.32361">
        <ele>425.607666</ele>
        <time>2010-09-21T16:14:54Z</time>
      </trkpt>
      <trkpt lat="48.75978" lon="7.32368">
        <ele>424.951416</ele>
        <time>2010-09-21T16:14:56Z</time>
      </trkpt>
      <trkpt lat="48.75975" lon="7.32379">
        <ele>424.209229</ele>
        <time>2010-09-21T16:14:58Z</time>
      </trkpt>
      <trkpt lat="48.75971" lon="7.32388">
        <ele>423.185791</ele>
        <time>2010-09-21T16:15:00Z</time>
      </trkpt>
      <trkpt lat="48.75967" lon="7.32395">
        <ele>422.802979</ele>
        <time>2010-09-21T16:15:02Z</time>
      </trkpt>
      <trkpt lat="48.75963" lon="7.32404">
        <ele>422.545166</ele>
        <time>2010-09-21T16:15:04Z</time>
      </trkpt>
      <trkpt lat="48.75959" lon="7.32409">
        <ele>423.279541</ele>
        <time>2010-09-21T16:15:05Z</time>
      </trkpt>
      <trkpt lat="48.75953" lon="7.32417">
        <ele>423.365479</ele>
        <time>2010-09-21T16:15:07Z</time>
      </trkpt>
      <trkpt lat="48.75949" lon="7.32423">
        <ele>421.435791</ele>
        <time>2010-09-21T16:15:09Z</time>
      </trkpt>
      <trkpt lat="48.75946" lon="7.32433">
        <ele>419.920166</ele>
        <time>2010-09-21T16:15:11Z</time>
      </trkpt>
      <trkpt lat="48.75939" lon="7.32439">
        <ele>419.107666</ele>
        <time>2010-09-21T16:15:13Z</time>
      </trkpt>
      <trkpt lat="48.75932" lon="7.32448">
        <ele>418.888916</ele>
        <time>2010-09-21T16:15:15Z</time>
      </trkpt>
      <trkpt lat="48.75929" lon="7.32453">
        <ele>418.177979</ele>
        <time>2010-09-21T16:15:16Z</time>
      </trkpt>
      <trkpt lat="48.75925" lon="7.3246">
        <ele>418.287354</ele>
        <time>2010-09-21T16:15:17Z</time>
      </trkpt>
      <trkpt lat="48.75918" lon="7.32469">
        <ele>420.123291</ele>
        <time>2010-09-21T16:15:19Z</time>
      </trkpt>
      <trkpt lat="48.7591" lon="7.32476">
        <ele>421.263916</ele>
        <time>2010-09-21T16:15:21Z</time>
      </trkpt>
      <trkpt lat="48.75906" lon="7.3248">
        <ele>422.654541</ele>
        <time>2010-09-21T16:15:22Z</time>
      </trkpt>
      <trkpt lat="48.75901" lon="7.32487">
        <ele>424.123291</ele>
        <time>2010-09-21T16:15:24Z</time>
      </trkpt>
      <trkpt lat="48.75893" lon="7.32491">
        <ele>424.685791</ele>
        <time>2010-09-21T16:15:26Z</time>
      </trkpt>
      <trkpt lat="48.7589" lon="7.32495">
        <ele>422.888916</ele>
        <time>2010-09-21T16:15:27Z</time>
      </trkpt>
      <trkpt lat="48.75883" lon="7.32502">
        <ele>423.318604</ele>
        <time>2010-09-21T16:15:29Z</time>
      </trkpt>
      <trkpt lat="48.75879" lon="7.32507">
        <ele>422.123291</ele>
        <time>2010-09-21T16:15:30Z</time>
      </trkpt>
      <trkpt lat="48.75874" lon="7.32515">
        <ele>421.920166</ele>
        <time>2010-09-21T16:15:32Z</time>
      </trkpt>
      <trkpt lat="48.75867" lon="7.32525">
        <ele>422.287354</ele>
        <time>2010-09-21T16:15:34Z</time>
      </trkpt>
      <trkpt lat="48.75862" lon="7.32535">
        <ele>421.467041</ele>
        <time>2010-09-21T16:15:36Z</time>
      </trkpt>
      <trkpt lat="48.75855" lon="7.32547">
        <ele>420.795166</ele>
        <time>2010-09-21T16:15:38Z</time>
      </trkpt>
      <trkpt lat="48.75851" lon="7.3255">
        <ele>421.459229</ele>
        <time>2010-09-21T16:15:39Z</time>
      </trkpt>
      <trkpt lat="48.75844" lon="7.32558">
        <ele>419.865479</ele>
        <time>2010-09-21T16:15:41Z</time>
      </trkpt>
      <trkpt lat="48.7584" lon="7.3256">
        <ele>420.709229</ele>
        <time>2010-09-21T16:15:42Z</time>
      </trkpt>
      <trkpt lat="48.75835" lon="7.32564">
        <ele>421.865479</ele>
        <time>2010-09-21T16:15:43Z</time>
      </trkpt>
      <trkpt lat="48.75832" lon="7.32571">
        <ele>420.224854</ele>
        <time>2010-09-21T16:15:44Z</time>
      </trkpt>
      <trkpt lat="48.75825" lon="7.32579">
        <ele>421.974854</ele>
        <time>2010-09-21T16:15:46Z</time>
      </trkpt>
      <trkpt lat="48.75821" lon="7.32585">
        <ele>421.295166</ele>
        <time>2010-09-21T16:15:47Z</time>
      </trkpt>
      <trkpt lat="48.75818" lon="7.32592">
        <ele>421.201416</ele>
        <time>2010-09-21T16:15:48Z</time>
      </trkpt>
      <trkpt lat="48.75813" lon="7.32598">
        <ele>420.052979</ele>
        <time>2010-09-21T16:15:49Z</time>
      </trkpt>
      <trkpt lat="48.75808" lon="7.32605">
        <ele>418.224854</ele>
        <time>2010-09-21T16:15:50Z</time>
      </trkpt>
      <trkpt lat="48.75803" lon="7.32611">
        <ele>415.818604</ele>
        <time>2010-09-21T16:15:51Z</time>
      </trkpt>
      <trkpt lat="48.758" lon="7.32615">
        <ele>415.365479</ele>
        <time>2010-09-21T16:15:52Z</time>
      </trkpt>
      <trkpt lat="48.75792" lon="7.32622">
        <ele>414.724854</ele>
        <time>2010-09-21T16:15:54Z</time>
      </trkpt>
      <trkpt lat="48.75785" lon="7.32625">
        <ele>415.865479</ele>
        <time>2010-09-21T16:15:56Z</time>
      </trkpt>
      <trkpt lat="48.75777" lon="7.32628">
        <ele>416.521729</ele>
        <time>2010-09-21T16:15:58Z</time>
      </trkpt>
      <trkpt lat="48.75773" lon="7.32633">
        <ele>415.584229</ele>
        <time>2010-09-21T16:15:59Z</time>
      </trkpt>
      <trkpt lat="48.75767" lon="7.32635">
        <ele>417.474854</ele>
        <time>2010-09-21T16:16:00Z</time>
      </trkpt>
      <trkpt lat="48.75761" lon="7.32638">
        <ele>415.490479</ele>
        <time>2010-09-21T16:16:01Z</time>
      </trkpt>
      <trkpt lat="48.75755" lon="7.32641">
        <ele>413.959229</ele>
        <time>2010-09-21T16:16:02Z</time>
      </trkpt>
      <trkpt lat="48.75748" lon="7.32645">
        <ele>413.646729</ele>
        <time>2010-09-21T16:16:04Z</time>
      </trkpt>
      <trkpt lat="48.75744" lon="7.32647">
        <ele>413.896729</ele>
        <time>2010-09-21T16:16:05Z</time>
      </trkpt>
      <trkpt lat="48.75739" lon="7.32653">
        <ele>412.982666</ele>
        <time>2010-09-21T16:16:06Z</time>
      </trkpt>
      <trkpt lat="48.75734" lon="7.32654">
        <ele>412.904541</ele>
        <time>2010-09-21T16:16:07Z</time>
      </trkpt>
      <trkpt lat="48.75726" lon="7.32656">
        <ele>414.607666</ele>
        <time>2010-09-21T16:16:09Z</time>
      </trkpt>
      <trkpt lat="48.75718" lon="7.32658">
        <ele>413.740479</ele>
        <time>2010-09-21T16:16:11Z</time>
      </trkpt>
      <trkpt lat="48.7571" lon="7.32662">
        <ele>414.623291</ele>
        <time>2010-09-21T16:16:13Z</time>
      </trkpt>
      <trkpt lat="48.75703" lon="7.32666">
        <ele>416.240479</ele>
        <time>2010-09-21T16:16:15Z</time>
      </trkpt>
      <trkpt lat="48.75696" lon="7.32664">
        <ele>417.576416</ele>
        <time>2010-09-21T16:16:17Z</time>
      </trkpt>
      <trkpt lat="48.75689" lon="7.32665">
        <ele>417.443604</ele>
        <time>2010-09-21T16:16:19Z</time>
      </trkpt>
      <trkpt lat="48.75683" lon="7.32666">
        <ele>420.006104</ele>
        <time>2010-09-21T16:16:21Z</time>
      </trkpt>
      <trkpt lat="48.75679" lon="7.32668">
        <ele>422.349854</ele>
        <time>2010-09-21T16:16:23Z</time>
      </trkpt>
      <trkpt lat="48.75674" lon="7.3267">
        <ele>420.990479</ele>
        <time>2010-09-21T16:16:25Z</time>
      </trkpt>
      <trkpt lat="48.75667" lon="7.32672">
        <ele>420.232666</ele>
        <time>2010-09-21T16:16:27Z</time>
      </trkpt>
      <trkpt lat="48.75665" lon="7.32677">
        <ele>422.521729</ele>
        <time>2010-09-21T16:16:37Z</time>
      </trkpt>
      <trkpt lat="48.75661" lon="7.32683">
        <ele>423.717041</ele>
        <time>2010-09-21T16:16:51Z</time>
      </trkpt>
      <trkpt lat="48.75658" lon="7.32688">
        <ele>422.709229</ele>
        <time>2010-09-21T16:16:55Z</time>
      </trkpt>
      <trkpt lat="48.75655" lon="7.32697">
        <ele>421.896729</ele>
        <time>2010-09-21T16:16:58Z</time>
      </trkpt>
      <trkpt lat="48.75652" lon="7.32703">
        <ele>420.115479</ele>
        <time>2010-09-21T16:17:03Z</time>
      </trkpt>
      <trkpt lat="48.75649" lon="7.3271">
        <ele>419.537354</ele>
        <time>2010-09-21T16:17:06Z</time>
      </trkpt>
      <trkpt lat="48.75645" lon="7.32717">
        <ele>419.154541</ele>
        <time>2010-09-21T16:17:09Z</time>
      </trkpt>
      <trkpt lat="48.75641" lon="7.32726">
        <ele>418.701416</ele>
        <time>2010-09-21T16:17:12Z</time>
      </trkpt>
      <trkpt lat="48.75637" lon="7.32731">
        <ele>417.365479</ele>
        <time>2010-09-21T16:17:15Z</time>
      </trkpt>
      <trkpt lat="48.75634" lon="7.32737">
        <ele>416.943604</ele>
        <time>2010-09-21T16:17:17Z</time>
      </trkpt>
      <trkpt lat="48.75631" lon="7.32743">
        <ele>416.787354</ele>
        <time>2010-09-21T16:17:19Z</time>
      </trkpt>
      <trkpt lat="48.75629" lon="7.32748">
        <ele>417.248291</ele>
        <time>2010-09-21T16:17:21Z</time>
      </trkpt>
      <trkpt lat="48.75625" lon="7.32756">
        <ele>416.537354</ele>
        <time>2010-09-21T16:17:24Z</time>
      </trkpt>
      <trkpt lat="48.75622" lon="7.32761">
        <ele>416.443604</ele>
        <time>2010-09-21T16:17:26Z</time>
      </trkpt>
      <trkpt lat="48.75618" lon="7.32767">
        <ele>417.295166</ele>
        <time>2010-09-21T16:17:29Z</time>
      </trkpt>
      <trkpt lat="48.75614" lon="7.32775">
        <ele>417.623291</ele>
        <time>2010-09-21T16:17:32Z</time>
      </trkpt>
      <trkpt lat="48.75609" lon="7.32781">
        <ele>417.881104</ele>
        <time>2010-09-21T16:17:35Z</time>
      </trkpt>
      <trkpt lat="48.75605" lon="7.32785">
        <ele>418.701416</ele>
        <time>2010-09-21T16:17:38Z</time>
      </trkpt>
      <trkpt lat="48.756" lon="7.3279">
        <ele>419.349854</ele>
        <time>2010-09-21T16:17:41Z</time>
      </trkpt>
      <trkpt lat="48.75596" lon="7.32797">
        <ele>419.795166</ele>
        <time>2010-09-21T16:17:44Z</time>
      </trkpt>
      <trkpt lat="48.75592" lon="7.32803">
        <ele>420.834229</ele>
        <time>2010-09-21T16:17:47Z</time>
      </trkpt>
      <trkpt lat="48.75588" lon="7.32808">
        <ele>421.873291</ele>
        <time>2010-09-21T16:17:50Z</time>
      </trkpt>
      <trkpt lat="48.75586" lon="7.32816">
        <ele>421.740479</ele>
        <time>2010-09-21T16:17:52Z</time>
      </trkpt>
      <trkpt lat="48.75583" lon="7.3282">
        <ele>421.662354</ele>
        <time>2010-09-21T16:17:54Z</time>
      </trkpt>
      <trkpt lat="48.75578" lon="7.32828">
        <ele>422.365479</ele>
        <time>2010-09-21T16:17:57Z</time>
      </trkpt>
      <trkpt lat="48.75574" lon="7.32834">
        <ele>422.490479</ele>
        <time>2010-09-21T16:18:00Z</time>
      </trkpt>
      <trkpt lat="48.75571" lon="7.3284">
        <ele>421.998291</ele>
        <time>2010-09-21T16:18:02Z</time>
      </trkpt>
      <trkpt lat="48.75568" lon="7.32845">
        <ele>423.232666</ele>
        <time>2010-09-21T16:18:05Z</time>
      </trkpt>
      <trkpt lat="48.75565" lon="7.32851">
        <ele>424.357666</ele>
        <time>2010-09-21T16:18:08Z</time>
      </trkpt>
      <trkpt lat="48.75563" lon="7.32857">
        <ele>425.662354</ele>
        <time>2010-09-21T16:18:11Z</time>
      </trkpt>
      <trkpt lat="48.75559" lon="7.32863">
        <ele>426.654541</ele>
        <time>2010-09-21T16:18:15Z</time>
      </trkpt>
      <trkpt lat="48.75554" lon="7.32869">
        <ele>427.849854</ele>
        <time>2010-09-21T16:18:19Z</time>
      </trkpt>
      <trkpt lat="48.7555" lon="7.32876">
        <ele>427.506104</ele>
        <time>2010-09-21T16:18:22Z</time>
      </trkpt>
      <trkpt lat="48.75547" lon="7.32883">
        <ele>427.763916</ele>
        <time>2010-09-21T16:18:24Z</time>
      </trkpt>
      <trkpt lat="48.75542" lon="7.32889">
        <ele>428.842041</ele>
        <time>2010-09-21T16:18:27Z</time>
      </trkpt>
      <trkpt lat="48.75537" lon="7.32895">
        <ele>428.709229</ele>
        <time>2010-09-21T16:18:30Z</time>
      </trkpt>
      <trkpt lat="48.75531" lon="7.32898">
        <ele>429.154541</ele>
        <time>2010-09-21T16:18:33Z</time>
      </trkpt>
      <trkpt lat="48.75526" lon="7.32903">
        <ele>429.154541</ele>
        <time>2010-09-21T16:18:35Z</time>
      </trkpt>
      <trkpt lat="48.75523" lon="7.32911">
        <ele>429.224854</ele>
        <time>2010-09-21T16:18:37Z</time>
      </trkpt>
      <trkpt lat="48.75519" lon="7.32917">
        <ele>428.584229</ele>
        <time>2010-09-21T16:18:39Z</time>
      </trkpt>
      <trkpt lat="48.75516" lon="7.32925">
        <ele>428.279541</ele>
        <time>2010-09-21T16:18:41Z</time>
      </trkpt>
      <trkpt lat="48.75512" lon="7.32933">
        <ele>426.740479</ele>
        <time>2010-09-21T16:18:43Z</time>
      </trkpt>
      <trkpt lat="48.7551" lon="7.32939">
        <ele>425.529541</ele>
        <time>2010-09-21T16:18:45Z</time>
      </trkpt>
      <trkpt lat="48.75506" lon="7.32947">
        <ele>425.584229</ele>
        <time>2010-09-21T16:18:48Z</time>
      </trkpt>
      <trkpt lat="48.75501" lon="7.32954">
        <ele>425.787354</ele>
        <time>2010-09-21T16:18:51Z</time>
      </trkpt>
      <trkpt lat="48.75497" lon="7.3296">
        <ele>425.701416</ele>
        <time>2010-09-21T16:18:53Z</time>
      </trkpt>
      <trkpt lat="48.75494" lon="7.32967">
        <ele>425.974854</ele>
        <time>2010-09-21T16:18:55Z</time>
      </trkpt>
      <trkpt lat="48.75489" lon="7.32969">
        <ele>426.240479</ele>
        <time>2010-09-21T16:18:57Z</time>
      </trkpt>
      <trkpt lat="48.75484" lon="7.32972">
        <ele>425.818604</ele>
        <time>2010-09-21T16:19:00Z</time>
      </trkpt>
      <trkpt lat="48.75478" lon="7.32974">
        <ele>426.068604</ele>
        <time>2010-09-21T16:19:03Z</time>
      </trkpt>
      <trkpt lat="48.7547" lon="7.32977">
        <ele>425.927979</ele>
        <time>2010-09-21T16:19:05Z</time>
      </trkpt>
      <trkpt lat="48.75463" lon="7.32977">
        <ele>425.787354</ele>
        <time>2010-09-21T16:19:07Z</time>
      </trkpt>
      <trkpt lat="48.75456" lon="7.32981">
        <ele>424.662354</ele>
        <time>2010-09-21T16:19:09Z</time>
      </trkpt>
      <trkpt lat="48.75448" lon="7.32982">
        <ele>424.396729</ele>
        <time>2010-09-21T16:19:11Z</time>
      </trkpt>
      <trkpt lat="48.75441" lon="7.32985">
        <ele>424.420166</ele>
        <time>2010-09-21T16:19:13Z</time>
      </trkpt>
      <trkpt lat="48.75434" lon="7.32988">
        <ele>424.131104</ele>
        <time>2010-09-21T16:19:15Z</time>
      </trkpt>
      <trkpt lat="48.75427" lon="7.32992">
        <ele>423.802979</ele>
        <time>2010-09-21T16:19:17Z</time>
      </trkpt>
      <trkpt lat="48.7542" lon="7.32997">
        <ele>422.834229</ele>
        <time>2010-09-21T16:19:19Z</time>
      </trkpt>
      <trkpt lat="48.75415" lon="7.33004">
        <ele>421.318604</ele>
        <time>2010-09-21T16:19:21Z</time>
      </trkpt>
      <trkpt lat="48.75412" lon="7.33008">
        <ele>421.060791</ele>
        <time>2010-09-21T16:19:23Z</time>
      </trkpt>
      <trkpt lat="48.75407" lon="7.33014">
        <ele>420.646729</ele>
        <time>2010-09-21T16:19:26Z</time>
      </trkpt>
      <trkpt lat="48.75403" lon="7.33016">
        <ele>419.990479</ele>
        <time>2010-09-21T16:19:30Z</time>
      </trkpt>
      <trkpt lat="48.754" lon="7.33023">
        <ele>417.732666</ele>
        <time>2010-09-21T16:19:45Z</time>
      </trkpt>
      <trkpt lat="48.75396" lon="7.33031">
        <ele>417.670166</ele>
        <time>2010-09-21T16:19:48Z</time>
      </trkpt>
      <trkpt lat="48.7539" lon="7.3304">
        <ele>417.521729</ele>
        <time>2010-09-21T16:19:50Z</time>
      </trkpt>
      <trkpt lat="48.75386" lon="7.33047">
        <ele>417.365479</ele>
        <time>2010-09-21T16:19:52Z</time>
      </trkpt>
      <trkpt lat="48.7538" lon="7.33052">
        <ele>417.201416</ele>
        <time>2010-09-21T16:19:54Z</time>
      </trkpt>
      <trkpt lat="48.75374" lon="7.33058">
        <ele>417.224854</ele>
        <time>2010-09-21T16:19:56Z</time>
      </trkpt>
      <trkpt lat="48.75369" lon="7.33064">
        <ele>417.732666</ele>
        <time>2010-09-21T16:19:57Z</time>
      </trkpt>
      <trkpt lat="48.75364" lon="7.3307">
        <ele>417.435791</ele>
        <time>2010-09-21T16:19:59Z</time>
      </trkpt>
      <trkpt lat="48.75358" lon="7.33078">
        <ele>417.162354</ele>
        <time>2010-09-21T16:20:01Z</time>
      </trkpt>
      <trkpt lat="48.75352" lon="7.33084">
        <ele>417.592041</ele>
        <time>2010-09-21T16:20:03Z</time>
      </trkpt>
      <trkpt lat="48.75346" lon="7.33088">
        <ele>417.443604</ele>
        <time>2010-09-21T16:20:05Z</time>
      </trkpt>
      <trkpt lat="48.75341" lon="7.33092">
        <ele>417.396729</ele>
        <time>2010-09-21T16:20:07Z</time>
      </trkpt>
      <trkpt lat="48.75336" lon="7.33097">
        <ele>418.818604</ele>
        <time>2010-09-21T16:20:09Z</time>
      </trkpt>
      <trkpt lat="48.75332" lon="7.33103">
        <ele>419.740479</ele>
        <time>2010-09-21T16:20:11Z</time>
      </trkpt>
      <trkpt lat="48.75328" lon="7.33109">
        <ele>420.412354</ele>
        <time>2010-09-21T16:20:13Z</time>
      </trkpt>
      <trkpt lat="48.75323" lon="7.33116">
        <ele>421.006104</ele>
        <time>2010-09-21T16:20:15Z</time>
      </trkpt>
      <trkpt lat="48.75317" lon="7.33123">
        <ele>421.623291</ele>
        <time>2010-09-21T16:20:17Z</time>
      </trkpt>
      <trkpt lat="48.75312" lon="7.3313">
        <ele>422.334229</ele>
        <time>2010-09-21T16:20:19Z</time>
      </trkpt>
      <trkpt lat="48.75307" lon="7.33137">
        <ele>422.802979</ele>
        <time>2010-09-21T16:20:21Z</time>
      </trkpt>
      <trkpt lat="48.75301" lon="7.33144">
        <ele>423.412354</ele>
        <time>2010-09-21T16:20:23Z</time>
      </trkpt>
      <trkpt lat="48.75298" lon="7.33151">
        <ele>423.654541</ele>
        <time>2010-09-21T16:20:24Z</time>
      </trkpt>
      <trkpt lat="48.75295" lon="7.33156">
        <ele>423.959229</ele>
        <time>2010-09-21T16:20:25Z</time>
      </trkpt>
      <trkpt lat="48.75291" lon="7.33162">
        <ele>424.326416</ele>
        <time>2010-09-21T16:20:26Z</time>
      </trkpt>
      <trkpt lat="48.75285" lon="7.33168">
        <ele>424.935791</ele>
        <time>2010-09-21T16:20:27Z</time>
      </trkpt>
      <trkpt lat="48.75281" lon="7.33173">
        <ele>425.248291</ele>
        <time>2010-09-21T16:20:28Z</time>
      </trkpt>
      <trkpt lat="48.75279" lon="7.33186">
        <ele>425.810791</ele>
        <time>2010-09-21T16:20:29Z</time>
      </trkpt>
      <trkpt lat="48.75276" lon="7.33195">
        <ele>426.318604</ele>
        <time>2010-09-21T16:20:30Z</time>
      </trkpt>
      <trkpt lat="48.75273" lon="7.33204">
        <ele>426.748291</ele>
        <time>2010-09-21T16:20:31Z</time>
      </trkpt>
      <trkpt lat="48.7527" lon="7.33212">
        <ele>427.201416</ele>
        <time>2010-09-21T16:20:32Z</time>
      </trkpt>
      <trkpt lat="48.75267" lon="7.3322">
        <ele>427.771729</ele>
        <time>2010-09-21T16:20:33Z</time>
      </trkpt>
      <trkpt lat="48.75265" lon="7.33228">
        <ele>428.381104</ele>
        <time>2010-09-21T16:20:34Z</time>
      </trkpt>
      <trkpt lat="48.75262" lon="7.3324">
        <ele>429.537354</ele>
        <time>2010-09-21T16:20:36Z</time>
      </trkpt>
      <trkpt lat="48.75259" lon="7.33246">
        <ele>430.052979</ele>
        <time>2010-09-21T16:20:37Z</time>
      </trkpt>
      <trkpt lat="48.75256" lon="7.33251">
        <ele>430.693604</ele>
        <time>2010-09-21T16:20:38Z</time>
      </trkpt>
      <trkpt lat="48.75253" lon="7.33257">
        <ele>430.943604</ele>
        <time>2010-09-21T16:20:39Z</time>
      </trkpt>
      <trkpt lat="48.7525" lon="7.33262">
        <ele>431.404541</ele>
        <time>2010-09-21T16:20:40Z</time>
      </trkpt>
      <trkpt lat="48.75247" lon="7.33275">
        <ele>432.967041</ele>
        <time>2010-09-21T16:20:42Z</time>
      </trkpt>
      <trkpt lat="48.75245" lon="7.33283">
        <ele>433.349854</ele>
        <time>2010-09-21T16:20:43Z</time>
      </trkpt>
      <trkpt lat="48.7524" lon="7.33288">
        <ele>434.443604</ele>
        <time>2010-09-21T16:20:45Z</time>
      </trkpt>
      <trkpt lat="48.75236" lon="7.33296">
        <ele>435.052979</ele>
        <time>2010-09-21T16:20:47Z</time>
      </trkpt>
      <trkpt lat="48.75232" lon="7.33303">
        <ele>435.740479</ele>
        <time>2010-09-21T16:20:49Z</time>
      </trkpt>
      <trkpt lat="48.75227" lon="7.33307">
        <ele>436.443604</ele>
        <time>2010-09-21T16:20:51Z</time>
      </trkpt>
      <trkpt lat="48.75221" lon="7.33307">
        <ele>436.427979</ele>
        <time>2010-09-21T16:20:53Z</time>
      </trkpt>
      <trkpt lat="48.75216" lon="7.33312">
        <ele>436.060791</ele>
        <time>2010-09-21T16:20:54Z</time>
      </trkpt>
      <trkpt lat="48.75208" lon="7.33314">
        <ele>435.318604</ele>
        <time>2010-09-21T16:20:56Z</time>
      </trkpt>
      <trkpt lat="48.75205" lon="7.33318">
        <ele>435.693604</ele>
        <time>2010-09-21T16:20:58Z</time>
      </trkpt>
      <trkpt lat="48.75199" lon="7.33326">
        <ele>436.060791</ele>
        <time>2010-09-21T16:20:59Z</time>
      </trkpt>
      <trkpt lat="48.75195" lon="7.33327">
        <ele>435.545166</ele>
        <time>2010-09-21T16:21:01Z</time>
      </trkpt>
      <trkpt lat="48.7519" lon="7.33334">
        <ele>435.052979</ele>
        <time>2010-09-21T16:21:02Z</time>
      </trkpt>
      <trkpt lat="48.75185" lon="7.33339">
        <ele>435.467041</ele>
        <time>2010-09-21T16:21:04Z</time>
      </trkpt>
      <trkpt lat="48.75184" lon="7.33329">
        <ele>436.537354</ele>
        <time>2010-09-21T16:21:14Z</time>
      </trkpt>
      <trkpt lat="48.7518" lon="7.3332">
        <ele>437.365479</ele>
        <time>2010-09-21T16:21:16Z</time>
      </trkpt>
      <trkpt lat="48.75174" lon="7.33312">
        <ele>438.701416</ele>
        <time>2010-09-21T16:21:18Z</time>
      </trkpt>
      <trkpt lat="48.7517" lon="7.33303">
        <ele>439.967041</ele>
        <time>2010-09-21T16:21:20Z</time>
      </trkpt>
      <trkpt lat="48.75167" lon="7.33295">
        <ele>441.584229</ele>
        <time>2010-09-21T16:21:22Z</time>
      </trkpt>
      <trkpt lat="48.75162" lon="7.33288">
        <ele>443.092041</ele>
        <time>2010-09-21T16:21:24Z</time>
      </trkpt>
      <trkpt lat="48.75157" lon="7.33283">
        <ele>444.506104</ele>
        <time>2010-09-21T16:21:26Z</time>
      </trkpt>
      <trkpt lat="48.75152" lon="7.33276">
        <ele>445.677979</ele>
        <time>2010-09-21T16:21:28Z</time>
      </trkpt>
      <trkpt lat="48.75148" lon="7.33269">
        <ele>447.092041</ele>
        <time>2010-09-21T16:21:30Z</time>
      </trkpt>
      <trkpt lat="48.75142" lon="7.33261">
        <ele>447.552979</ele>
        <time>2010-09-21T16:21:32Z</time>
      </trkpt>
      <trkpt lat="48.75138" lon="7.33258">
        <ele>447.662354</ele>
        <time>2010-09-21T16:21:33Z</time>
      </trkpt>
      <trkpt lat="48.75133" lon="7.33257">
        <ele>448.302979</ele>
        <time>2010-09-21T16:21:34Z</time>
      </trkpt>
      <trkpt lat="48.75125" lon="7.33253">
        <ele>449.623291</ele>
        <time>2010-09-21T16:21:36Z</time>
      </trkpt>
      <trkpt lat="48.75117" lon="7.33243">
        <ele>450.029541</ele>
        <time>2010-09-21T16:21:38Z</time>
      </trkpt>
      <trkpt lat="48.75113" lon="7.33239">
        <ele>448.881104</ele>
        <time>2010-09-21T16:21:39Z</time>
      </trkpt>
      <trkpt lat="48.75109" lon="7.33235">
        <ele>449.404541</ele>
        <time>2010-09-21T16:21:41Z</time>
      </trkpt>
      <trkpt lat="48.75104" lon="7.33234">
        <ele>448.670166</ele>
        <time>2010-09-21T16:21:49Z</time>
      </trkpt>
      <trkpt lat="48.75101" lon="7.33227">
        <ele>450.779541</ele>
        <time>2010-09-21T16:22:01Z</time>
      </trkpt>
      <trkpt lat="48.75098" lon="7.3322">
        <ele>450.787354</ele>
        <time>2010-09-21T16:22:04Z</time>
      </trkpt>
      <trkpt lat="48.75094" lon="7.33215">
        <ele>451.013916</ele>
        <time>2010-09-21T16:22:06Z</time>
      </trkpt>
      <trkpt lat="48.7509" lon="7.3321">
        <ele>450.951416</ele>
        <time>2010-09-21T16:22:08Z</time>
      </trkpt>
      <trkpt lat="48.75087" lon="7.33205">
        <ele>451.279541</ele>
        <time>2010-09-21T16:22:10Z</time>
      </trkpt>
      <trkpt lat="48.75081" lon="7.33198">
        <ele>451.006104</ele>
        <time>2010-09-21T16:22:12Z</time>
      </trkpt>
      <trkpt lat="48.75077" lon="7.33193">
        <ele>450.162354</ele>
        <time>2010-09-21T16:22:13Z</time>
      </trkpt>
      <trkpt lat="48.75072" lon="7.33189">
        <ele>450.474854</ele>
        <time>2010-09-21T16:22:14Z</time>
      </trkpt>
      <trkpt lat="48.75069" lon="7.33182">
        <ele>449.802979</ele>
        <time>2010-09-21T16:22:16Z</time>
      </trkpt>
      <trkpt lat="48.75068" lon="7.33171">
        <ele>449.060791</ele>
        <time>2010-09-21T16:22:19Z</time>
      </trkpt>
      <trkpt lat="48.75063" lon="7.33171">
        <ele>448.131104</ele>
        <time>2010-09-21T16:22:21Z</time>
      </trkpt>
      <trkpt lat="48.75058" lon="7.33167">
        <ele>447.482666</ele>
        <time>2010-09-21T16:22:24Z</time>
      </trkpt>
      <trkpt lat="48.75055" lon="7.3316">
        <ele>447.607666</ele>
        <time>2010-09-21T16:22:28Z</time>
      </trkpt>
      <trkpt lat="48.75051" lon="7.33154">
        <ele>447.607666</ele>
        <time>2010-09-21T16:22:30Z</time>
      </trkpt>
      <trkpt lat="48.75045" lon="7.33149">
        <ele>447.459229</ele>
        <time>2010-09-21T16:22:33Z</time>
      </trkpt>
      <trkpt lat="48.7504" lon="7.33143">
        <ele>446.412354</ele>
        <time>2010-09-21T16:22:36Z</time>
      </trkpt>
      <trkpt lat="48.75035" lon="7.3314">
        <ele>446.467041</ele>
        <time>2010-09-21T16:22:39Z</time>
      </trkpt>
      <trkpt lat="48.75028" lon="7.33136">
        <ele>446.037354</ele>
        <time>2010-09-21T16:22:42Z</time>
      </trkpt>
      <trkpt lat="48.75017" lon="7.33134">
        <ele>445.342041</ele>
        <time>2010-09-21T16:22:44Z</time>
      </trkpt>
      <trkpt lat="48.7501" lon="7.33134">
        <ele>443.693604</ele>
        <time>2010-09-21T16:22:46Z</time>
      </trkpt>
      <trkpt lat="48.75" lon="7.33139">
        <ele>441.904541</ele>
        <time>2010-09-21T16:22:48Z</time>
      </trkpt>
      <trkpt lat="48.74995" lon="7.3314">
        <ele>440.709229</ele>
        <time>2010-09-21T16:22:49Z</time>
      </trkpt>
      <trkpt lat="48.74991" lon="7.33143">
        <ele>438.576416</ele>
        <time>2010-09-21T16:22:52Z</time>
      </trkpt>
      <trkpt lat="48.74985" lon="7.33149">
        <ele>437.248291</ele>
        <time>2010-09-21T16:22:55Z</time>
      </trkpt>
      <trkpt lat="48.74982" lon="7.33156">
        <ele>436.467041</ele>
        <time>2010-09-21T16:22:57Z</time>
      </trkpt>
      <trkpt lat="48.74979" lon="7.33162">
        <ele>435.826416</ele>
        <time>2010-09-21T16:22:59Z</time>
      </trkpt>
      <trkpt lat="48.74976" lon="7.3317">
        <ele>434.631104</ele>
        <time>2010-09-21T16:23:01Z</time>
      </trkpt>
      <trkpt lat="48.74971" lon="7.33171">
        <ele>433.084229</ele>
        <time>2010-09-21T16:23:03Z</time>
      </trkpt>
      <trkpt lat="48.74968" lon="7.33177">
        <ele>431.263916</ele>
        <time>2010-09-21T16:23:05Z</time>
      </trkpt>
      <trkpt lat="48.74968" lon="7.33184">
        <ele>429.951416</ele>
        <time>2010-09-21T16:23:06Z</time>
      </trkpt>
      <trkpt lat="48.74965" lon="7.33192">
        <ele>427.521729</ele>
        <time>2010-09-21T16:23:09Z</time>
      </trkpt>
      <trkpt lat="48.74962" lon="7.33196">
        <ele>426.506104</ele>
        <time>2010-09-21T16:23:11Z</time>
      </trkpt>
      <trkpt lat="48.74957" lon="7.33201">
        <ele>425.537354</ele>
        <time>2010-09-21T16:23:13Z</time>
      </trkpt>
      <trkpt lat="48.74953" lon="7.33203">
        <ele>424.615479</ele>
        <time>2010-09-21T16:23:15Z</time>
      </trkpt>
      <trkpt lat="48.7495" lon="7.33207">
        <ele>423.810791</ele>
        <time>2010-09-21T16:23:17Z</time>
      </trkpt>
      <trkpt lat="48.74945" lon="7.33216">
        <ele>422.506104</ele>
        <time>2010-09-21T16:23:20Z</time>
      </trkpt>
      <trkpt lat="48.74941" lon="7.33219">
        <ele>421.631104</ele>
        <time>2010-09-21T16:23:22Z</time>
      </trkpt>
      <trkpt lat="48.74939" lon="7.33226">
        <ele>419.545166</ele>
        <time>2010-09-21T16:23:24Z</time>
      </trkpt>
      <trkpt lat="48.74936" lon="7.33231">
        <ele>418.185791</ele>
        <time>2010-09-21T16:23:28Z</time>
      </trkpt>
      <trkpt lat="48.74932" lon="7.33234">
        <ele>417.443604</ele>
        <time>2010-09-21T16:23:33Z</time>
      </trkpt>
      <trkpt lat="48.74928" lon="7.33236">
        <ele>416.615479</ele>
        <time>2010-09-21T16:23:37Z</time>
      </trkpt>
      <trkpt lat="48.74921" lon="7.33238">
        <ele>415.982666</ele>
        <time>2010-09-21T16:23:41Z</time>
      </trkpt>
      <trkpt lat="48.74917" lon="7.33241">
        <ele>415.357666</ele>
        <time>2010-09-21T16:23:47Z</time>
      </trkpt>
      <trkpt lat="48.74913" lon="7.33243">
        <ele>414.443604</ele>
        <time>2010-09-21T16:23:52Z</time>
      </trkpt>
      <trkpt lat="48.74911" lon="7.33249">
        <ele>413.217041</ele>
        <time>2010-09-21T16:24:07Z</time>
      </trkpt>
      <trkpt lat="48.74907" lon="7.33255">
        <ele>413.092041</ele>
        <time>2010-09-21T16:24:11Z</time>
      </trkpt>
      <trkpt lat="48.74904" lon="7.3326">
        <ele>413.013916</ele>
        <time>2010-09-21T16:24:14Z</time>
      </trkpt>
      <trkpt lat="48.749" lon="7.33265">
        <ele>412.849854</ele>
        <time>2010-09-21T16:24:16Z</time>
      </trkpt>
      <trkpt lat="48.74899" lon="7.33272">
        <ele>412.654541</ele>
        <time>2010-09-21T16:24:19Z</time>
      </trkpt>
      <trkpt lat="48.74894" lon="7.33275">
        <ele>412.513916</ele>
        <time>2010-09-21T16:24:26Z</time>
      </trkpt>
      <trkpt lat="48.74891" lon="7.33281">
        <ele>412.521729</ele>
        <time>2010-09-21T16:24:28Z</time>
      </trkpt>
      <trkpt lat="48.74888" lon="7.33286">
        <ele>412.201416</ele>
        <time>2010-09-21T16:24:32Z</time>
      </trkpt>
      <trkpt lat="48.74884" lon="7.33291">
        <ele>412.092041</ele>
        <time>2010-09-21T16:24:36Z</time>
      </trkpt>
      <trkpt lat="48.74879" lon="7.33291">
        <ele>411.865479</ele>
        <time>2010-09-21T16:24:46Z</time>
      </trkpt>
      <trkpt lat="48.74875" lon="7.33295">
        <ele>411.802979</ele>
        <time>2010-09-21T16:24:52Z</time>
      </trkpt>
      <trkpt lat="48.74869" lon="7.33295">
        <ele>411.818604</ele>
        <time>2010-09-21T16:24:58Z</time>
      </trkpt>
      <trkpt lat="48.74863" lon="7.33297">
        <ele>411.959229</ele>
        <time>2010-09-21T16:25:05Z</time>
      </trkpt>
      <trkpt lat="48.74858" lon="7.33299">
        <ele>412.068604</ele>
        <time>2010-09-21T16:25:08Z</time>
      </trkpt>
      <trkpt lat="48.74853" lon="7.33302">
        <ele>412.177979</ele>
        <time>2010-09-21T16:25:11Z</time>
      </trkpt>
      <trkpt lat="48.74848" lon="7.33304">
        <ele>412.177979</ele>
        <time>2010-09-21T16:25:13Z</time>
      </trkpt>
      <trkpt lat="48.74843" lon="7.33309">
        <ele>412.146729</ele>
        <time>2010-09-21T16:25:16Z</time>
      </trkpt>
      <trkpt lat="48.74839" lon="7.33311">
        <ele>412.287354</ele>
        <time>2010-09-21T16:25:18Z</time>
      </trkpt>
      <trkpt lat="48.74834" lon="7.33314">
        <ele>412.326416</ele>
        <time>2010-09-21T16:25:21Z</time>
      </trkpt>
      <trkpt lat="48.7483" lon="7.33322">
        <ele>412.482666</ele>
        <time>2010-09-21T16:25:25Z</time>
      </trkpt>
      <trkpt lat="48.74826" lon="7.33329">
        <ele>412.537354</ele>
        <time>2010-09-21T16:25:28Z</time>
      </trkpt>
      <trkpt lat="48.74822" lon="7.33331">
        <ele>412.552979</ele>
        <time>2010-09-21T16:25:30Z</time>
      </trkpt>
      <trkpt lat="48.74816" lon="7.33333">
        <ele>412.388916</ele>
        <time>2010-09-21T16:25:47Z</time>
      </trkpt>
      <trkpt lat="48.74806" lon="7.33341">
        <ele>412.427979</ele>
        <time>2010-09-21T16:25:53Z</time>
      </trkpt>
      <trkpt lat="48.748" lon="7.33348">
        <ele>412.443604</ele>
        <time>2010-09-21T16:25:55Z</time>
      </trkpt>
      <trkpt lat="48.74796" lon="7.33351">
        <ele>412.459229</ele>
        <time>2010-09-21T16:25:57Z</time>
      </trkpt>
      <trkpt lat="48.74791" lon="7.3335">
        <ele>412.427979</ele>
        <time>2010-09-21T16:25:58Z</time>
      </trkpt>
      <trkpt lat="48.74786" lon="7.33351">
        <ele>412.365479</ele>
        <time>2010-09-21T16:26:03Z</time>
      </trkpt>
      <trkpt lat="48.74788" lon="7.33357">
        <ele>412.521729</ele>
        <time>2010-09-21T16:26:17Z</time>
      </trkpt>
      <trkpt lat="48.74782" lon="7.33355">
        <ele>412.904541</ele>
        <time>2010-09-21T16:26:25Z</time>
      </trkpt>
      <trkpt lat="48.74777" lon="7.33359">
        <ele>412.959229</ele>
        <time>2010-09-21T16:26:28Z</time>
      </trkpt>
      <trkpt lat="48.7477" lon="7.33361">
        <ele>412.943604</ele>
        <time>2010-09-21T16:26:31Z</time>
      </trkpt>
      <trkpt lat="48.74765" lon="7.33362">
        <ele>412.927979</ele>
        <time>2010-09-21T16:26:36Z</time>
      </trkpt>
      <trkpt lat="48.74761" lon="7.33367">
        <ele>412.974854</ele>
        <time>2010-09-21T16:26:38Z</time>
      </trkpt>
      <trkpt lat="48.74758" lon="7.33372">
        <ele>413.052979</ele>
        <time>2010-09-21T16:26:40Z</time>
      </trkpt>
      <trkpt lat="48.74753" lon="7.33372">
        <ele>413.092041</ele>
        <time>2010-09-21T16:26:42Z</time>
      </trkpt>
      <trkpt lat="48.74754" lon="7.33364">
        <ele>413.256104</ele>
        <time>2010-09-21T16:26:43Z</time>
      </trkpt>
      <trkpt lat="48.74749" lon="7.33369">
        <ele>413.388916</ele>
        <time>2010-09-21T16:26:47Z</time>
      </trkpt>
      <trkpt lat="48.74744" lon="7.33374">
        <ele>413.529541</ele>
        <time>2010-09-21T16:26:50Z</time>
      </trkpt>
      <trkpt lat="48.74737" lon="7.33378">
        <ele>413.662354</ele>
        <time>2010-09-21T16:26:52Z</time>
      </trkpt>
      <trkpt lat="48.74729" lon="7.33379">
        <ele>413.896729</ele>
        <time>2010-09-21T16:26:55Z</time>
      </trkpt>
      <trkpt lat="48.74724" lon="7.33382">
        <ele>414.052979</ele>
        <time>2010-09-21T16:26:58Z</time>
      </trkpt>
      <trkpt lat="48.74719" lon="7.33383">
        <ele>414.107666</ele>
        <time>2010-09-21T16:27:00Z</time>
      </trkpt>
      <trkpt lat="48.74711" lon="7.33385">
        <ele>414.092041</ele>
        <time>2010-09-21T16:27:02Z</time>
      </trkpt>
      <trkpt lat="48.74706" lon="7.33388">
        <ele>414.146729</ele>
        <time>2010-09-21T16:27:05Z</time>
      </trkpt>
      <trkpt lat="48.74701" lon="7.33392">
        <ele>414.217041</ele>
        <time>2010-09-21T16:27:08Z</time>
      </trkpt>
      <trkpt lat="48.74696" lon="7.33393">
        <ele>414.412354</ele>
        <time>2010-09-21T16:27:10Z</time>
      </trkpt>
      <trkpt lat="48.74691" lon="7.33402">
        <ele>414.482666</ele>
        <time>2010-09-21T16:27:12Z</time>
      </trkpt>
      <trkpt lat="48.74686" lon="7.33408">
        <ele>414.467041</ele>
        <time>2010-09-21T16:27:15Z</time>
      </trkpt>
      <trkpt lat="48.74682" lon="7.33415">
        <ele>414.427979</ele>
        <time>2010-09-21T16:27:16Z</time>
      </trkpt>
      <trkpt lat="48.74677" lon="7.33418">
        <ele>414.560791</ele>
        <time>2010-09-21T16:27:19Z</time>
      </trkpt>
      <trkpt lat="48.74669" lon="7.33421">
        <ele>414.677979</ele>
        <time>2010-09-21T16:27:22Z</time>
      </trkpt>
      <trkpt lat="48.74665" lon="7.33423">
        <ele>414.732666</ele>
        <time>2010-09-21T16:27:24Z</time>
      </trkpt>
      <trkpt lat="48.74659" lon="7.33423">
        <ele>415.162354</ele>
        <time>2010-09-21T16:27:26Z</time>
      </trkpt>
      <trkpt lat="48.74653" lon="7.33425">
        <ele>415.084229</ele>
        <time>2010-09-21T16:27:28Z</time>
      </trkpt>
      <trkpt lat="48.74649" lon="7.33421">
        <ele>415.263916</ele>
        <time>2010-09-21T16:27:31Z</time>
      </trkpt>
      <trkpt lat="48.74646" lon="7.33429">
        <ele>414.084229</ele>
        <time>2010-09-21T16:27:40Z</time>
      </trkpt>
      <trkpt lat="48.74641" lon="7.33429">
        <ele>413.498291</ele>
        <time>2010-09-21T16:27:47Z</time>
      </trkpt>
      <trkpt lat="48.74635" lon="7.33433">
        <ele>413.154541</ele>
        <time>2010-09-21T16:27:50Z</time>
      </trkpt>
      <trkpt lat="48.74632" lon="7.33439">
        <ele>412.881104</ele>
        <time>2010-09-21T16:27:52Z</time>
      </trkpt>
      <trkpt lat="48.74628" lon="7.33444">
        <ele>412.693604</ele>
        <time>2010-09-21T16:27:53Z</time>
      </trkpt>
      <trkpt lat="48.74624" lon="7.33446">
        <ele>412.131104</ele>
        <time>2010-09-21T16:27:54Z</time>
      </trkpt>
      <trkpt lat="48.7462" lon="7.33452">
        <ele>411.592041</ele>
        <time>2010-09-21T16:27:56Z</time>
      </trkpt>
      <trkpt lat="48.74617" lon="7.33459">
        <ele>411.013916</ele>
        <time>2010-09-21T16:27:58Z</time>
      </trkpt>
      <trkpt lat="48.74615" lon="7.33465">
        <ele>411.060791</ele>
        <time>2010-09-21T16:28:00Z</time>
      </trkpt>
      <trkpt lat="48.74608" lon="7.33467">
        <ele>408.537354</ele>
        <time>2010-09-21T16:28:02Z</time>
      </trkpt>
      <trkpt lat="48.74598" lon="7.33475">
        <ele>408.959229</ele>
        <time>2010-09-21T16:28:04Z</time>
      </trkpt>
      <trkpt lat="48.74594" lon="7.33479">
        <ele>408.451416</ele>
        <time>2010-09-21T16:28:07Z</time>
      </trkpt>
      <trkpt lat="48.74588" lon="7.33485">
        <ele>407.849854</ele>
        <time>2010-09-21T16:28:09Z</time>
      </trkpt>
      <trkpt lat="48.74583" lon="7.33489">
        <ele>407.029541</ele>
        <time>2010-09-21T16:28:11Z</time>
      </trkpt>
      <trkpt lat="48.74579" lon="7.33492">
        <ele>406.779541</ele>
        <time>2010-09-21T16:28:13Z</time>
      </trkpt>
      <trkpt lat="48.74583" lon="7.33495">
        <ele>406.560791</ele>
        <time>2010-09-21T16:28:23Z</time>
      </trkpt>
      <trkpt lat="48.74585" lon="7.33501">
        <ele>406.107666</ele>
        <time>2010-09-21T16:28:34Z</time>
      </trkpt>
      <trkpt lat="48.74588" lon="7.33499">
        <ele>401.310791</ele>
        <time>2010-09-21T16:29:15Z</time>
      </trkpt>
      <trkpt lat="48.74592" lon="7.33493">
        <ele>397.873291</ele>
        <time>2010-09-21T16:29:49Z</time>
      </trkpt>
      <trkpt lat="48.74588" lon="7.33495">
        <ele>394.888916</ele>
        <time>2010-09-21T16:29:57Z</time>
      </trkpt>
      <trkpt lat="48.74586" lon="7.33502">
        <ele>393.927979</ele>
        <time>2010-09-21T16:30:00Z</time>
      </trkpt>
      <trkpt lat="48.74584" lon="7.33512">
        <ele>392.092041</ele>
        <time>2010-09-21T16:30:04Z</time>
      </trkpt>
      <trkpt lat="48.74583" lon="7.3352">
        <ele>390.029541</ele>
        <time>2010-09-21T16:30:06Z</time>
      </trkpt>
      <trkpt lat="48.74578" lon="7.33521">
        <ele>389.279541</ele>
        <time>2010-09-21T16:30:07Z</time>
      </trkpt>
      <trkpt lat="48.74576" lon="7.33528">
        <ele>385.896729</ele>
        <time>2010-09-21T16:30:09Z</time>
      </trkpt>
      <trkpt lat="48.74572" lon="7.33534">
        <ele>382.599854</ele>
        <time>2010-09-21T16:30:12Z</time>
      </trkpt>
      <trkpt lat="48.74571" lon="7.33543">
        <ele>379.826416</ele>
        <time>2010-09-21T16:30:14Z</time>
      </trkpt>
      <trkpt lat="48.74566" lon="7.33552">
        <ele>376.467041</ele>
        <time>2010-09-21T16:30:16Z</time>
      </trkpt>
      <trkpt lat="48.74564" lon="7.33559">
        <ele>374.592041</ele>
        <time>2010-09-21T16:30:18Z</time>
      </trkpt>
      <trkpt lat="48.74561" lon="7.33563">
        <ele>371.974854</ele>
        <time>2010-09-21T16:30:20Z</time>
      </trkpt>
      <trkpt lat="48.74558" lon="7.33569">
        <ele>370.115479</ele>
        <time>2010-09-21T16:30:21Z</time>
      </trkpt>
      <trkpt lat="48.74554" lon="7.33575">
        <ele>368.115479</ele>
        <time>2010-09-21T16:30:24Z</time>
      </trkpt>
      <trkpt lat="48.74552" lon="7.33582">
        <ele>366.435791</ele>
        <time>2010-09-21T16:30:26Z</time>
      </trkpt>
      <trkpt lat="48.74551" lon="7.3359">
        <ele>365.576416</ele>
        <time>2010-09-21T16:30:28Z</time>
      </trkpt>
      <trkpt lat="48.7455" lon="7.33598">
        <ele>363.810791</ele>
        <time>2010-09-21T16:30:31Z</time>
      </trkpt>
      <trkpt lat="48.74548" lon="7.33607">
        <ele>362.818604</ele>
        <time>2010-09-21T16:30:34Z</time>
      </trkpt>
      <trkpt lat="48.74545" lon="7.33617">
        <ele>364.982666</ele>
        <time>2010-09-21T16:30:35Z</time>
      </trkpt>
      <trkpt lat="48.74545" lon="7.33625">
        <ele>364.615479</ele>
        <time>2010-09-21T16:30:38Z</time>
      </trkpt>
      <trkpt lat="48.74547" lon="7.3363">
        <ele>363.092041</ele>
        <time>2010-09-21T16:30:54Z</time>
      </trkpt>
      <trkpt lat="48.74549" lon="7.33638">
        <ele>362.537354</ele>
        <time>2010-09-21T16:30:56Z</time>
      </trkpt>
      <trkpt lat="48.74549" lon="7.33644">
        <ele>361.052979</ele>
        <time>2010-09-21T16:31:26Z</time>
      </trkpt>
      <trkpt lat="48.74548" lon="7.33651">
        <ele>360.810791</ele>
        <time>2010-09-21T16:31:50Z</time>
      </trkpt>
      <trkpt lat="48.74538" lon="7.33657">
        <ele>360.138916</ele>
        <time>2010-09-21T16:31:52Z</time>
      </trkpt>
      <trkpt lat="48.74534" lon="7.3366">
        <ele>359.701416</ele>
        <time>2010-09-21T16:31:53Z</time>
      </trkpt>
      <trkpt lat="48.74529" lon="7.33668">
        <ele>357.709229</ele>
        <time>2010-09-21T16:31:56Z</time>
      </trkpt>
      <trkpt lat="48.74527" lon="7.33673">
        <ele>355.998291</ele>
        <time>2010-09-21T16:31:59Z</time>
      </trkpt>
      <trkpt lat="48.74525" lon="7.33681">
        <ele>354.849854</ele>
        <time>2010-09-21T16:32:03Z</time>
      </trkpt>
      <trkpt lat="48.74524" lon="7.33688">
        <ele>354.381104</ele>
        <time>2010-09-21T16:32:06Z</time>
      </trkpt>
      <trkpt lat="48.74521" lon="7.33695">
        <ele>352.084229</ele>
        <time>2010-09-21T16:32:11Z</time>
      </trkpt>
      <trkpt lat="48.7452" lon="7.33701">
        <ele>349.459229</ele>
        <time>2010-09-21T16:32:19Z</time>
      </trkpt>
      <trkpt lat="48.74517" lon="7.33708">
        <ele>349.795166</ele>
        <time>2010-09-21T16:32:22Z</time>
      </trkpt>
      <trkpt lat="48.74516" lon="7.33716">
        <ele>348.467041</ele>
        <time>2010-09-21T16:32:26Z</time>
      </trkpt>
      <trkpt lat="48.74511" lon="7.33725">
        <ele>346.802979</ele>
        <time>2010-09-21T16:32:29Z</time>
      </trkpt>
      <trkpt lat="48.74509" lon="7.33731">
        <ele>345.998291</ele>
        <time>2010-09-21T16:32:32Z</time>
      </trkpt>
      <trkpt lat="48.74507" lon="7.33738">
        <ele>345.607666</ele>
        <time>2010-09-21T16:32:37Z</time>
      </trkpt>
      <trkpt lat="48.74503" lon="7.33744">
        <ele>344.467041</ele>
        <time>2010-09-21T16:32:44Z</time>
      </trkpt>
      <trkpt lat="48.74499" lon="7.33747">
        <ele>342.802979</ele>
        <time>2010-09-21T16:32:45Z</time>
      </trkpt>
      <trkpt lat="48.745" lon="7.33754">
        <ele>342.146729</ele>
        <time>2010-09-21T16:32:50Z</time>
      </trkpt>
      <trkpt lat="48.74498" lon="7.3376">
        <ele>342.888916</ele>
        <time>2010-09-21T16:32:58Z</time>
      </trkpt>
      <trkpt lat="48.74496" lon="7.33767">
        <ele>342.584229</ele>
        <time>2010-09-21T16:33:01Z</time>
      </trkpt>
      <trkpt lat="48.74491" lon="7.3377">
        <ele>341.349854</ele>
        <time>2010-09-21T16:33:04Z</time>
      </trkpt>
      <trkpt lat="48.74489" lon="7.33777">
        <ele>341.131104</ele>
        <time>2010-09-21T16:33:08Z</time>
      </trkpt>
      <trkpt lat="48.74489" lon="7.33785">
        <ele>340.404541</ele>
        <time>2010-09-21T16:33:11Z</time>
      </trkpt>
      <trkpt lat="48.74487" lon="7.33792">
        <ele>340.318604</ele>
        <time>2010-09-21T16:33:18Z</time>
      </trkpt>
      <trkpt lat="48.74483" lon="7.33798">
        <ele>340.943604</ele>
        <time>2010-09-21T16:33:23Z</time>
      </trkpt>
      <trkpt lat="48.7448" lon="7.33804">
        <ele>340.732666</ele>
        <time>2010-09-21T16:33:27Z</time>
      </trkpt>
      <trkpt lat="48.74477" lon="7.33812">
        <ele>340.763916</ele>
        <time>2010-09-21T16:33:31Z</time>
      </trkpt>
      <trkpt lat="48.74476" lon="7.33822">
        <ele>341.342041</ele>
        <time>2010-09-21T16:33:33Z</time>
      </trkpt>
      <trkpt lat="48.74474" lon="7.33828">
        <ele>341.599854</ele>
        <time>2010-09-21T16:33:35Z</time>
      </trkpt>
      <trkpt lat="48.74472" lon="7.33838">
        <ele>341.662354</ele>
        <time>2010-09-21T16:33:37Z</time>
      </trkpt>
      <trkpt lat="48.7447" lon="7.33846">
        <ele>342.240479</ele>
        <time>2010-09-21T16:33:39Z</time>
      </trkpt>
      <trkpt lat="48.74468" lon="7.33855">
        <ele>342.506104</ele>
        <time>2010-09-21T16:33:42Z</time>
      </trkpt>
      <trkpt lat="48.74464" lon="7.33864">
        <ele>342.138916</ele>
        <time>2010-09-21T16:33:44Z</time>
      </trkpt>
      <trkpt lat="48.74461" lon="7.3387">
        <ele>342.287354</ele>
        <time>2010-09-21T16:33:45Z</time>
      </trkpt>
      <trkpt lat="48.74459" lon="7.33877">
        <ele>342.248291</ele>
        <time>2010-09-21T16:33:46Z</time>
      </trkpt>
      <trkpt lat="48.74456" lon="7.33884">
        <ele>342.967041</ele>
        <time>2010-09-21T16:33:47Z</time>
      </trkpt>
      <trkpt lat="48.74454" lon="7.3389">
        <ele>343.107666</ele>
        <time>2010-09-21T16:33:48Z</time>
      </trkpt>
      <trkpt lat="48.7445" lon="7.33896">
        <ele>342.787354</ele>
        <time>2010-09-21T16:33:49Z</time>
      </trkpt>
      <trkpt lat="48.74447" lon="7.33901">
        <ele>342.412354</ele>
        <time>2010-09-21T16:33:50Z</time>
      </trkpt>
      <trkpt lat="48.74443" lon="7.33912">
        <ele>341.154541</ele>
        <time>2010-09-21T16:33:52Z</time>
      </trkpt>
      <trkpt lat="48.74441" lon="7.3392">
        <ele>342.224854</ele>
        <time>2010-09-21T16:33:54Z</time>
      </trkpt>
      <trkpt lat="48.7444" lon="7.33927">
        <ele>340.498291</ele>
        <time>2010-09-21T16:33:55Z</time>
      </trkpt>
      <trkpt lat="48.7444" lon="7.33936">
        <ele>339.670166</ele>
        <time>2010-09-21T16:33:56Z</time>
      </trkpt>
      <trkpt lat="48.74439" lon="7.33943">
        <ele>340.967041</ele>
        <time>2010-09-21T16:33:57Z</time>
      </trkpt>
      <trkpt lat="48.74436" lon="7.33954">
        <ele>339.646729</ele>
        <time>2010-09-21T16:33:59Z</time>
      </trkpt>
      <trkpt lat="48.74436" lon="7.33964">
        <ele>339.490479</ele>
        <time>2010-09-21T16:34:01Z</time>
      </trkpt>
      <trkpt lat="48.74433" lon="7.33977">
        <ele>339.513916</ele>
        <time>2010-09-21T16:34:03Z</time>
      </trkpt>
      <trkpt lat="48.74435" lon="7.33987">
        <ele>341.748291</ele>
        <time>2010-09-21T16:34:04Z</time>
      </trkpt>
      <trkpt lat="48.74432" lon="7.34">
        <ele>341.443604</ele>
        <time>2010-09-21T16:34:06Z</time>
      </trkpt>
      <trkpt lat="48.74431" lon="7.34008">
        <ele>341.107666</ele>
        <time>2010-09-21T16:34:07Z</time>
      </trkpt>
      <trkpt lat="48.74431" lon="7.34015">
        <ele>341.013916</ele>
        <time>2010-09-21T16:34:08Z</time>
      </trkpt>
      <trkpt lat="48.7443" lon="7.34025">
        <ele>340.435791</ele>
        <time>2010-09-21T16:34:10Z</time>
      </trkpt>
      <trkpt lat="48.74427" lon="7.34032">
        <ele>339.826416</ele>
        <time>2010-09-21T16:34:12Z</time>
      </trkpt>
      <trkpt lat="48.7442" lon="7.34035">
        <ele>336.482666</ele>
        <time>2010-09-21T16:34:13Z</time>
      </trkpt>
      <trkpt lat="48.74418" lon="7.34041">
        <ele>334.740479</ele>
        <time>2010-09-21T16:34:23Z</time>
      </trkpt>
      <trkpt lat="48.74417" lon="7.3405">
        <ele>333.849854</ele>
        <time>2010-09-21T16:34:36Z</time>
      </trkpt>
      <trkpt lat="48.74416" lon="7.34061">
        <ele>332.810791</ele>
        <time>2010-09-21T16:34:38Z</time>
      </trkpt>
      <trkpt lat="48.74415" lon="7.34075">
        <ele>331.162354</ele>
        <time>2010-09-21T16:34:40Z</time>
      </trkpt>
      <trkpt lat="48.74414" lon="7.34082">
        <ele>330.615479</ele>
        <time>2010-09-21T16:34:42Z</time>
      </trkpt>
      <trkpt lat="48.74414" lon="7.34091">
        <ele>329.834229</ele>
        <time>2010-09-21T16:34:44Z</time>
      </trkpt>
      <trkpt lat="48.74415" lon="7.34108">
        <ele>329.435791</ele>
        <time>2010-09-21T16:34:46Z</time>
      </trkpt>
      <trkpt lat="48.74413" lon="7.34115">
        <ele>329.474854</ele>
        <time>2010-09-21T16:34:47Z</time>
      </trkpt>
      <trkpt lat="48.74411" lon="7.34121">
        <ele>327.732666</ele>
        <time>2010-09-21T16:34:48Z</time>
      </trkpt>
      <trkpt lat="48.74407" lon="7.34129">
        <ele>327.412354</ele>
        <time>2010-09-21T16:34:49Z</time>
      </trkpt>
      <trkpt lat="48.74403" lon="7.34137">
        <ele>325.334229</ele>
        <time>2010-09-21T16:34:51Z</time>
      </trkpt>
      <trkpt lat="48.74399" lon="7.34143">
        <ele>324.498291</ele>
        <time>2010-09-21T16:34:53Z</time>
      </trkpt>
      <trkpt lat="48.74397" lon="7.34151">
        <ele>323.052979</ele>
        <time>2010-09-21T16:34:55Z</time>
      </trkpt>
      <trkpt lat="48.74392" lon="7.34157">
        <ele>321.740479</ele>
        <time>2010-09-21T16:34:57Z</time>
      </trkpt>
      <trkpt lat="48.7439" lon="7.34164">
        <ele>321.763916</ele>
        <time>2010-09-21T16:34:58Z</time>
      </trkpt>
      <trkpt lat="48.74386" lon="7.34171">
        <ele>320.443604</ele>
        <time>2010-09-21T16:34:59Z</time>
      </trkpt>
      <trkpt lat="48.74381" lon="7.34179">
        <ele>318.185791</ele>
        <time>2010-09-21T16:35:01Z</time>
      </trkpt>
      <trkpt lat="48.74378" lon="7.34189">
        <ele>317.420166</ele>
        <time>2010-09-21T16:35:02Z</time>
      </trkpt>
      <trkpt lat="48.74376" lon="7.34198">
        <ele>317.451416</ele>
        <time>2010-09-21T16:35:03Z</time>
      </trkpt>
      <trkpt lat="48.74375" lon="7.34211">
        <ele>317.435791</ele>
        <time>2010-09-21T16:35:04Z</time>
      </trkpt>
      <trkpt lat="48.74373" lon="7.34219">
        <ele>316.638916</ele>
        <time>2010-09-21T16:35:05Z</time>
      </trkpt>
      <trkpt lat="48.7437" lon="7.34227">
        <ele>315.045166</ele>
        <time>2010-09-21T16:35:06Z</time>
      </trkpt>
      <trkpt lat="48.74362" lon="7.34237">
        <ele>315.615479</ele>
        <time>2010-09-21T16:35:08Z</time>
      </trkpt>
      <trkpt lat="48.74358" lon="7.34245">
        <ele>315.287354</ele>
        <time>2010-09-21T16:35:10Z</time>
      </trkpt>
      <trkpt lat="48.74357" lon="7.34254">
        <ele>314.060791</ele>
        <time>2010-09-21T16:35:12Z</time>
      </trkpt>
      <trkpt lat="48.74353" lon="7.34262">
        <ele>312.396729</ele>
        <time>2010-09-21T16:35:14Z</time>
      </trkpt>
      <trkpt lat="48.74352" lon="7.3427">
        <ele>312.896729</ele>
        <time>2010-09-21T16:35:15Z</time>
      </trkpt>
      <trkpt lat="48.74349" lon="7.34282">
        <ele>313.326416</ele>
        <time>2010-09-21T16:35:17Z</time>
      </trkpt>
      <trkpt lat="48.74347" lon="7.3429">
        <ele>314.201416</ele>
        <time>2010-09-21T16:35:21Z</time>
      </trkpt>
      <trkpt lat="48.74346" lon="7.34296">
        <ele>316.654541</ele>
        <time>2010-09-21T16:35:46Z</time>
      </trkpt>
      <trkpt lat="48.74348" lon="7.34306">
        <ele>316.396729</ele>
        <time>2010-09-21T16:36:05Z</time>
      </trkpt>
      <trkpt lat="48.74349" lon="7.34315">
        <ele>316.810791</ele>
        <time>2010-09-21T16:36:07Z</time>
      </trkpt>
      <trkpt lat="48.74349" lon="7.34326">
        <ele>316.982666</ele>
        <time>2010-09-21T16:36:09Z</time>
      </trkpt>
      <trkpt lat="48.74355" lon="7.34333">
        <ele>317.279541</ele>
        <time>2010-09-21T16:36:11Z</time>
      </trkpt>
      <trkpt lat="48.74361" lon="7.34335">
        <ele>314.193604</ele>
        <time>2010-09-21T16:36:13Z</time>
      </trkpt>
      <trkpt lat="48.74368" lon="7.34336">
        <ele>313.193604</ele>
        <time>2010-09-21T16:36:15Z</time>
      </trkpt>
      <trkpt lat="48.74372" lon="7.34338">
        <ele>312.701416</ele>
        <time>2010-09-21T16:36:18Z</time>
      </trkpt>
      <trkpt lat="48.74374" lon="7.34337">
        <ele>307.888916</ele>
        <time>2010-09-21T16:36:30Z</time>
      </trkpt>
      <trkpt lat="48.7437" lon="7.34342">
        <ele>305.506104</ele>
        <time>2010-09-21T16:37:03Z</time>
      </trkpt>
      <trkpt lat="48.74368" lon="7.34351">
        <ele>304.451416</ele>
        <time>2010-09-21T16:37:09Z</time>
      </trkpt>
      <trkpt lat="48.74366" lon="7.34359">
        <ele>302.834229</ele>
        <time>2010-09-21T16:37:14Z</time>
      </trkpt>
      <trkpt lat="48.74364" lon="7.34367">
        <ele>301.685791</ele>
        <time>2010-09-21T16:37:17Z</time>
      </trkpt>
      <trkpt lat="48.74363" lon="7.34374">
        <ele>301.365479</ele>
        <time>2010-09-21T16:37:19Z</time>
      </trkpt>
      <trkpt lat="48.74362" lon="7.34384">
        <ele>300.013916</ele>
        <time>2010-09-21T16:37:22Z</time>
      </trkpt>
      <trkpt lat="48.74359" lon="7.34393">
        <ele>298.771729</ele>
        <time>2010-09-21T16:37:25Z</time>
      </trkpt>
      <trkpt lat="48.74355" lon="7.344">
        <ele>298.045166</ele>
        <time>2010-09-21T16:37:27Z</time>
      </trkpt>
      <trkpt lat="48.7435" lon="7.34407">
        <ele>297.537354</ele>
        <time>2010-09-21T16:37:29Z</time>
      </trkpt>
      <trkpt lat="48.74347" lon="7.34415">
        <ele>296.990479</ele>
        <time>2010-09-21T16:37:31Z</time>
      </trkpt>
      <trkpt lat="48.74343" lon="7.34421">
        <ele>296.482666</ele>
        <time>2010-09-21T16:37:33Z</time>
      </trkpt>
      <trkpt lat="48.74338" lon="7.34427">
        <ele>295.756104</ele>
        <time>2010-09-21T16:37:35Z</time>
      </trkpt>
      <trkpt lat="48.74333" lon="7.34429">
        <ele>294.498291</ele>
        <time>2010-09-21T16:37:37Z</time>
      </trkpt>
      <trkpt lat="48.74328" lon="7.3443">
        <ele>292.537354</ele>
        <time>2010-09-21T16:37:40Z</time>
      </trkpt>
      <trkpt lat="48.74324" lon="7.34433">
        <ele>291.592041</ele>
        <time>2010-09-21T16:37:43Z</time>
      </trkpt>
      <trkpt lat="48.74321" lon="7.34439">
        <ele>290.154541</ele>
        <time>2010-09-21T16:37:47Z</time>
      </trkpt>
      <trkpt lat="48.7432" lon="7.34446">
        <ele>289.209229</ele>
        <time>2010-09-21T16:37:48Z</time>
      </trkpt>
      <trkpt lat="48.74318" lon="7.34455">
        <ele>289.974854</ele>
        <time>2010-09-21T16:37:49Z</time>
      </trkpt>
      <trkpt lat="48.74318" lon="7.34463">
        <ele>288.349854</ele>
        <time>2010-09-21T16:37:52Z</time>
      </trkpt>
      <trkpt lat="48.74322" lon="7.34468">
        <ele>287.076416</ele>
        <time>2010-09-21T16:37:55Z</time>
      </trkpt>
      <trkpt lat="48.74326" lon="7.34474">
        <ele>286.045166</ele>
        <time>2010-09-21T16:37:58Z</time>
      </trkpt>
      <trkpt lat="48.74321" lon="7.34476">
        <ele>283.498291</ele>
        <time>2010-09-21T16:38:11Z</time>
      </trkpt>
      <trkpt lat="48.74322" lon="7.34484">
        <ele>279.646729</ele>
        <time>2010-09-21T16:38:24Z</time>
      </trkpt>
      <trkpt lat="48.74324" lon="7.3449">
        <ele>278.365479</ele>
        <time>2010-09-21T16:38:26Z</time>
      </trkpt>
      <trkpt lat="48.74327" lon="7.34496">
        <ele>276.881104</ele>
        <time>2010-09-21T16:38:30Z</time>
      </trkpt>
      <trkpt lat="48.74331" lon="7.34501">
        <ele>276.482666</ele>
        <time>2010-09-21T16:38:32Z</time>
      </trkpt>
      <trkpt lat="48.74337" lon="7.34502">
        <ele>276.576416</ele>
        <time>2010-09-21T16:38:35Z</time>
      </trkpt>
      <trkpt lat="48.74341" lon="7.34502">
        <ele>274.435791</ele>
        <time>2010-09-21T16:38:40Z</time>
      </trkpt>
      <trkpt lat="48.74345" lon="7.34507">
        <ele>273.623291</ele>
        <time>2010-09-21T16:38:42Z</time>
      </trkpt>
      <trkpt lat="48.7435" lon="7.3451">
        <ele>272.576416</ele>
        <time>2010-09-21T16:38:44Z</time>
      </trkpt>
      <trkpt lat="48.74355" lon="7.34509">
        <ele>270.670166</ele>
        <time>2010-09-21T16:38:46Z</time>
      </trkpt>
      <trkpt lat="48.74358" lon="7.34516">
        <ele>269.920166</ele>
        <time>2010-09-21T16:38:49Z</time>
      </trkpt>
      <trkpt lat="48.74363" lon="7.34514">
        <ele>268.662354</ele>
        <time>2010-09-21T16:38:50Z</time>
      </trkpt>
      <trkpt lat="48.74371" lon="7.3451">
        <ele>267.732666</ele>
        <time>2010-09-21T16:38:52Z</time>
      </trkpt>
      <trkpt lat="48.74375" lon="7.34508">
        <ele>266.732666</ele>
        <time>2010-09-21T16:38:54Z</time>
      </trkpt>
      <trkpt lat="48.74381" lon="7.34503">
        <ele>264.810791</ele>
        <time>2010-09-21T16:38:56Z</time>
      </trkpt>
      <trkpt lat="48.74386" lon="7.345">
        <ele>264.029541</ele>
        <time>2010-09-21T16:38:57Z</time>
      </trkpt>
      <trkpt lat="48.7439" lon="7.34498">
        <ele>263.092041</ele>
        <time>2010-09-21T16:38:58Z</time>
      </trkpt>
      <trkpt lat="48.74395" lon="7.34495">
        <ele>261.943604</ele>
        <time>2010-09-21T16:38:59Z</time>
      </trkpt>
      <trkpt lat="48.74399" lon="7.34492">
        <ele>261.310791</ele>
        <time>2010-09-21T16:39:02Z</time>
      </trkpt>
      <trkpt lat="48.744" lon="7.34485">
        <ele>260.185791</ele>
        <time>2010-09-21T16:39:12Z</time>
      </trkpt>
      <trkpt lat="48.74403" lon="7.34477">
        <ele>259.552979</ele>
        <time>2010-09-21T16:39:14Z</time>
      </trkpt>
      <trkpt lat="48.74399" lon="7.34482">
        <ele>258.943604</ele>
        <time>2010-09-21T16:39:20Z</time>
      </trkpt>
      <trkpt lat="48.74395" lon="7.34489">
        <ele>257.771729</ele>
        <time>2010-09-21T16:39:23Z</time>
      </trkpt>
      <trkpt lat="48.74389" lon="7.34501">
        <ele>256.654541</ele>
        <time>2010-09-21T16:39:27Z</time>
      </trkpt>
      <trkpt lat="48.74393" lon="7.3451">
        <ele>256.029541</ele>
        <time>2010-09-21T16:39:29Z</time>
      </trkpt>
      <trkpt lat="48.74398" lon="7.34514">
        <ele>256.560791</ele>
        <time>2010-09-21T16:39:31Z</time>
      </trkpt>
      <trkpt lat="48.74402" lon="7.34512">
        <ele>255.745239</ele>
        <time>2010-09-21T16:39:33Z</time>
      </trkpt>
      <trkpt lat="48.74408" lon="7.3451">
        <ele>255.225708</ele>
        <time>2010-09-21T16:39:35Z</time>
      </trkpt>
      <trkpt lat="48.74414" lon="7.34507">
        <ele>253.588989</ele>
        <time>2010-09-21T16:39:37Z</time>
      </trkpt>
      <trkpt lat="48.7442" lon="7.34503">
        <ele>251.792114</ele>
        <time>2010-09-21T16:39:39Z</time>
      </trkpt>
      <trkpt lat="48.74427" lon="7.34501">
        <ele>250.174927</ele>
        <time>2010-09-21T16:39:41Z</time>
      </trkpt>
      <trkpt lat="48.74433" lon="7.34499">
        <ele>248.026489</ele>
        <time>2010-09-21T16:39:43Z</time>
      </trkpt>
      <trkpt lat="48.74433" lon="7.34492">
        <ele>246.428833</ele>
        <time>2010-09-21T16:39:47Z</time>
      </trkpt>
      <trkpt lat="48.74431" lon="7.34486">
        <ele>244.624146</ele>
        <time>2010-09-21T16:39:49Z</time>
      </trkpt>
      <trkpt lat="48.74427" lon="7.34494">
        <ele>243.120239</ele>
        <time>2010-09-21T16:39:51Z</time>
      </trkpt>
      <trkpt lat="48.74423" lon="7.34498">
        <ele>241.514771</ele>
        <time>2010-09-21T16:39:54Z</time>
      </trkpt>
      <trkpt lat="48.7442" lon="7.34505">
        <ele>238.838989</ele>
        <time>2010-09-21T16:39:57Z</time>
      </trkpt>
      <trkpt lat="48.74416" lon="7.34514">
        <ele>241.092896</ele>
        <time>2010-09-21T16:39:58Z</time>
      </trkpt>
      <trkpt lat="48.7442" lon="7.34521">
        <ele>240.549927</ele>
        <time>2010-09-21T16:40:00Z</time>
      </trkpt>
      <trkpt lat="48.74425" lon="7.34521">
        <ele>241.733521</ele>
        <time>2010-09-21T16:40:02Z</time>
      </trkpt>
      <trkpt lat="48.7443" lon="7.34518">
        <ele>240.862427</ele>
        <time>2010-09-21T16:40:04Z</time>
      </trkpt>
      <trkpt lat="48.74435" lon="7.34517">
        <ele>240.440552</ele>
        <time>2010-09-21T16:40:06Z</time>
      </trkpt>
      <trkpt lat="48.74441" lon="7.34514">
        <ele>239.940552</ele>
        <time>2010-09-21T16:40:08Z</time>
      </trkpt>
      <trkpt lat="48.74446" lon="7.3451">
        <ele>239.116333</ele>
        <time>2010-09-21T16:40:10Z</time>
      </trkpt>
      <trkpt lat="48.74451" lon="7.34507">
        <ele>238.842896</ele>
        <time>2010-09-21T16:40:12Z</time>
      </trkpt>
      <trkpt lat="48.74456" lon="7.34503">
        <ele>238.749146</ele>
        <time>2010-09-21T16:40:15Z</time>
      </trkpt>
      <trkpt lat="48.7446" lon="7.34501">
        <ele>238.631958</ele>
        <time>2010-09-21T16:40:18Z</time>
      </trkpt>
      <trkpt lat="48.74456" lon="7.34493">
        <ele>238.741333</ele>
        <time>2010-09-21T16:40:26Z</time>
      </trkpt>
      <trkpt lat="48.74459" lon="7.34501">
        <ele>238.526489</ele>
        <time>2010-09-21T16:40:35Z</time>
      </trkpt>
      <trkpt lat="48.74455" lon="7.3451">
        <ele>238.456177</ele>
        <time>2010-09-21T16:40:37Z</time>
      </trkpt>
      <trkpt lat="48.74447" lon="7.34519">
        <ele>236.530396</ele>
        <time>2010-09-21T16:40:39Z</time>
      </trkpt>
      <trkpt lat="48.74444" lon="7.34525">
        <ele>236.096802</ele>
        <time>2010-09-21T16:40:40Z</time>
      </trkpt>
      <trkpt lat="48.74443" lon="7.3454">
        <ele>234.030396</ele>
        <time>2010-09-21T16:40:42Z</time>
      </trkpt>
      <trkpt lat="48.74442" lon="7.34549">
        <ele>233.264771</ele>
        <time>2010-09-21T16:40:43Z</time>
      </trkpt>
      <trkpt lat="48.74439" lon="7.34561">
        <ele>231.721802</ele>
        <time>2010-09-21T16:40:44Z</time>
      </trkpt>
      <trkpt lat="48.74437" lon="7.34568">
        <ele>230.784302</ele>
        <time>2010-09-21T16:40:45Z</time>
      </trkpt>
      <trkpt lat="48.74434" lon="7.34576">
        <ele>229.901489</ele>
        <time>2010-09-21T16:40:46Z</time>
      </trkpt>
      <trkpt lat="48.7443" lon="7.34586">
        <ele>228.741333</ele>
        <time>2010-09-21T16:40:47Z</time>
      </trkpt>
      <trkpt lat="48.74428" lon="7.34595">
        <ele>227.678833</ele>
        <time>2010-09-21T16:40:48Z</time>
      </trkpt>
      <trkpt lat="48.74426" lon="7.34603">
        <ele>226.960083</ele>
        <time>2010-09-21T16:40:49Z</time>
      </trkpt>
      <trkpt lat="48.74424" lon="7.34612">
        <ele>226.514771</ele>
        <time>2010-09-21T16:40:50Z</time>
      </trkpt>
      <trkpt lat="48.74421" lon="7.34623">
        <ele>225.608521</ele>
        <time>2010-09-21T16:40:51Z</time>
      </trkpt>
      <trkpt lat="48.7442" lon="7.34633">
        <ele>224.885864</ele>
        <time>2010-09-21T16:40:52Z</time>
      </trkpt>
      <trkpt lat="48.74419" lon="7.34642">
        <ele>223.327271</ele>
        <time>2010-09-21T16:40:53Z</time>
      </trkpt>
      <trkpt lat="48.74419" lon="7.3465">
        <ele>221.065552</ele>
        <time>2010-09-21T16:40:55Z</time>
      </trkpt>
      <trkpt lat="48.74419" lon="7.34661">
        <ele>219.264771</ele>
        <time>2010-09-21T16:40:57Z</time>
      </trkpt>
      <trkpt lat="48.74416" lon="7.34672">
        <ele>218.284302</ele>
        <time>2010-09-21T16:40:59Z</time>
      </trkpt>
      <trkpt lat="48.74414" lon="7.34684">
        <ele>215.952271</ele>
        <time>2010-09-21T16:41:01Z</time>
      </trkpt>
      <trkpt lat="48.74411" lon="7.34696">
        <ele>214.428833</ele>
        <time>2010-09-21T16:41:03Z</time>
      </trkpt>
      <trkpt lat="48.7441" lon="7.34704">
        <ele>213.452271</ele>
        <time>2010-09-21T16:41:04Z</time>
      </trkpt>
      <trkpt lat="48.74408" lon="7.34712">
        <ele>212.346802</ele>
        <time>2010-09-21T16:41:05Z</time>
      </trkpt>
      <trkpt lat="48.74407" lon="7.34722">
        <ele>211.780396</ele>
        <time>2010-09-21T16:41:06Z</time>
      </trkpt>
      <trkpt lat="48.74405" lon="7.34731">
        <ele>211.253052</ele>
        <time>2010-09-21T16:41:07Z</time>
      </trkpt>
      <trkpt lat="48.74403" lon="7.34742">
        <ele>209.671021</ele>
        <time>2010-09-21T16:41:08Z</time>
      </trkpt>
      <trkpt lat="48.74402" lon="7.34752">
        <ele>208.760864</ele>
        <time>2010-09-21T16:41:09Z</time>
      </trkpt>
      <trkpt lat="48.74399" lon="7.34763">
        <ele>207.780396</ele>
        <time>2010-09-21T16:41:10Z</time>
      </trkpt>
      <trkpt lat="48.74397" lon="7.34774">
        <ele>206.710083</ele>
        <time>2010-09-21T16:41:11Z</time>
      </trkpt>
      <trkpt lat="48.74395" lon="7.34784">
        <ele>205.846802</ele>
        <time>2010-09-21T16:41:12Z</time>
      </trkpt>
      <trkpt lat="48.74394" lon="7.34795">
        <ele>205.088989</ele>
        <time>2010-09-21T16:41:13Z</time>
      </trkpt>
      <trkpt lat="48.74394" lon="7.34805">
        <ele>203.803833</ele>
        <time>2010-09-21T16:41:14Z</time>
      </trkpt>
      <trkpt lat="48.74393" lon="7.34816">
        <ele>202.850708</ele>
        <time>2010-09-21T16:41:15Z</time>
      </trkpt>
      <trkpt lat="48.74393" lon="7.34827">
        <ele>203.264771</ele>
        <time>2010-09-21T16:41:16Z</time>
      </trkpt>
      <trkpt lat="48.74393" lon="7.34838">
        <ele>203.296021</ele>
        <time>2010-09-21T16:41:17Z</time>
      </trkpt>
      <trkpt lat="48.74395" lon="7.34849">
        <ele>203.956177</ele>
        <time>2010-09-21T16:41:18Z</time>
      </trkpt>
      <trkpt lat="48.74397" lon="7.34858">
        <ele>204.870239</ele>
        <time>2010-09-21T16:41:19Z</time>
      </trkpt>
      <trkpt lat="48.744" lon="7.34866">
        <ele>205.737427</ele>
        <time>2010-09-21T16:41:20Z</time>
      </trkpt>
      <trkpt lat="48.74403" lon="7.34873">
        <ele>206.842896</ele>
        <time>2010-09-21T16:41:21Z</time>
      </trkpt>
      <trkpt lat="48.74407" lon="7.34878">
        <ele>207.803833</ele>
        <time>2010-09-21T16:41:22Z</time>
      </trkpt>
      <trkpt lat="48.74411" lon="7.34883">
        <ele>206.612427</ele>
        <time>2010-09-21T16:41:23Z</time>
      </trkpt>
      <trkpt lat="48.74416" lon="7.34889">
        <ele>205.686646</ele>
        <time>2010-09-21T16:41:24Z</time>
      </trkpt>
      <trkpt lat="48.74419" lon="7.34893">
        <ele>205.585083</ele>
        <time>2010-09-21T16:41:25Z</time>
      </trkpt>
      <trkpt lat="48.74423" lon="7.34898">
        <ele>205.178833</ele>
        <time>2010-09-21T16:41:26Z</time>
      </trkpt>
      <trkpt lat="48.74426" lon="7.34904">
        <ele>204.921021</ele>
        <time>2010-09-21T16:41:27Z</time>
      </trkpt>
      <trkpt lat="48.74429" lon="7.34911">
        <ele>204.753052</ele>
        <time>2010-09-21T16:41:28Z</time>
      </trkpt>
      <trkpt lat="48.74433" lon="7.34916">
        <ele>204.745239</ele>
        <time>2010-09-21T16:41:29Z</time>
      </trkpt>
      <trkpt lat="48.74436" lon="7.34922">
        <ele>205.128052</ele>
        <time>2010-09-21T16:41:30Z</time>
      </trkpt>
      <trkpt lat="48.7444" lon="7.34928">
        <ele>205.307739</ele>
        <time>2010-09-21T16:41:31Z</time>
      </trkpt>
      <trkpt lat="48.74443" lon="7.34933">
        <ele>205.596802</ele>
        <time>2010-09-21T16:41:32Z</time>
      </trkpt>
      <trkpt lat="48.74447" lon="7.34939">
        <ele>205.963989</ele>
        <time>2010-09-21T16:41:33Z</time>
      </trkpt>
      <trkpt lat="48.74451" lon="7.34945">
        <ele>206.061646</ele>
        <time>2010-09-21T16:41:34Z</time>
      </trkpt>
      <trkpt lat="48.74454" lon="7.3495">
        <ele>206.549927</ele>
        <time>2010-09-21T16:41:35Z</time>
      </trkpt>
      <trkpt lat="48.7446" lon="7.34959">
        <ele>207.038208</ele>
        <time>2010-09-21T16:41:37Z</time>
      </trkpt>
      <trkpt lat="48.74464" lon="7.34964">
        <ele>206.850708</ele>
        <time>2010-09-21T16:41:38Z</time>
      </trkpt>
      <trkpt lat="48.74467" lon="7.34969">
        <ele>206.987427</ele>
        <time>2010-09-21T16:41:39Z</time>
      </trkpt>
      <trkpt lat="48.7447" lon="7.34974">
        <ele>206.975708</ele>
        <time>2010-09-21T16:41:40Z</time>
      </trkpt>
      <trkpt lat="48.74472" lon="7.34981">
        <ele>207.167114</ele>
        <time>2010-09-21T16:41:41Z</time>
      </trkpt>
      <trkpt lat="48.74476" lon="7.34987">
        <ele>207.565552</ele>
        <time>2010-09-21T16:41:42Z</time>
      </trkpt>
      <trkpt lat="48.74477" lon="7.34994">
        <ele>208.440552</ele>
        <time>2010-09-21T16:41:43Z</time>
      </trkpt>
      <trkpt lat="48.74481" lon="7.35">
        <ele>209.003052</ele>
        <time>2010-09-21T16:41:44Z</time>
      </trkpt>
      <trkpt lat="48.74485" lon="7.35007">
        <ele>209.026489</ele>
        <time>2010-09-21T16:41:45Z</time>
      </trkpt>
      <trkpt lat="48.74489" lon="7.35013">
        <ele>209.335083</ele>
        <time>2010-09-21T16:41:46Z</time>
      </trkpt>
      <trkpt lat="48.74492" lon="7.3502">
        <ele>209.936646</ele>
        <time>2010-09-21T16:41:47Z</time>
      </trkpt>
      <trkpt lat="48.74495" lon="7.35026">
        <ele>212.198364</ele>
        <time>2010-09-21T16:41:48Z</time>
      </trkpt>
      <trkpt lat="48.745" lon="7.35031">
        <ele>211.760864</ele>
        <time>2010-09-21T16:41:49Z</time>
      </trkpt>
      <trkpt lat="48.74505" lon="7.35038">
        <ele>211.514771</ele>
        <time>2010-09-21T16:41:50Z</time>
      </trkpt>
      <trkpt lat="48.74509" lon="7.35044">
        <ele>212.069458</ele>
        <time>2010-09-21T16:41:51Z</time>
      </trkpt>
      <trkpt lat="48.74513" lon="7.35052">
        <ele>212.124146</ele>
        <time>2010-09-21T16:41:52Z</time>
      </trkpt>
      <trkpt lat="48.74517" lon="7.35059">
        <ele>211.538208</ele>
        <time>2010-09-21T16:41:53Z</time>
      </trkpt>
      <trkpt lat="48.74521" lon="7.35066">
        <ele>211.506958</ele>
        <time>2010-09-21T16:41:54Z</time>
      </trkpt>
      <trkpt lat="48.74524" lon="7.35074">
        <ele>211.389771</ele>
        <time>2010-09-21T16:41:55Z</time>
      </trkpt>
      <trkpt lat="48.74527" lon="7.35083">
        <ele>211.799927</ele>
        <time>2010-09-21T16:41:56Z</time>
      </trkpt>
      <trkpt lat="48.7453" lon="7.35091">
        <ele>211.167114</ele>
        <time>2010-09-21T16:41:57Z</time>
      </trkpt>
      <trkpt lat="48.74534" lon="7.35098">
        <ele>210.772583</ele>
        <time>2010-09-21T16:41:58Z</time>
      </trkpt>
      <trkpt lat="48.74538" lon="7.35106">
        <ele>210.034302</ele>
        <time>2010-09-21T16:41:59Z</time>
      </trkpt>
      <trkpt lat="48.74542" lon="7.35114">
        <ele>209.674927</ele>
        <time>2010-09-21T16:42:00Z</time>
      </trkpt>
      <trkpt lat="48.74543" lon="7.35123">
        <ele>209.307739</ele>
        <time>2010-09-21T16:42:01Z</time>
      </trkpt>
      <trkpt lat="48.74545" lon="7.35133">
        <ele>209.331177</ele>
        <time>2010-09-21T16:42:02Z</time>
      </trkpt>
      <trkpt lat="48.74548" lon="7.35143">
        <ele>209.374146</ele>
        <time>2010-09-21T16:42:03Z</time>
      </trkpt>
      <trkpt lat="48.74551" lon="7.35153">
        <ele>209.182739</ele>
        <time>2010-09-21T16:42:04Z</time>
      </trkpt>
      <trkpt lat="48.74552" lon="7.35163">
        <ele>209.233521</ele>
        <time>2010-09-21T16:42:05Z</time>
      </trkpt>
      <trkpt lat="48.74555" lon="7.35176">
        <ele>209.717896</ele>
        <time>2010-09-21T16:42:06Z</time>
      </trkpt>
      <trkpt lat="48.74558" lon="7.35187">
        <ele>210.639771</ele>
        <time>2010-09-21T16:42:07Z</time>
      </trkpt>
      <trkpt lat="48.74562" lon="7.35196">
        <ele>211.081177</ele>
        <time>2010-09-21T16:42:08Z</time>
      </trkpt>
      <trkpt lat="48.74566" lon="7.35206">
        <ele>211.272583</ele>
        <time>2010-09-21T16:42:09Z</time>
      </trkpt>
      <trkpt lat="48.74571" lon="7.35216">
        <ele>211.409302</ele>
        <time>2010-09-21T16:42:10Z</time>
      </trkpt>
      <trkpt lat="48.74577" lon="7.35224">
        <ele>211.503052</ele>
        <time>2010-09-21T16:42:11Z</time>
      </trkpt>
      <trkpt lat="48.74581" lon="7.35233">
        <ele>213.233521</ele>
        <time>2010-09-21T16:42:12Z</time>
      </trkpt>
      <trkpt lat="48.74587" lon="7.35242">
        <ele>213.764771</ele>
        <time>2010-09-21T16:42:13Z</time>
      </trkpt>
      <trkpt lat="48.74591" lon="7.35252">
        <ele>214.483521</ele>
        <time>2010-09-21T16:42:14Z</time>
      </trkpt>
      <trkpt lat="48.74595" lon="7.35261">
        <ele>214.971802</ele>
        <time>2010-09-21T16:42:15Z</time>
      </trkpt>
      <trkpt lat="48.74599" lon="7.35272">
        <ele>215.639771</ele>
        <time>2010-09-21T16:42:16Z</time>
      </trkpt>
      <trkpt lat="48.74602" lon="7.35282">
        <ele>216.143677</ele>
        <time>2010-09-21T16:42:17Z</time>
      </trkpt>
      <trkpt lat="48.74604" lon="7.35293">
        <ele>216.561646</ele>
        <time>2010-09-21T16:42:18Z</time>
      </trkpt>
      <trkpt lat="48.74605" lon="7.35304">
        <ele>216.960083</ele>
        <time>2010-09-21T16:42:19Z</time>
      </trkpt>
      <trkpt lat="48.74604" lon="7.35315">
        <ele>217.358521</ele>
        <time>2010-09-21T16:42:20Z</time>
      </trkpt>
      <trkpt lat="48.74604" lon="7.35327">
        <ele>217.581177</ele>
        <time>2010-09-21T16:42:21Z</time>
      </trkpt>
      <trkpt lat="48.74603" lon="7.35338">
        <ele>217.335083</ele>
        <time>2010-09-21T16:42:22Z</time>
      </trkpt>
      <trkpt lat="48.746" lon="7.35348">
        <ele>217.565552</ele>
        <time>2010-09-21T16:42:23Z</time>
      </trkpt>
      <trkpt lat="48.74601" lon="7.35357">
        <ele>216.159302</ele>
        <time>2010-09-21T16:42:24Z</time>
      </trkpt>
      <trkpt lat="48.746" lon="7.35369">
        <ele>215.604614</ele>
        <time>2010-09-21T16:42:25Z</time>
      </trkpt>
      <trkpt lat="48.74563" lon="7.35572">
        <ele>201.424927</ele>
        <time>2010-09-21T16:42:45Z</time>
      </trkpt>
      <trkpt lat="48.74416" lon="7.35643">
        <ele>197.780396</ele>
        <time>2010-09-21T16:43:26Z</time>
      </trkpt>
    </trkseg>
  </trk>
</gpx>